Darstellungsparameter: Aktuell verwendete Einstellungen:
Skalierung der Graphiken ... ?
xyx+y,   Skalierungsfaktor:      Skalierung: Modus: x, Faktor: 1
Darstellungszeitraum ... ?
Vom - - bis: - -   Zeitraum: 25.10.2019 - 24.04.2020
Min/Max/Avg-Anzeige ... ?
Zeige MMA aktuell
Zeige MMA Monat
Zeige MMA alles
Zeige --A aktuell
Zeige --A Monat
Zeige --A alles
Keine MMA-Anzeige
MMA:
Keine MMA-Graphiken
MMA-Basis: 25.10.2019 - 24.04.2020
Quicknavigation für Darstellung... ?
Tage:      1T, 2T, 3T, 5T -1T -2T -3T -5T +1T +2T +3T +5T
Wochen: 1W, 2W, 3W -1W -2W -3W +1W +2W +3W
Monate: 1M, 3M, 6M -1M -3M -6M +1M +3M +6M
Jahre:    1J, 3J, 5J, 10J -1J -3J -5J -10J +1J +3J +5J +10J
Nutze für die Darstellung ... ?
Originaldaten oder Mittelwerte auf ...
Stundenbasis Tagesbasis Wochenbasis
Monatsbasis Jahresbasis      Datenbasis: Original-Daten
Darstellen als:
Statistik (Auto) Statistik J:M      Darstellung:
Zur Graphik,    zurück zur Übersicht aller Sensoren.
 
Tabellarische Datenbersicht: ?
 
Sensor: Nr:Datum:Temp:Feuchte:Taupunkt:
Aussen-T/F 1 25-10-2019 00:00:00 12.8 C 93 % 11.7 C
2 25-10-2019 00:05:00 12.7 C 93 % 11.6 C
3 25-10-2019 00:10:00 12.6 C 93 % 11.5 C
4 25-10-2019 00:15:00 12.6 C 93 % 11.5 C
5 25-10-2019 00:20:00 12.5 C 93 % 11.4 C
6 25-10-2019 00:25:00 12.4 C 94 % 11.46 C
7 25-10-2019 00:30:00 12.3 C 94 % 11.36 C
8 25-10-2019 00:35:00 12.3 C 94 % 11.36 C
9 25-10-2019 00:40:00 12.2 C 94 % 11.26 C
10 25-10-2019 00:45:00 12.2 C 94 % 11.26 C
11 25-10-2019 00:50:00 12.2 C 94 % 11.26 C
12 25-10-2019 00:55:00 12.1 C 94 % 11.16 C
13 25-10-2019 01:00:00 12.1 C 95 % 11.32 C
14 25-10-2019 01:05:00 12.1 C 95 % 11.32 C
15 25-10-2019 01:10:00 12.1 C 95 % 11.32 C
16 25-10-2019 01:15:00 12.1 C 95 % 11.32 C
17 25-10-2019 01:20:00 12 C 95 % 11.22 C
18 25-10-2019 01:25:00 12 C 95 % 11.22 C
19 25-10-2019 01:30:00 11.9 C 95 % 11.13 C
20 25-10-2019 01:35:00 11.9 C 95 % 11.13 C
21 25-10-2019 01:40:00 11.9 C 95 % 11.13 C
22 25-10-2019 01:45:00 11.8 C 95 % 11.03 C
23 25-10-2019 01:50:00 11.8 C 95 % 11.03 C
24 25-10-2019 01:55:00 11.7 C 95 % 10.93 C
25 25-10-2019 02:00:00 11.6 C 95 % 10.83 C
Sensor: Nr:Datum:Temp:Feuchte:Taupunkt:
Aussen-T/F 26 25-10-2019 02:05:00 11.6 C 95 % 10.83 C
27 25-10-2019 02:10:00 11.5 C 95 % 10.73 C
28 25-10-2019 02:15:00 11.5 C 95 % 10.73 C
29 25-10-2019 02:20:00 11.5 C 95 % 10.73 C
30 25-10-2019 02:25:00 11.4 C 95 % 10.63 C
31 25-10-2019 02:30:00 11.4 C 95 % 10.63 C
32 25-10-2019 02:35:00 11.4 C 95 % 10.63 C
33 25-10-2019 02:40:00 11.3 C 95 % 10.53 C
34 25-10-2019 02:45:00 11.4 C 96 % 10.79 C
35 25-10-2019 02:50:00 11.6 C 96 % 10.98 C
36 25-10-2019 02:55:00 11.7 C 95 % 10.93 C
37 25-10-2019 03:00:00 11.7 C 95 % 10.93 C
38 25-10-2019 03:05:00 12 C 96 % 11.38 C
39 25-10-2019 03:10:00 12.2 C 95 % 11.42 C
40 25-10-2019 03:15:00 12.3 C 94 % 11.36 C
41 25-10-2019 03:20:00 12.3 C 94 % 11.36 C
42 25-10-2019 03:25:00 12.3 C 94 % 11.36 C
43 25-10-2019 03:30:00 12.4 C 93 % 11.3 C
44 25-10-2019 03:35:00 12.4 C 93 % 11.3 C
45 25-10-2019 03:40:00 12.4 C 93 % 11.3 C
46 25-10-2019 03:45:00 12.6 C 93 % 11.5 C
47 25-10-2019 03:50:00 12.7 C 93 % 11.6 C
48 25-10-2019 03:55:00 12.8 C 93 % 11.7 C
49 25-10-2019 04:00:00 12.9 C 93 % 11.8 C
50 25-10-2019 04:05:00 12.8 C 92 % 11.53 C
Sensor: Nr:Datum:Temp:Feuchte:Taupunkt:
Aussen-T/F 51 25-10-2019 04:10:00 12.8 C 92 % 11.53 C
52 25-10-2019 04:15:00 12.8 C 92 % 11.53 C
53 25-10-2019 04:20:00 12.8 C 92 % 11.53 C
54 25-10-2019 04:25:00 12.8 C 92 % 11.53 C
55 25-10-2019 04:30:00 12.8 C 92 % 11.53 C
56 25-10-2019 04:35:00 12.9 C 92 % 11.63 C
57 25-10-2019 04:40:00 13 C 92 % 11.73 C
58 25-10-2019 04:45:00 13.1 C 91 % 11.67 C
59 25-10-2019 04:50:00 13 C 90 % 11.4 C
60 25-10-2019 04:55:00 12.9 C 90 % 11.3 C
61 25-10-2019 05:00:00 12.8 C 90 % 11.2 C
62 25-10-2019 05:05:00 12.7 C 90 % 11.1 C
63 25-10-2019 05:10:00 12.6 C 91 % 11.17 C
64 25-10-2019 05:15:00 12.6 C 91 % 11.17 C
65 25-10-2019 05:20:00 12.6 C 91 % 11.17 C
66 25-10-2019 05:25:00 12.6 C 91 % 11.17 C
67 25-10-2019 05:30:00 12.7 C 91 % 11.27 C
68 25-10-2019 05:35:00 12.7 C 91 % 11.27 C
69 25-10-2019 05:40:00 12.7 C 91 % 11.27 C
70 25-10-2019 05:45:00 12.7 C 91 % 11.27 C
71 25-10-2019 05:50:00 12.6 C 91 % 11.17 C
72 25-10-2019 05:55:00 12.6 C 91 % 11.17 C
73 25-10-2019 06:00:00 12.6 C 91 % 11.17 C
74 25-10-2019 06:05:00 12.5 C 91 % 11.07 C
75 25-10-2019 06:10:00 12.4 C 91 % 10.97 C
Sensor: Nr:Datum:Temp:Feuchte:Taupunkt:
Aussen-T/F 76 25-10-2019 06:15:00 12.3 C 92 % 11.04 C
77 25-10-2019 06:20:00 12.4 C 92 % 11.14 C
78 25-10-2019 06:25:00 12.4 C 93 % 11.3 C
79 25-10-2019 06:30:00 12.5 C 93 % 11.4 C
80 25-10-2019 06:35:00 12.6 C 93 % 11.5 C
81 25-10-2019 06:40:00 12.8 C 92 % 11.53 C
82 25-10-2019 06:45:00 12.9 C 92 % 11.63 C
83 25-10-2019 06:50:00 13.1 C 92 % 11.83 C
84 25-10-2019 06:55:00 13.1 C 92 % 11.83 C
85 25-10-2019 07:00:00 13.2 C 91 % 11.76 C
86 25-10-2019 07:05:00 13.3 C 91 % 11.86 C
87 25-10-2019 07:10:00 13.3 C 91 % 11.86 C
88 25-10-2019 07:15:00 13.3 C 90 % 11.7 C
89 25-10-2019 07:20:00 13.2 C 90 % 11.6 C
90 25-10-2019 07:25:00 13.2 C 90 % 11.6 C
91 25-10-2019 07:30:00 13.1 C 90 % 11.5 C
92 25-10-2019 07:35:00 13.1 C 91 % 11.67 C
93 25-10-2019 07:40:00 13.1 C 91 % 11.67 C
94 25-10-2019 07:45:00 13.1 C 91 % 11.67 C
95 25-10-2019 07:50:00 13.1 C 91 % 11.67 C
96 25-10-2019 07:55:00 13.1 C 91 % 11.67 C
97 25-10-2019 08:00:00 13 C 91 % 11.57 C
98 25-10-2019 08:05:00 12.9 C 91 % 11.47 C
99 25-10-2019 08:10:00 12.8 C 91 % 11.37 C
100 25-10-2019 08:15:00 12.8 C 91 % 11.37 C
Sensor: Nr:Datum:Temp:Feuchte:Taupunkt:
Aussen-T/F 101 25-10-2019 08:20:00 12.8 C 91 % 11.37 C
102 25-10-2019 08:25:00 12.7 C 91 % 11.27 C
103 25-10-2019 08:30:00 12.6 C 92 % 11.34 C
104 25-10-2019 08:35:00 12.6 C 92 % 11.34 C
105 25-10-2019 08:40:00 12.5 C 92 % 11.24 C
106 25-10-2019 08:45:00 12.5 C 92 % 11.24 C
107 25-10-2019 08:50:00 12.5 C 93 % 11.4 C
108 25-10-2019 08:55:00 12.5 C 93 % 11.4 C
109 25-10-2019 09:00:00 12.6 C 93 % 11.5 C
110 25-10-2019 09:05:00 12.6 C 93 % 11.5 C
111 25-10-2019 09:10:00 12.6 C 93 % 11.5 C
112 25-10-2019 09:15:00 12.7 C 93 % 11.6 C
113 25-10-2019 09:20:00 12.8 C 94 % 11.86 C
114 25-10-2019 09:25:00 12.9 C 94 % 11.96 C
115 25-10-2019 09:30:00 12.9 C 94 % 11.96 C
116 25-10-2019 09:35:00 13.1 C 93 % 11.99 C
117 25-10-2019 09:40:00 13.1 C 93 % 11.99 C
118 25-10-2019 09:45:00 13.2 C 92 % 11.93 C
119 25-10-2019 09:50:00 13.3 C 92 % 12.03 C
120 25-10-2019 09:55:00 13.4 C 92 % 12.13 C
121 25-10-2019 10:00:00 13.4 C 92 % 12.13 C
122 25-10-2019 10:05:00 13.5 C 92 % 12.23 C
123 25-10-2019 10:10:00 13.5 C 92 % 12.23 C
124 25-10-2019 10:15:00 13.4 C 91 % 11.96 C
125 25-10-2019 10:20:00 13.5 C 90 % 11.89 C
Sensor: Nr:Datum:Temp:Feuchte:Taupunkt:
Aussen-T/F 126 25-10-2019 10:25:00 13.6 C 90 % 11.99 C
127 25-10-2019 10:30:00 13.7 C 89 % 11.92 C
128 25-10-2019 10:35:00 13.8 C 89 % 12.02 C
129 25-10-2019 10:40:00 13.9 C 88 % 11.95 C
130 25-10-2019 10:45:00 14.1 C 87 % 11.97 C
131 25-10-2019 10:50:00 14.3 C 85 % 11.81 C
132 25-10-2019 10:55:00 14.6 C 84 % 11.93 C
133 25-10-2019 11:00:00 14.7 C 84 % 12.03 C
134 25-10-2019 11:05:00 14.7 C 83 % 11.85 C
135 25-10-2019 11:10:00 14.8 C 83 % 11.94 C
136 25-10-2019 11:15:00 14.8 C 83 % 11.94 C
137 25-10-2019 11:20:00 14.9 C 83 % 12.04 C
138 25-10-2019 11:25:00 14.9 C 82 % 11.86 C
139 25-10-2019 11:30:00 14.9 C 82 % 11.86 C
140 25-10-2019 11:35:00 15 C 82 % 11.95 C
141 25-10-2019 11:40:00 15 C 82 % 11.95 C
142 25-10-2019 11:45:00 15 C 82 % 11.95 C
143 25-10-2019 11:50:00 15.1 C 82 % 12.05 C
144 25-10-2019 11:55:00 15.1 C 82 % 12.05 C
145 25-10-2019 12:00:00 15.1 C 81 % 11.87 C
146 25-10-2019 12:05:00 15 C 80 % 11.58 C
147 25-10-2019 12:10:00 15.1 C 81 % 11.87 C
148 25-10-2019 12:15:00 15.1 C 80 % 11.68 C
149 25-10-2019 12:20:00 15.2 C 80 % 11.78 C
150 25-10-2019 12:25:00 15.2 C 79 % 11.59 C
Sensor: Nr:Datum:Temp:Feuchte:Taupunkt:
Aussen-T/F 151 25-10-2019 12:30:00 15.2 C 79 % 11.59 C
152 25-10-2019 12:35:00 15.3 C 79 % 11.68 C
153 25-10-2019 12:40:00 15.4 C 78 % 11.59 C
154 25-10-2019 12:45:00 15.4 C 78 % 11.59 C
155 25-10-2019 12:50:00 15.6 C 79 % 11.97 C
156 25-10-2019 12:55:00 15.7 C 78 % 11.88 C
157 25-10-2019 13:00:00 15.7 C 76 % 11.48 C
158 25-10-2019 13:05:00 15.9 C 78 % 12.07 C
159 25-10-2019 13:10:00 16.1 C 75 % 11.67 C
160 25-10-2019 13:15:00 16.2 C 74 % 11.56 C
161 25-10-2019 13:20:00 16.2 C 75 % 11.77 C
162 25-10-2019 13:25:00 16.3 C 75 % 11.86 C
163 25-10-2019 13:30:00 16.4 C 73 % 11.55 C
164 25-10-2019 13:35:00 16.5 C 73 % 11.65 C
165 25-10-2019 13:40:00 16.4 C 70 % 10.92 C
166 25-10-2019 13:45:00 16.3 C 71 % 11.04 C
167 25-10-2019 13:50:00 16.2 C 72 % 11.15 C
168 25-10-2019 13:55:00 16.1 C 73 % 11.26 C
169 25-10-2019 14:00:00 16 C 73 % 11.17 C
170 25-10-2019 14:05:00 16 C 73 % 11.17 C
171 25-10-2019 14:10:00 16.1 C 73 % 11.26 C
172 25-10-2019 14:15:00 16.2 C 74 % 11.56 C
173 25-10-2019 14:20:00 16.2 C 75 % 11.77 C
174 25-10-2019 14:25:00 16.3 C 76 % 12.07 C
175 25-10-2019 14:30:00 16.3 C 75 % 11.86 C
Sensor: Nr:Datum:Temp:Feuchte:Taupunkt:
Aussen-T/F 176 25-10-2019 14:35:00 16.4 C 74 % 11.76 C
177 25-10-2019 14:40:00 16.5 C 74 % 11.85 C
178 25-10-2019 14:45:00 16.5 C 74 % 11.85 C
179 25-10-2019 14:50:00 16.5 C 73 % 11.65 C
180 25-10-2019 14:55:00 16.5 C 72 % 11.44 C
181 25-10-2019 15:00:00 16.5 C 72 % 11.44 C
182 25-10-2019 15:05:00 16.6 C 71 % 11.32 C
183 25-10-2019 15:10:00 16.6 C 71 % 11.32 C
184 25-10-2019 15:15:00 16.5 C 71 % 11.23 C
185 25-10-2019 15:20:00 16.4 C 70 % 10.92 C
186 25-10-2019 15:25:00 16.4 C 70 % 10.92 C
187 25-10-2019 15:30:00 16.4 C 70 % 10.92 C
188 25-10-2019 15:35:00 16.4 C 72 % 11.34 C
189 25-10-2019 15:40:00 16.4 C 70 % 10.92 C
190 25-10-2019 15:45:00 16.4 C 69 % 10.7 C
191 25-10-2019 15:50:00 16.3 C 70 % 10.82 C
192 25-10-2019 15:55:00 16.3 C 70 % 10.82 C
193 25-10-2019 16:00:00 16.3 C 70 % 10.82 C
194 25-10-2019 16:05:00 16.3 C 70 % 10.82 C
195 25-10-2019 16:10:00 16.3 C 73 % 11.46 C
196 25-10-2019 16:15:00 16.2 C 71 % 10.94 C
197 25-10-2019 16:20:00 16.2 C 74 % 11.56 C
198 25-10-2019 16:25:00 16.1 C 72 % 11.06 C
199 25-10-2019 16:30:00 16.1 C 74 % 11.47 C
200 25-10-2019 16:35:00 16.1 C 73 % 11.26 C
Sensor: Nr:Datum:Temp:Feuchte:Taupunkt:
Aussen-T/F 201 25-10-2019 16:40:00 15.9 C 75 % 11.48 C
202 25-10-2019 16:45:00 15.8 C 76 % 11.58 C
203 25-10-2019 16:50:00 15.7 C 74 % 11.08 C
204 25-10-2019 16:55:00 15.7 C 76 % 11.48 C
205 25-10-2019 17:00:00 15.5 C 78 % 11.68 C
206 25-10-2019 17:05:00 15.3 C 79 % 11.68 C
207 25-10-2019 17:10:00 15.1 C 80 % 11.68 C
208 25-10-2019 17:15:00 14.9 C 80 % 11.48 C
209 25-10-2019 17:20:00 14.7 C 81 % 11.48 C
210 25-10-2019 17:25:00 14.6 C 82 % 11.56 C
211 25-10-2019 17:30:00 14.4 C 82 % 11.37 C
212 25-10-2019 17:35:00 14.3 C 83 % 11.45 C
213 25-10-2019 17:40:00 14.2 C 83 % 11.36 C
214 25-10-2019 17:45:00 14.1 C 84 % 11.44 C
215 25-10-2019 17:50:00 13.9 C 84 % 11.24 C
216 25-10-2019 17:55:00 13.8 C 85 % 11.32 C
217 25-10-2019 18:00:00 13.7 C 85 % 11.23 C
218 25-10-2019 18:05:00 13.6 C 85 % 11.13 C
219 25-10-2019 18:10:00 13.4 C 86 % 11.11 C
220 25-10-2019 18:15:00 13.2 C 86 % 10.91 C
221 25-10-2019 18:20:00 13.1 C 86 % 10.81 C
222 25-10-2019 18:25:00 13 C 87 % 10.89 C
223 25-10-2019 18:30:00 12.9 C 87 % 10.79 C
224 25-10-2019 18:35:00 12.8 C 86 % 10.52 C
225 25-10-2019 18:40:00 12.7 C 87 % 10.59 C
Sensor: Nr:Datum:Temp:Feuchte:Taupunkt:
Aussen-T/F 226 25-10-2019 18:45:00 12.7 C 87 % 10.59 C
227 25-10-2019 18:50:00 12.6 C 87 % 10.5 C
228 25-10-2019 18:55:00 12.5 C 88 % 10.57 C
229 25-10-2019 19:00:00 12.4 C 88 % 10.47 C
230 25-10-2019 19:05:00 12.3 C 89 % 10.54 C
231 25-10-2019 19:10:00 12.2 C 89 % 10.44 C
232 25-10-2019 19:15:00 12.2 C 89 % 10.44 C
233 25-10-2019 19:20:00 12.1 C 90 % 10.51 C
234 25-10-2019 19:25:00 12 C 90 % 10.41 C
235 25-10-2019 19:30:00 11.9 C 90 % 10.31 C
236 25-10-2019 19:35:00 11.8 C 90 % 10.21 C
237 25-10-2019 19:40:00 11.8 C 91 % 10.38 C
238 25-10-2019 19:45:00 11.8 C 91 % 10.38 C
239 25-10-2019 19:50:00 11.7 C 91 % 10.28 C
240 25-10-2019 19:55:00 11.7 C 91 % 10.28 C
241 25-10-2019 20:00:00 11.6 C 91 % 10.18 C
242 25-10-2019 20:05:00 11.6 C 91 % 10.18 C
243 25-10-2019 20:10:00 11.6 C 92 % 10.35 C
244 25-10-2019 20:15:00 11.6 C 91 % 10.18 C
245 25-10-2019 20:20:00 11.6 C 91 % 10.18 C
246 25-10-2019 20:25:00 11.5 C 91 % 10.08 C
247 25-10-2019 20:30:00 11.4 C 91 % 9.98 C
248 25-10-2019 20:35:00 11.3 C 91 % 9.89 C
249 25-10-2019 20:40:00 11.3 C 91 % 9.89 C
250 25-10-2019 20:45:00 11.3 C 92 % 10.05 C
Sensor: Nr:Datum:Temp:Feuchte:Taupunkt:
Aussen-T/F 251 25-10-2019 20:50:00 11.3 C 92 % 10.05 C
252 25-10-2019 20:55:00 11.3 C 92 % 10.05 C
253 25-10-2019 21:00:00 11.3 C 92 % 10.05 C
254 25-10-2019 21:05:00 11.3 C 92 % 10.05 C
255 25-10-2019 21:10:00 11.2 C 92 % 9.95 C
256 25-10-2019 21:15:00 11.2 C 92 % 9.95 C
257 25-10-2019 21:20:00 11.1 C 92 % 9.85 C
258 25-10-2019 21:25:00 11.1 C 92 % 9.85 C
259 25-10-2019 21:30:00 10.9 C 92 % 9.65 C
260 25-10-2019 21:35:00 10.9 C 92 % 9.65 C
261 25-10-2019 21:40:00 10.9 C 93 % 9.81 C
262 25-10-2019 21:45:00 10.9 C 93 % 9.81 C
263 25-10-2019 21:50:00 10.8 C 93 % 9.71 C
264 25-10-2019 21:55:00 10.7 C 93 % 9.62 C
265 25-10-2019 22:00:00 10.8 C 94 % 9.87 C
266 25-10-2019 22:05:00 10.9 C 94 % 9.97 C
267 25-10-2019 22:10:00 11.1 C 94 % 10.17 C
268 25-10-2019 22:15:00 11.2 C 94 % 10.27 C
269 25-10-2019 22:20:00 11.3 C 94 % 10.37 C
270 25-10-2019 22:25:00 11.3 C 94 % 10.37 C
271 25-10-2019 22:30:00 11.3 C 94 % 10.37 C
272 25-10-2019 22:35:00 11.4 C 94 % 10.47 C
273 25-10-2019 22:40:00 11.4 C 94 % 10.47 C
274 25-10-2019 22:45:00 11.6 C 93 % 10.51 C
275 25-10-2019 22:50:00 11.6 C 93 % 10.51 C
Sensor: Nr:Datum:Temp:Feuchte:Taupunkt:
Aussen-T/F 276 25-10-2019 22:55:00 11.7 C 93 % 10.61 C
277 25-10-2019 23:00:00 11.8 C 93 % 10.71 C
278 25-10-2019 23:05:00 11.9 C 93 % 10.81 C
279 25-10-2019 23:10:00 12.1 C 93 % 11 C
280 25-10-2019 23:15:00 12.2 C 93 % 11.1 C
281 25-10-2019 23:20:00 12.3 C 93 % 11.2 C
282 25-10-2019 23:25:00 12.4 C 93 % 11.3 C
283 25-10-2019 23:30:00 12.6 C 93 % 11.5 C
284 25-10-2019 23:35:00 12.7 C 92 % 11.43 C
285 25-10-2019 23:40:00 12.8 C 91 % 11.37 C
286 25-10-2019 23:45:00 12.8 C 91 % 11.37 C
287 25-10-2019 23:50:00 12.9 C 91 % 11.47 C
288 25-10-2019 23:55:00 13.1 C 91 % 11.67 C
289 26-10-2019 00:00:00 13.1 C 90 % 11.5 C
290 26-10-2019 00:05:00 13.2 C 91 % 11.76 C
291 26-10-2019 00:10:00 13.2 C 90 % 11.6 C
292 26-10-2019 00:15:00 13.3 C 90 % 11.7 C
293 26-10-2019 00:20:00 13.4 C 90 % 11.79 C
294 26-10-2019 00:25:00 13.5 C 89 % 11.72 C
295 26-10-2019 00:30:00 13.6 C 89 % 11.82 C
296 26-10-2019 00:35:00 13.7 C 88 % 11.75 C
297 26-10-2019 00:40:00 13.7 C 89 % 11.92 C
298 26-10-2019 00:45:00 13.7 C 88 % 11.75 C
299 26-10-2019 00:50:00 13.7 C 88 % 11.75 C
300 26-10-2019 00:55:00 13.7 C 88 % 11.75 C
Sensor: Nr:Datum:Temp:Feuchte:Taupunkt:
Aussen-T/F 301 26-10-2019 01:00:00 13.7 C 88 % 11.75 C
302 26-10-2019 01:05:00 13.7 C 88 % 11.75 C
303 26-10-2019 01:10:00 13.6 C 88 % 11.65 C
304 26-10-2019 01:15:00 13.6 C 88 % 11.65 C
305 26-10-2019 01:20:00 13.5 C 88 % 11.55 C
306 26-10-2019 01:25:00 13.4 C 88 % 11.45 C
307 26-10-2019 01:30:00 13.4 C 89 % 11.63 C
308 26-10-2019 01:35:00 13.6 C 88 % 11.65 C
309 26-10-2019 01:40:00 13.8 C 88 % 11.85 C
310 26-10-2019 01:45:00 13.8 C 88 % 11.85 C
311 26-10-2019 01:50:00 13.9 C 88 % 11.95 C
312 26-10-2019 01:55:00 14.1 C 88 % 12.14 C
313 26-10-2019 02:00:00 14.1 C 87 % 11.97 C
314 26-10-2019 02:05:00 14.2 C 86 % 11.89 C
315 26-10-2019 02:10:00 14.1 C 86 % 11.8 C
316 26-10-2019 02:15:00 13.9 C 86 % 11.6 C
317 26-10-2019 02:20:00 13.8 C 87 % 11.68 C
318 26-10-2019 02:25:00 13.6 C 87 % 11.48 C
319 26-10-2019 02:30:00 13.4 C 88 % 11.45 C
320 26-10-2019 02:35:00 13.3 C 89 % 11.53 C
321 26-10-2019 02:40:00 13.2 C 89 % 11.43 C
322 26-10-2019 02:45:00 13.1 C 89 % 11.33 C
323 26-10-2019 02:50:00 12.9 C 89 % 11.13 C
324 26-10-2019 02:55:00 12.8 C 90 % 11.2 C
325 26-10-2019 03:00:00 12.8 C 90 % 11.2 C
Sensor: Nr:Datum:Temp:Feuchte:Taupunkt:
Aussen-T/F 326 26-10-2019 03:05:00 12.7 C 90 % 11.1 C
327 26-10-2019 03:10:00 12.6 C 91 % 11.17 C
328 26-10-2019 03:15:00 12.5 C 91 % 11.07 C
329 26-10-2019 03:20:00 12.4 C 91 % 10.97 C
330 26-10-2019 03:25:00 12.3 C 91 % 10.87 C
331 26-10-2019 03:30:00 12.3 C 91 % 10.87 C
332 26-10-2019 03:35:00 12.2 C 91 % 10.78 C
333 26-10-2019 03:40:00 12 C 92 % 10.74 C
334 26-10-2019 03:45:00 11.9 C 92 % 10.64 C
335 26-10-2019 03:50:00 11.8 C 92 % 10.54 C
336 26-10-2019 03:55:00 11.7 C 92 % 10.44 C
337 26-10-2019 04:00:00 11.7 C 93 % 10.61 C
338 26-10-2019 04:05:00 11.6 C 93 % 10.51 C
339 26-10-2019 04:10:00 11.6 C 93 % 10.51 C
340 26-10-2019 04:15:00 11.5 C 93 % 10.41 C
341 26-10-2019 04:20:00 11.4 C 93 % 10.31 C
342 26-10-2019 04:25:00 11.3 C 93 % 10.21 C
343 26-10-2019 04:30:00 11.3 C 94 % 10.37 C
344 26-10-2019 04:35:00 11.4 C 94 % 10.47 C
345 26-10-2019 04:40:00 11.7 C 95 % 10.93 C
346 26-10-2019 04:45:00 11.8 C 95 % 11.03 C
347 26-10-2019 04:50:00 11.9 C 94 % 10.97 C
348 26-10-2019 04:55:00 11.9 C 94 % 10.97 C
349 26-10-2019 05:00:00 12.1 C 94 % 11.16 C
350 26-10-2019 05:05:00 12.2 C 94 % 11.26 C
Sensor: Nr:Datum:Temp:Feuchte:Taupunkt:
Aussen-T/F 351 26-10-2019 05:10:00 12.2 C 94 % 11.26 C
352 26-10-2019 05:15:00 12.3 C 94 % 11.36 C
353 26-10-2019 05:20:00 12.3 C 94 % 11.36 C
354 26-10-2019 05:25:00 12.4 C 93 % 11.3 C
355 26-10-2019 05:30:00 12.4 C 93 % 11.3 C
356 26-10-2019 05:35:00 12.4 C 93 % 11.3 C
357 26-10-2019 05:40:00 12.4 C 92 % 11.14 C
358 26-10-2019 05:45:00 12.3 C 92 % 11.04 C
359 26-10-2019 05:50:00 12.3 C 92 % 11.04 C
360 26-10-2019 05:55:00 12.2 C 92 % 10.94 C
361 26-10-2019 06:00:00 12.2 C 92 % 10.94 C
362 26-10-2019 06:05:00 12.1 C 93 % 11 C
363 26-10-2019 06:10:00 12.1 C 93 % 11 C
364 26-10-2019 06:15:00 11.9 C 93 % 10.81 C
365 26-10-2019 06:20:00 11.9 C 93 % 10.81 C
366 26-10-2019 06:25:00 11.8 C 93 % 10.71 C
367 26-10-2019 06:30:00 11.8 C 93 % 10.71 C
368 26-10-2019 06:35:00 11.8 C 94 % 10.87 C
369 26-10-2019 06:40:00 11.7 C 94 % 10.77 C
370 26-10-2019 06:45:00 11.7 C 94 % 10.77 C
371 26-10-2019 06:50:00 11.7 C 94 % 10.77 C
372 26-10-2019 06:55:00 11.7 C 94 % 10.77 C
373 26-10-2019 07:00:00 11.7 C 94 % 10.77 C
374 26-10-2019 07:05:00 11.6 C 94 % 10.67 C
375 26-10-2019 07:10:00 11.5 C 94 % 10.57 C
Sensor: Nr:Datum:Temp:Feuchte:Taupunkt:
Aussen-T/F 376 26-10-2019 07:15:00 11.4 C 94 % 10.47 C
377 26-10-2019 07:20:00 11.3 C 94 % 10.37 C
378 26-10-2019 07:25:00 11.2 C 94 % 10.27 C
379 26-10-2019 07:30:00 11.1 C 94 % 10.17 C
380 26-10-2019 07:35:00 10.9 C 94 % 9.97 C
381 26-10-2019 07:40:00 10.8 C 94 % 9.87 C
382 26-10-2019 07:45:00 10.7 C 94 % 9.77 C
383 26-10-2019 07:50:00 10.6 C 94 % 9.68 C
384 26-10-2019 07:55:00 10.4 C 94 % 9.48 C
385 26-10-2019 08:00:00 10.4 C 94 % 9.48 C
386 26-10-2019 08:05:00 10.3 C 94 % 9.38 C
387 26-10-2019 08:10:00 10.2 C 94 % 9.28 C
388 26-10-2019 08:15:00 10.1 C 94 % 9.18 C
389 26-10-2019 08:20:00 10.1 C 95 % 9.34 C
390 26-10-2019 08:25:00 10.1 C 95 % 9.34 C
391 26-10-2019 08:30:00 10.1 C 95 % 9.34 C
392 26-10-2019 08:35:00 10.1 C 95 % 9.34 C
393 26-10-2019 08:40:00 10.1 C 95 % 9.34 C
394 26-10-2019 08:45:00 10.1 C 95 % 9.34 C
395 26-10-2019 08:50:00 10.2 C 96 % 9.59 C
396 26-10-2019 08:55:00 10.1 C 95 % 9.34 C
397 26-10-2019 09:00:00 10.1 C 96 % 9.49 C
398 26-10-2019 09:05:00 10.1 C 96 % 9.49 C
399 26-10-2019 09:10:00 10.1 C 96 % 9.49 C
400 26-10-2019 09:15:00 10.2 C 96 % 9.59 C
Sensor: Nr:Datum:Temp:Feuchte:Taupunkt:
Aussen-T/F 401 26-10-2019 09:20:00 10.2 C 96 % 9.59 C
402 26-10-2019 09:25:00 10.3 C 96 % 9.69 C
403 26-10-2019 09:30:00 10.3 C 96 % 9.69 C
404 26-10-2019 09:35:00 10.4 C 96 % 9.79 C
405 26-10-2019 09:40:00 10.4 C 96 % 9.79 C
406 26-10-2019 09:45:00 10.5 C 96 % 9.89 C
407 26-10-2019 09:50:00 10.6 C 96 % 9.99 C
408 26-10-2019 09:55:00 10.7 C 96 % 10.09 C
409 26-10-2019 10:00:00 10.7 C 96 % 10.09 C
410 26-10-2019 10:05:00 10.8 C 96 % 10.19 C
411 26-10-2019 10:10:00 10.9 C 96 % 10.29 C
412 26-10-2019 10:15:00 11 C 96 % 10.39 C
413 26-10-2019 10:20:00 11.1 C 97 % 10.64 C
414 26-10-2019 10:25:00 11.2 C 97 % 10.74 C
415 26-10-2019 10:30:00 11.3 C 97 % 10.84 C
416 26-10-2019 10:35:00 11.4 C 97 % 10.94 C
417 26-10-2019 10:40:00 11.5 C 97 % 11.04 C
418 26-10-2019 10:45:00 11.7 C 97 % 11.24 C
419 26-10-2019 10:50:00 11.8 C 97 % 11.34 C
420 26-10-2019 10:55:00 11.8 C 97 % 11.34 C
421 26-10-2019 11:00:00 11.9 C 97 % 11.44 C
422 26-10-2019 11:05:00 12 C 97 % 11.54 C
423 26-10-2019 11:10:00 12.2 C 97 % 11.74 C
424 26-10-2019 11:15:00 12.2 C 97 % 11.74 C
425 26-10-2019 11:20:00 12.3 C 97 % 11.84 C
Sensor: Nr:Datum:Temp:Feuchte:Taupunkt:
Aussen-T/F 426 26-10-2019 11:25:00 12.4 C 97 % 11.94 C
427 26-10-2019 11:30:00 12.6 C 97 % 12.14 C
428 26-10-2019 11:35:00 12.7 C 97 % 12.24 C
429 26-10-2019 11:40:00 12.8 C 97 % 12.34 C
430 26-10-2019 11:45:00 12.8 C 97 % 12.34 C
431 26-10-2019 11:50:00 12.9 C 96 % 12.28 C
432 26-10-2019 11:55:00 12.9 C 96 % 12.28 C
433 26-10-2019 12:00:00 13.1 C 96 % 12.48 C
434 26-10-2019 12:05:00 13.1 C 96 % 12.48 C
435 26-10-2019 12:10:00 13.3 C 96 % 12.68 C
436 26-10-2019 12:15:00 13.4 C 96 % 12.78 C
437 26-10-2019 12:20:00 13.6 C 96 % 12.97 C
438 26-10-2019 12:25:00 13.8 C 96 % 13.17 C
439 26-10-2019 12:30:00 13.9 C 95 % 13.11 C
440 26-10-2019 12:35:00 14.1 C 95 % 13.31 C
441 26-10-2019 12:40:00 14.2 C 95 % 13.41 C
442 26-10-2019 12:45:00 14.3 C 94 % 13.35 C
443 26-10-2019 12:50:00 14.4 C 94 % 13.45 C
444 26-10-2019 12:55:00 14.6 C 92 % 13.32 C
445 26-10-2019 13:00:00 14.7 C 92 % 13.41 C
446 26-10-2019 13:05:00 14.8 C 92 % 13.51 C
447 26-10-2019 13:10:00 14.9 C 91 % 13.44 C
448 26-10-2019 13:15:00 15.1 C 91 % 13.64 C
449 26-10-2019 13:20:00 15.1 C 90 % 13.47 C
450 26-10-2019 13:25:00 15.2 C 90 % 13.57 C
Sensor: Nr:Datum:Temp:Feuchte:Taupunkt:
Aussen-T/F 451 26-10-2019 13:30:00 15.3 C 90 % 13.67 C
452 26-10-2019 13:35:00 15.3 C 90 % 13.67 C
453 26-10-2019 13:40:00 15.3 C 89 % 13.5 C
454 26-10-2019 13:45:00 15.3 C 88 % 13.33 C
455 26-10-2019 13:50:00 15.5 C 88 % 13.52 C
456 26-10-2019 13:55:00 15.7 C 88 % 13.72 C
457 26-10-2019 14:00:00 15.8 C 87 % 13.64 C
458 26-10-2019 14:05:00 16.1 C 87 % 13.94 C
459 26-10-2019 14:10:00 16.3 C 84 % 13.59 C
460 26-10-2019 14:15:00 16.5 C 85 % 13.97 C
461 26-10-2019 14:20:00 16.6 C 85 % 14.07 C
462 26-10-2019 14:25:00 16.7 C 86 % 14.35 C
463 26-10-2019 14:30:00 16.7 C 86 % 14.35 C
464 26-10-2019 14:35:00 16.7 C 85 % 14.17 C
465 26-10-2019 14:40:00 16.7 C 84 % 13.98 C
466 26-10-2019 14:45:00 16.7 C 84 % 13.98 C
467 26-10-2019 14:50:00 16.8 C 84 % 14.08 C
468 26-10-2019 14:55:00 16.8 C 84 % 14.08 C
469 26-10-2019 15:00:00 16.8 C 83 % 13.9 C
470 26-10-2019 15:05:00 16.8 C 84 % 14.08 C
471 26-10-2019 15:10:00 16.9 C 84 % 14.18 C
472 26-10-2019 15:15:00 16.9 C 84 % 14.18 C
473 26-10-2019 15:20:00 16.8 C 84 % 14.08 C
474 26-10-2019 15:25:00 16.8 C 85 % 14.26 C
475 26-10-2019 15:30:00 16.8 C 85 % 14.26 C
Sensor: Nr:Datum:Temp:Feuchte:Taupunkt:
Aussen-T/F 476 26-10-2019 15:35:00 16.8 C 85 % 14.26 C
477 26-10-2019 15:40:00 16.7 C 85 % 14.17 C
478 26-10-2019 15:45:00 16.7 C 85 % 14.17 C
479 26-10-2019 15:50:00 16.7 C 86 % 14.35 C
480 26-10-2019 15:55:00 16.7 C 86 % 14.35 C
481 26-10-2019 16:00:00 16.7 C 86 % 14.35 C
482 26-10-2019 16:05:00 16.7 C 86 % 14.35 C
483 26-10-2019 16:10:00 16.6 C 84 % 13.89 C
484 26-10-2019 16:15:00 16.7 C 86 % 14.35 C
485 26-10-2019 16:20:00 16.8 C 86 % 14.45 C
486 26-10-2019 16:25:00 16.7 C 85 % 14.17 C
487 26-10-2019 16:30:00 16.7 C 86 % 14.35 C
488 26-10-2019 16:35:00 16.6 C 86 % 14.25 C
489 26-10-2019 16:40:00 16.4 C 86 % 14.05 C
490 26-10-2019 16:45:00 16.3 C 86 % 13.95 C
491 26-10-2019 16:50:00 16.2 C 86 % 13.86 C
492 26-10-2019 16:55:00 16 C 86 % 13.66 C
493 26-10-2019 17:00:00 15.9 C 87 % 13.74 C
494 26-10-2019 17:05:00 15.8 C 87 % 13.64 C
495 26-10-2019 17:10:00 15.7 C 87 % 13.54 C
496 26-10-2019 17:15:00 15.6 C 87 % 13.45 C
497 26-10-2019 17:20:00 15.5 C 87 % 13.35 C
498 26-10-2019 17:25:00 15.4 C 87 % 13.25 C
499 26-10-2019 17:30:00 15.3 C 87 % 13.15 C
500 26-10-2019 17:35:00 15.2 C 88 % 13.23 C
Sensor: Nr:Datum:Temp:Feuchte:Taupunkt:
Aussen-T/F 501 26-10-2019 17:40:00 15 C 88 % 13.03 C
502 26-10-2019 17:45:00 14.9 C 88 % 12.93 C
503 26-10-2019 17:50:00 14.8 C 88 % 12.83 C
504 26-10-2019 17:55:00 14.7 C 88 % 12.73 C
505 26-10-2019 18:00:00 14.6 C 88 % 12.64 C
506 26-10-2019 18:05:00 14.4 C 88 % 12.44 C
507 26-10-2019 18:10:00 14.3 C 88 % 12.34 C
508 26-10-2019 18:15:00 14.2 C 89 % 12.41 C
509 26-10-2019 18:20:00 14.1 C 89 % 12.32 C
510 26-10-2019 18:25:00 14.1 C 89 % 12.32 C
511 26-10-2019 18:30:00 13.9 C 89 % 12.12 C
512 26-10-2019 18:35:00 13.7 C 89 % 11.92 C
513 26-10-2019 18:40:00 13.6 C 90 % 11.99 C
514 26-10-2019 18:45:00 13.5 C 90 % 11.89 C
515 26-10-2019 18:50:00 13.4 C 90 % 11.79 C
516 26-10-2019 18:55:00 13.3 C 90 % 11.7 C
517 26-10-2019 19:00:00 13.3 C 90 % 11.7 C
518 26-10-2019 19:05:00 13.3 C 90 % 11.7 C
519 26-10-2019 19:10:00 13.2 C 90 % 11.6 C
520 26-10-2019 19:15:00 13.2 C 90 % 11.6 C
521 26-10-2019 19:20:00 13.1 C 91 % 11.67 C
522 26-10-2019 19:25:00 13 C 91 % 11.57 C
523 26-10-2019 19:30:00 12.9 C 91 % 11.47 C
524 26-10-2019 19:35:00 12.8 C 91 % 11.37 C
525 26-10-2019 19:40:00 12.8 C 92 % 11.53 C
Sensor: Nr:Datum:Temp:Feuchte:Taupunkt:
Aussen-T/F 526 26-10-2019 19:45:00 12.7 C 92 % 11.43 C
527 26-10-2019 19:50:00 12.7 C 92 % 11.43 C
528 26-10-2019 19:55:00 12.7 C 92 % 11.43 C
529 26-10-2019 20:00:00 12.7 C 92 % 11.43 C
530 26-10-2019 20:05:00 12.7 C 92 % 11.43 C
531 26-10-2019 20:10:00 12.8 C 93 % 11.7 C
532 26-10-2019 20:15:00 12.8 C 93 % 11.7 C
533 26-10-2019 20:20:00 12.8 C 93 % 11.7 C
534 26-10-2019 20:25:00 12.9 C 93 % 11.8 C
535 26-10-2019 20:30:00 12.9 C 93 % 11.8 C
536 26-10-2019 20:35:00 12.9 C 93 % 11.8 C
537 26-10-2019 20:40:00 12.9 C 93 % 11.8 C
538 26-10-2019 20:45:00 13 C 93 % 11.9 C
539 26-10-2019 20:50:00 13 C 92 % 11.73 C
540 26-10-2019 20:55:00 13 C 92 % 11.73 C
541 26-10-2019 21:00:00 13 C 92 % 11.73 C
542 26-10-2019 21:05:00 12.9 C 92 % 11.63 C
543 26-10-2019 21:10:00 13 C 92 % 11.73 C
544 26-10-2019 21:15:00 13.1 C 92 % 11.83 C
545 26-10-2019 21:20:00 13.1 C 92 % 11.83 C
546 26-10-2019 21:25:00 13.1 C 92 % 11.83 C
547 26-10-2019 21:30:00 13 C 92 % 11.73 C
548 26-10-2019 21:35:00 13 C 92 % 11.73 C
549 26-10-2019 21:40:00 13 C 92 % 11.73 C
550 26-10-2019 21:45:00 12.9 C 92 % 11.63 C
Sensor: Nr:Datum:Temp:Feuchte:Taupunkt:
Aussen-T/F 551 26-10-2019 21:50:00 12.9 C 92 % 11.63 C
552 26-10-2019 21:55:00 12.9 C 93 % 11.8 C
553 26-10-2019 22:00:00 12.8 C 93 % 11.7 C
554 26-10-2019 22:05:00 12.8 C 93 % 11.7 C
555 26-10-2019 22:10:00 12.7 C 93 % 11.6 C
556 26-10-2019 22:15:00 12.7 C 93 % 11.6 C
557 26-10-2019 22:20:00 12.7 C 93 % 11.6 C
558 26-10-2019 22:25:00 12.7 C 93 % 11.6 C
559 26-10-2019 22:30:00 12.6 C 93 % 11.5 C
560 26-10-2019 22:35:00 12.6 C 93 % 11.5 C
561 26-10-2019 22:40:00 12.6 C 93 % 11.5 C
562 26-10-2019 22:45:00 12.6 C 93 % 11.5 C
563 26-10-2019 22:50:00 12.5 C 93 % 11.4 C
564 26-10-2019 22:55:00 12.4 C 93 % 11.3 C
565 26-10-2019 23:00:00 12.4 C 94 % 11.46 C
566 26-10-2019 23:05:00 12.4 C 94 % 11.46 C
567 26-10-2019 23:10:00 12.4 C 94 % 11.46 C
568 26-10-2019 23:15:00 12.5 C 94 % 11.56 C
569 26-10-2019 23:20:00 12.6 C 94 % 11.66 C
570 26-10-2019 23:25:00 12.6 C 94 % 11.66 C
571 26-10-2019 23:30:00 12.6 C 94 % 11.66 C
572 26-10-2019 23:35:00 12.7 C 94 % 11.76 C
573 26-10-2019 23:40:00 12.8 C 94 % 11.86 C
574 26-10-2019 23:45:00 12.8 C 94 % 11.86 C
575 26-10-2019 23:50:00 12.8 C 93 % 11.7 C
Sensor: Nr:Datum:Temp:Feuchte:Taupunkt:
Aussen-T/F 576 26-10-2019 23:55:00 12.9 C 93 % 11.8 C
577 27-10-2019 00:00:00 12.8 C 93 % 11.7 C
578 27-10-2019 00:05:00 12.9 C 93 % 11.8 C
579 27-10-2019 00:10:00 13 C 93 % 11.9 C
580 27-10-2019 00:15:00 13.1 C 92 % 11.83 C
581 27-10-2019 00:20:00 13.1 C 92 % 11.83 C
582 27-10-2019 00:25:00 13.1 C 92 % 11.83 C
583 27-10-2019 00:30:00 13.2 C 92 % 11.93 C
584 27-10-2019 00:35:00 13.7 C 88 % 11.75 C
585 27-10-2019 00:40:00 14.1 C 88 % 12.14 C
586 27-10-2019 00:45:00 14.2 C 88 % 12.24 C
587 27-10-2019 00:50:00 14.1 C 87 % 11.97 C
588 27-10-2019 00:55:00 14.2 C 86 % 11.89 C
589 27-10-2019 01:00:00 14.2 C 87 % 12.07 C
590 27-10-2019 01:05:00 14.1 C 86 % 11.8 C
591 27-10-2019 01:10:00 14 C 87 % 11.87 C
592 27-10-2019 01:15:00 13.9 C 86 % 11.6 C
593 27-10-2019 01:20:00 13.9 C 87 % 11.77 C
594 27-10-2019 01:25:00 13.9 C 87 % 11.77 C
595 27-10-2019 01:30:00 13.7 C 87 % 11.58 C
596 27-10-2019 01:35:00 13.6 C 88 % 11.65 C
597 27-10-2019 01:40:00 13.6 C 88 % 11.65 C
598 27-10-2019 01:45:00 13.4 C 89 % 11.63 C
599 27-10-2019 01:50:00 13.3 C 89 % 11.53 C
600 27-10-2019 01:55:00 13.3 C 89 % 11.53 C
Sensor: Nr:Datum:Temp:Feuchte:Taupunkt:
Aussen-T/F 601 27-10-2019 02:00:00 13.2 C 89 % 11.43 C
602 27-10-2019 02:05:00 13.3 C 89 % 11.53 C
603 27-10-2019 02:10:00 13.3 C 89 % 11.53 C
604 27-10-2019 02:15:00 13.2 C 89 % 11.43 C
605 27-10-2019 02:20:00 13.2 C 89 % 11.43 C
606 27-10-2019 02:25:00 13 C 89 % 11.23 C
607 27-10-2019 02:30:00 12.9 C 90 % 11.3 C
608 27-10-2019 02:35:00 12.8 C 90 % 11.2 C
609 27-10-2019 02:40:00 12.8 C 90 % 11.2 C
610 27-10-2019 02:45:00 12.7 C 90 % 11.1 C
611 27-10-2019 02:50:00 12.7 C 90 % 11.1 C
612 27-10-2019 02:55:00 12.7 C 90 % 11.1 C
613 27-10-2019 04:00:00 12.7 C 91 % 11.27 C
614 27-10-2019 04:05:00 12.6 C 91 % 11.17 C
615 27-10-2019 04:05:00 11.9 C 93 % 10.81 C
616 27-10-2019 04:10:00 12.6 C 91 % 11.17 C
617 27-10-2019 04:10:00 11.9 C 93 % 10.81 C
618 27-10-2019 04:15:00 12.4 C 91 % 10.97 C
619 27-10-2019 04:15:00 11.9 C 93 % 10.81 C
620 27-10-2019 04:20:00 12.4 C 92 % 11.14 C
621 27-10-2019 04:20:00 11.9 C 93 % 10.81 C
622 27-10-2019 04:25:00 12.4 C 92 % 11.14 C
623 27-10-2019 04:25:00 11.9 C 93 % 10.81 C
624 27-10-2019 04:30:00 12.3 C 92 % 11.04 C
625 27-10-2019 04:30:00 11.9 C 93 % 10.81 C
Sensor: Nr:Datum:Temp:Feuchte:Taupunkt:
Aussen-T/F 626 27-10-2019 04:35:00 12.2 C 92 % 10.94 C
627 27-10-2019 04:35:00 11.9 C 93 % 10.81 C
628 27-10-2019 04:40:00 12.2 C 91 % 10.78 C
629 27-10-2019 04:40:00 12.1 C 93 % 11 C
630 27-10-2019 04:45:00 12.1 C 92 % 10.84 C
631 27-10-2019 04:45:00 12.1 C 93 % 11 C
632 27-10-2019 04:50:00 11.9 C 92 % 10.64 C
633 27-10-2019 04:50:00 12.3 C 93 % 11.2 C
634 27-10-2019 04:55:00 11.9 C 92 % 10.64 C
635 27-10-2019 04:55:00 12.5 C 92 % 11.24 C
636 27-10-2019 05:00:00 11.9 C 93 % 10.81 C
637 27-10-2019 05:00:00 12.6 C 91 % 11.17 C
638 27-10-2019 05:05:00 12.7 C 91 % 11.27 C
639 27-10-2019 05:10:00 12.7 C 91 % 11.27 C
640 27-10-2019 05:15:00 12.8 C 91 % 11.37 C
641 27-10-2019 05:20:00 12.8 C 91 % 11.37 C
642 27-10-2019 05:25:00 12.9 C 92 % 11.63 C
643 27-10-2019 05:30:00 13 C 91 % 11.57 C
644 27-10-2019 05:35:00 13.1 C 91 % 11.67 C
645 27-10-2019 05:40:00 13.1 C 91 % 11.67 C
646 27-10-2019 05:45:00 13.2 C 91 % 11.76 C
647 27-10-2019 05:50:00 13.3 C 91 % 11.86 C
648 27-10-2019 05:55:00 13.3 C 91 % 11.86 C
649 27-10-2019 06:00:00 13.4 C 89 % 11.63 C
650 27-10-2019 06:05:00 13.7 C 88 % 11.75 C
Sensor: Nr:Datum:Temp:Feuchte:Taupunkt:
Aussen-T/F 651 27-10-2019 06:10:00 13.9 C 87 % 11.77 C
652 27-10-2019 06:15:00 14.2 C 87 % 12.07 C
653 27-10-2019 06:20:00 14.2 C 86 % 11.89 C
654 27-10-2019 06:25:00 14.3 C 85 % 11.81 C
655 27-10-2019 06:30:00 14.3 C 85 % 11.81 C
656 27-10-2019 06:35:00 14.3 C 85 % 11.81 C
657 27-10-2019 06:40:00 14.3 C 85 % 11.81 C
658 27-10-2019 06:45:00 14.3 C 85 % 11.81 C
659 27-10-2019 06:50:00 14.3 C 85 % 11.81 C
660 27-10-2019 06:55:00 14.3 C 85 % 11.81 C
661 27-10-2019 07:00:00 14.4 C 85 % 11.91 C
662 27-10-2019 07:05:00 14.4 C 85 % 11.91 C
663 27-10-2019 07:10:00 14.5 C 85 % 12.01 C
664 27-10-2019 07:15:00 14.5 C 85 % 12.01 C
665 27-10-2019 07:20:00 14.5 C 86 % 12.19 C
666 27-10-2019 07:25:00 14.4 C 87 % 12.27 C
667 27-10-2019 07:30:00 14.3 C 88 % 12.34 C
668 27-10-2019 07:35:00 14.2 C 88 % 12.24 C
669 27-10-2019 07:40:00 14.1 C 89 % 12.32 C
670 27-10-2019 07:45:00 13.9 C 90 % 12.29 C
671 27-10-2019 07:50:00 13.6 C 90 % 11.99 C
672 27-10-2019 07:55:00 13.2 C 90 % 11.6 C
673 27-10-2019 08:00:00 12.8 C 90 % 11.2 C
674 27-10-2019 08:05:00 12.6 C 91 % 11.17 C
675 27-10-2019 08:10:00 12.3 C 91 % 10.87 C
Sensor: Nr:Datum:Temp:Feuchte:Taupunkt:
Aussen-T/F 676 27-10-2019 08:15:00 12.2 C 91 % 10.78 C
677 27-10-2019 08:20:00 12.1 C 92 % 10.84 C
678 27-10-2019 08:25:00 11.9 C 92 % 10.64 C
679 27-10-2019 08:30:00 11.8 C 92 % 10.54 C
680 27-10-2019 08:35:00 11.7 C 92 % 10.44 C
681 27-10-2019 08:40:00 11.7 C 93 % 10.61 C
682 27-10-2019 08:45:00 11.6 C 93 % 10.51 C
683 27-10-2019 08:50:00 11.6 C 92 % 10.35 C
684 27-10-2019 08:55:00 11.4 C 93 % 10.31 C
685 27-10-2019 09:00:00 11.4 C 93 % 10.31 C
686 27-10-2019 09:05:00 11.3 C 93 % 10.21 C
687 27-10-2019 09:10:00 11.1 C 93 % 10.01 C
688 27-10-2019 09:15:00 10.8 C 92 % 9.55 C
689 27-10-2019 09:20:00 10.6 C 92 % 9.36 C
690 27-10-2019 09:25:00 10.3 C 93 % 9.22 C
691 27-10-2019 09:30:00 10.1 C 92 % 8.86 C
692 27-10-2019 09:35:00 10.1 C 93 % 9.02 C
693 27-10-2019 09:40:00 10.1 C 93 % 9.02 C
694 27-10-2019 09:45:00 9.9 C 94 % 8.98 C
695 27-10-2019 09:50:00 9.8 C 93 % 8.72 C
696 27-10-2019 09:55:00 9.6 C 93 % 8.53 C
697 27-10-2019 10:00:00 9.4 C 92 % 8.17 C
698 27-10-2019 10:05:00 9.4 C 93 % 8.33 C
699 27-10-2019 10:10:00 9.4 C 93 % 8.33 C
700 27-10-2019 10:15:00 9.5 C 94 % 8.58 C
Sensor: Nr:Datum:Temp:Feuchte:Taupunkt:
Aussen-T/F 701 27-10-2019 10:20:00 9.6 C 94 % 8.68 C
702 27-10-2019 10:25:00 9.6 C 94 % 8.68 C
703 27-10-2019 10:30:00 9.4 C 94 % 8.48 C
704 27-10-2019 10:35:00 9.4 C 94 % 8.48 C
705 27-10-2019 10:40:00 9.3 C 93 % 8.23 C
706 27-10-2019 10:45:00 9.3 C 94 % 8.39 C
707 27-10-2019 10:50:00 9.4 C 94 % 8.48 C
708 27-10-2019 10:55:00 9.6 C 95 % 8.84 C
709 27-10-2019 11:00:00 9.7 C 95 % 8.94 C
710 27-10-2019 11:05:00 9.7 C 95 % 8.94 C
711 27-10-2019 11:10:00 9.8 C 95 % 9.04 C
712 27-10-2019 11:15:00 9.7 C 94 % 8.78 C
713 27-10-2019 11:20:00 9.7 C 94 % 8.78 C
714 27-10-2019 11:25:00 9.7 C 95 % 8.94 C
715 27-10-2019 11:30:00 9.8 C 95 % 9.04 C
716 27-10-2019 11:35:00 9.8 C 95 % 9.04 C
717 27-10-2019 11:40:00 9.8 C 94 % 8.88 C
718 27-10-2019 11:45:00 9.8 C 94 % 8.88 C
719 27-10-2019 11:50:00 9.8 C 94 % 8.88 C
720 27-10-2019 11:55:00 9.8 C 94 % 8.88 C
721 27-10-2019 12:00:00 9.9 C 94 % 8.98 C
722 27-10-2019 12:05:00 10 C 95 % 9.24 C
723 27-10-2019 12:10:00 10.1 C 95 % 9.34 C
724 27-10-2019 12:15:00 10.1 C 95 % 9.34 C
725 27-10-2019 12:20:00 10 C 94 % 9.08 C
Sensor: Nr:Datum:Temp:Feuchte:Taupunkt:
Aussen-T/F 726 27-10-2019 12:25:00 10 C 94 % 9.08 C
727 27-10-2019 12:30:00 10.1 C 95 % 9.34 C
728 27-10-2019 12:35:00 10.1 C 95 % 9.34 C
729 27-10-2019 12:40:00 10 C 94 % 9.08 C
730 27-10-2019 12:45:00 9.9 C 94 % 8.98 C
731 27-10-2019 12:50:00 9.9 C 94 % 8.98 C
732 27-10-2019 12:55:00 9.9 C 94 % 8.98 C
733 27-10-2019 13:00:00 9.9 C 95 % 9.14 C
734 27-10-2019 13:05:00 9.9 C 95 % 9.14 C
735 27-10-2019 13:10:00 9.9 C 95 % 9.14 C
736 27-10-2019 13:15:00 9.9 C 94 % 8.98 C
737 27-10-2019 13:20:00 9.9 C 94 % 8.98 C
738 27-10-2019 13:25:00 9.9 C 95 % 9.14 C
739 27-10-2019 13:30:00 9.9 C 95 % 9.14 C
740 27-10-2019 13:35:00 9.9 C 95 % 9.14 C
741 27-10-2019 13:40:00 9.9 C 95 % 9.14 C
742 27-10-2019 13:45:00 9.9 C 95 % 9.14 C
743 27-10-2019 13:50:00 9.9 C 94 % 8.98 C
744 27-10-2019 13:55:00 9.9 C 94 % 8.98 C
745 27-10-2019 14:00:00 9.8 C 94 % 8.88 C
746 27-10-2019 14:05:00 9.8 C 94 % 8.88 C
747 27-10-2019 14:10:00 9.7 C 94 % 8.78 C
748 27-10-2019 14:15:00 9.7 C 94 % 8.78 C
749 27-10-2019 14:20:00 9.6 C 94 % 8.68 C
750 27-10-2019 14:25:00 9.4 C 94 % 8.48 C
Sensor: Nr:Datum:Temp:Feuchte:Taupunkt:
Aussen-T/F 751 27-10-2019 14:30:00 9.4 C 94 % 8.48 C
752 27-10-2019 14:35:00 9.4 C 94 % 8.48 C
753 27-10-2019 14:40:00 9.4 C 94 % 8.48 C
754 27-10-2019 14:45:00 9.4 C 95 % 8.64 C
755 27-10-2019 14:50:00 9.4 C 95 % 8.64 C
756 27-10-2019 14:55:00 9.4 C 95 % 8.64 C
757 27-10-2019 15:00:00 9.4 C 95 % 8.64 C
758 27-10-2019 15:05:00 9.4 C 95 % 8.64 C
759 27-10-2019 15:10:00 9.5 C 95 % 8.74 C
760 27-10-2019 15:15:00 9.5 C 95 % 8.74 C
761 27-10-2019 15:20:00 9.5 C 95 % 8.74 C
762 27-10-2019 15:25:00 9.5 C 95 % 8.74 C
763 27-10-2019 15:30:00 9.4 C 95 % 8.64 C
764 27-10-2019 15:35:00 9.4 C 95 % 8.64 C
765 27-10-2019 15:40:00 9.4 C 95 % 8.64 C
766 27-10-2019 15:45:00 9.4 C 95 % 8.64 C
767 27-10-2019 15:50:00 9.4 C 95 % 8.64 C
768 27-10-2019 15:55:00 9.4 C 95 % 8.64 C
769 27-10-2019 16:00:00 9.4 C 95 % 8.64 C
770 27-10-2019 16:05:00 9.4 C 95 % 8.64 C
771 27-10-2019 16:10:00 9.3 C 95 % 8.54 C
772 27-10-2019 16:15:00 9.3 C 95 % 8.54 C
773 27-10-2019 16:20:00 9.3 C 95 % 8.54 C
774 27-10-2019 16:25:00 9.2 C 95 % 8.44 C
775 27-10-2019 16:30:00 9.2 C 95 % 8.44 C
Sensor: Nr:Datum:Temp:Feuchte:Taupunkt:
Aussen-T/F 776 27-10-2019 16:35:00 9.1 C 95 % 8.34 C
777 27-10-2019 16:40:00 9.1 C 95 % 8.34 C
778 27-10-2019 16:45:00 9 C 95 % 8.24 C
779 27-10-2019 16:50:00 8.9 C 95 % 8.14 C
780 27-10-2019 16:55:00 8.8 C 95 % 8.04 C
781 27-10-2019 17:00:00 8.8 C 95 % 8.04 C
782 27-10-2019 17:05:00 8.7 C 95 % 7.94 C
783 27-10-2019 17:10:00 8.7 C 95 % 7.94 C
784 27-10-2019 17:15:00 8.6 C 95 % 7.85 C
785 27-10-2019 17:20:00 8.6 C 95 % 7.85 C
786 27-10-2019 17:25:00 8.6 C 95 % 7.85 C
787 27-10-2019 17:30:00 8.5 C 95 % 7.75 C
788 27-10-2019 17:35:00 8.5 C 95 % 7.75 C
789 27-10-2019 17:40:00 8.4 C 96 % 7.8 C
790 27-10-2019 17:45:00 8.4 C 96 % 7.8 C
791 27-10-2019 17:50:00 8.4 C 96 % 7.8 C
792 27-10-2019 17:55:00 8.4 C 96 % 7.8 C
793 27-10-2019 18:00:00 8.4 C 96 % 7.8 C
794 27-10-2019 18:05:00 8.4 C 96 % 7.8 C
795 27-10-2019 18:10:00 8.4 C 96 % 7.8 C
796 27-10-2019 18:15:00 8.4 C 96 % 7.8 C
797 27-10-2019 18:20:00 8.4 C 96 % 7.8 C
798 27-10-2019 18:25:00 8.4 C 96 % 7.8 C
799 27-10-2019 18:30:00 8.3 C 96 % 7.7 C
800 27-10-2019 18:35:00 8.3 C 96 % 7.7 C
Sensor: Nr:Datum:Temp:Feuchte:Taupunkt:
Aussen-T/F 801 27-10-2019 18:40:00 8.3 C 96 % 7.7 C
802 27-10-2019 18:45:00 8.3 C 96 % 7.7 C
803 27-10-2019 18:50:00 8.3 C 96 % 7.7 C
804 27-10-2019 18:55:00 8.3 C 96 % 7.7 C
805 27-10-2019 19:00:00 8.3 C 96 % 7.7 C
806 27-10-2019 19:05:00 8.3 C 96 % 7.7 C
807 27-10-2019 19:10:00 8.3 C 96 % 7.7 C
808 27-10-2019 19:15:00 8.3 C 96 % 7.7 C
809 27-10-2019 19:20:00 8.3 C 96 % 7.7 C
810 27-10-2019 19:25:00 8.3 C 96 % 7.7 C
811 27-10-2019 19:30:00 8.3 C 96 % 7.7 C
812 27-10-2019 19:35:00 8.3 C 96 % 7.7 C
813 27-10-2019 19:40:00 8.3 C 96 % 7.7 C
814 27-10-2019 19:45:00 8.3 C 96 % 7.7 C
815 27-10-2019 19:50:00 8.2 C 96 % 7.6 C
816 27-10-2019 19:55:00 8.1 C 96 % 7.5 C
817 27-10-2019 20:00:00 8.1 C 96 % 7.5 C
818 27-10-2019 20:05:00 7.9 C 96 % 7.3 C
819 27-10-2019 20:10:00 7.8 C 96 % 7.2 C
820 27-10-2019 20:15:00 7.7 C 96 % 7.1 C
821 27-10-2019 20:20:00 7.6 C 96 % 7 C
822 27-10-2019 20:25:00 7.5 C 96 % 6.9 C
823 27-10-2019 20:30:00 7.4 C 96 % 6.8 C
824 27-10-2019 20:35:00 7.3 C 96 % 6.71 C
825 27-10-2019 20:40:00 7.3 C 96 % 6.71 C
Sensor: Nr:Datum:Temp:Feuchte:Taupunkt:
Aussen-T/F 826 27-10-2019 20:45:00 7.2 C 96 % 6.61 C
827 27-10-2019 20:50:00 7.2 C 96 % 6.61 C
828 27-10-2019 20:55:00 7.1 C 96 % 6.51 C
829 27-10-2019 21:00:00 7.1 C 96 % 6.51 C
830 27-10-2019 21:05:00 7.1 C 96 % 6.51 C
831 27-10-2019 21:10:00 7.1 C 96 % 6.51 C
832 27-10-2019 21:15:00 7.1 C 96 % 6.51 C
833 27-10-2019 21:20:00 7 C 96 % 6.41 C
834 27-10-2019 21:25:00 7 C 96 % 6.41 C
835 27-10-2019 21:30:00 6.9 C 96 % 6.31 C
836 27-10-2019 21:35:00 6.9 C 96 % 6.31 C
837 27-10-2019 21:40:00 6.8 C 96 % 6.21 C
838 27-10-2019 21:45:00 6.7 C 96 % 6.11 C
839 27-10-2019 21:50:00 6.7 C 96 % 6.11 C
840 27-10-2019 21:55:00 6.6 C 96 % 6.01 C
841 27-10-2019 22:00:00 6.5 C 96 % 5.91 C
842 27-10-2019 22:05:00 6.4 C 96 % 5.81 C
843 27-10-2019 22:10:00 6.3 C 96 % 5.71 C
844 27-10-2019 22:15:00 6.1 C 96 % 5.51 C
845 27-10-2019 22:20:00 6 C 96 % 5.41 C
846 27-10-2019 22:25:00 5.9 C 96 % 5.31 C
847 27-10-2019 22:30:00 5.8 C 96 % 5.21 C
848 27-10-2019 22:35:00 5.8 C 96 % 5.21 C
849 27-10-2019 22:40:00 5.7 C 96 % 5.11 C
850 27-10-2019 22:45:00 5.6 C 96 % 5.01 C
Sensor: Nr:Datum:Temp:Feuchte:Taupunkt:
Aussen-T/F 851 27-10-2019 22:50:00 5.6 C 96 % 5.01 C
852 27-10-2019 22:55:00 5.4 C 96 % 4.81 C
853 27-10-2019 23:00:00 5.3 C 96 % 4.72 C
854 27-10-2019 23:05:00 5.3 C 96 % 4.72 C
855 27-10-2019 23:10:00 5.2 C 96 % 4.62 C
856 27-10-2019 23:15:00 5.2 C 96 % 4.62 C
857 27-10-2019 23:20:00 5.1 C 96 % 4.52 C
858 27-10-2019 23:25:00 5 C 96 % 4.42 C
859 27-10-2019 23:30:00 5 C 96 % 4.42 C
860 27-10-2019 23:35:00 4.9 C 96 % 4.32 C
861 27-10-2019 23:40:00 5.1 C 97 % 4.66 C
862 27-10-2019 23:45:00 5.1 C 97 % 4.66 C
863 27-10-2019 23:50:00 5.1 C 97 % 4.66 C
864 27-10-2019 23:55:00 5.2 C 97 % 4.76 C
865 28-10-2019 00:00:00 5.2 C 97 % 4.76 C
866 28-10-2019 00:05:00 5.2 C 97 % 4.76 C
867 28-10-2019 00:10:00 5.2 C 97 % 4.76 C
868 28-10-2019 00:15:00 5.3 C 97 % 4.86 C
869 28-10-2019 00:20:00 5.3 C 97 % 4.86 C
870 28-10-2019 00:25:00 5.3 C 97 % 4.86 C
871 28-10-2019 00:30:00 5.3 C 97 % 4.86 C
872 28-10-2019 00:35:00 5.4 C 97 % 4.96 C
873 28-10-2019 00:40:00 5.4 C 97 % 4.96 C
874 28-10-2019 00:45:00 5.4 C 97 % 4.96 C
875 28-10-2019 00:50:00 5.4 C 97 % 4.96 C
Sensor: Nr:Datum:Temp:Feuchte:Taupunkt:
Aussen-T/F 876 28-10-2019 00:55:00 5.5 C 97 % 5.06 C
877 28-10-2019 01:00:00 5.6 C 97 % 5.16 C
878 28-10-2019 01:05:00 5.6 C 97 % 5.16 C
879 28-10-2019 01:10:00 5.7 C 97 % 5.26 C
880 28-10-2019 01:15:00 5.7 C 97 % 5.26 C
881 28-10-2019 01:20:00 5.8 C 97 % 5.36 C
882 28-10-2019 01:25:00 5.8 C 97 % 5.36 C
883 28-10-2019 01:30:00 5.9 C 97 % 5.46 C
884 28-10-2019 01:35:00 5.9 C 97 % 5.46 C
885 28-10-2019 01:40:00 5.9 C 97 % 5.46 C
886 28-10-2019 01:45:00 5.9 C 97 % 5.46 C
887 28-10-2019 01:50:00 5.9 C 97 % 5.46 C
888 28-10-2019 01:55:00 5.9 C 97 % 5.46 C
889 28-10-2019 02:00:00 5.9 C 97 % 5.46 C
890 28-10-2019 02:05:00 5.9 C 97 % 5.46 C
891 28-10-2019 02:10:00 5.9 C 97 % 5.46 C
892 28-10-2019 02:15:00 5.8 C 97 % 5.36 C
893 28-10-2019 02:20:00 5.8 C 97 % 5.36 C
894 28-10-2019 02:25:00 5.7 C 97 % 5.26 C
895 28-10-2019 02:30:00 5.5 C 97 % 5.06 C
896 28-10-2019 02:35:00 5.4 C 97 % 4.96 C
897 28-10-2019 02:40:00 5.3 C 97 % 4.86 C
898 28-10-2019 02:45:00 5.3 C 97 % 4.86 C
899 28-10-2019 02:50:00 5.3 C 97 % 4.86 C
900 28-10-2019 02:55:00 5.3 C 97 % 4.86 C
Sensor: Nr:Datum:Temp:Feuchte:Taupunkt:
Aussen-T/F 901 28-10-2019 03:00:00 5.3 C 97 % 4.86 C
902 28-10-2019 03:05:00 5.4 C 97 % 4.96 C
903 28-10-2019 03:10:00 5.5 C 97 % 5.06 C
904 28-10-2019 03:15:00 5.6 C 97 % 5.16 C
905 28-10-2019 03:20:00 5.5 C 97 % 5.06 C
906 28-10-2019 03:25:00 5.5 C 97 % 5.06 C
907 28-10-2019 03:30:00 5.4 C 97 % 4.96 C
908 28-10-2019 03:35:00 5.5 C 97 % 5.06 C
909 28-10-2019 03:40:00 5.4 C 97 % 4.96 C
910 28-10-2019 03:45:00 5.4 C 97 % 4.96 C
911 28-10-2019 03:50:00 5.4 C 97 % 4.96 C
912 28-10-2019 03:55:00 5.4 C 97 % 4.96 C
913 28-10-2019 04:00:00 5.4 C 97 % 4.96 C
914 28-10-2019 04:05:00 5.3 C 97 % 4.86 C
915 28-10-2019 04:10:00 5.3 C 97 % 4.86 C
916 28-10-2019 04:15:00 5.3 C 97 % 4.86 C
917 28-10-2019 04:20:00 5.3 C 97 % 4.86 C
918 28-10-2019 04:25:00 5.3 C 97 % 4.86 C
919 28-10-2019 04:30:00 5.3 C 97 % 4.86 C
920 28-10-2019 04:35:00 5.3 C 97 % 4.86 C
921 28-10-2019 04:40:00 5.3 C 97 % 4.86 C
922 28-10-2019 04:45:00 5.3 C 97 % 4.86 C
923 28-10-2019 04:50:00 5.3 C 97 % 4.86 C
924 28-10-2019 04:55:00 5.3 C 97 % 4.86 C
925 28-10-2019 05:00:00 5.2 C 97 % 4.76 C
Sensor: Nr:Datum:Temp:Feuchte:Taupunkt:
Aussen-T/F 926 28-10-2019 05:05:00 5.2 C 97 % 4.76 C
927 28-10-2019 05:10:00 5.2 C 97 % 4.76 C
928 28-10-2019 05:15:00 5.2 C 97 % 4.76 C
929 28-10-2019 05:20:00 5.2 C 97 % 4.76 C
930 28-10-2019 05:25:00 5.2 C 97 % 4.76 C
931 28-10-2019 05:30:00 5.2 C 97 % 4.76 C
932 28-10-2019 05:35:00 5.2 C 97 % 4.76 C
933 28-10-2019 05:40:00 5.2 C 97 % 4.76 C
934 28-10-2019 05:45:00 5.2 C 97 % 4.76 C
935 28-10-2019 05:50:00 5.2 C 97 % 4.76 C
936 28-10-2019 05:55:00 5.2 C 97 % 4.76 C
937 28-10-2019 06:00:00 5.2 C 97 % 4.76 C
938 28-10-2019 06:05:00 5.2 C 97 % 4.76 C
939 28-10-2019 06:10:00 5.2 C 97 % 4.76 C
940 28-10-2019 06:15:00 5.1 C 97 % 4.66 C
941 28-10-2019 06:20:00 5.1 C 97 % 4.66 C
942 28-10-2019 06:25:00 5.1 C 97 % 4.66 C
943 28-10-2019 06:30:00 5.1 C 97 % 4.66 C
944 28-10-2019 06:35:00 5.1 C 97 % 4.66 C
945 28-10-2019 06:40:00 5.1 C 97 % 4.66 C
946 28-10-2019 06:45:00 5.1 C 97 % 4.66 C
947 28-10-2019 06:50:00 5.1 C 97 % 4.66 C
948 28-10-2019 06:55:00 5.2 C 97 % 4.76 C
949 28-10-2019 07:00:00 5.2 C 97 % 4.76 C
950 28-10-2019 07:05:00 5.2 C 97 % 4.76 C
Sensor: Nr:Datum:Temp:Feuchte:Taupunkt:
Aussen-T/F 951 28-10-2019 07:10:00 5.2 C 97 % 4.76 C
952 28-10-2019 07:15:00 5.2 C 97 % 4.76 C
953 28-10-2019 07:20:00 5.3 C 97 % 4.86 C
954 28-10-2019 07:25:00 5.3 C 97 % 4.86 C
955 28-10-2019 07:30:00 5.3 C 97 % 4.86 C
956 28-10-2019 07:35:00 5.3 C 97 % 4.86 C
957 28-10-2019 07:40:00 5.3 C 97 % 4.86 C
958 28-10-2019 07:45:00 5.3 C 97 % 4.86 C
959 28-10-2019 07:50:00 5.3 C 97 % 4.86 C
960 28-10-2019 07:55:00 5.3 C 97 % 4.86 C
961 28-10-2019 08:00:00 5.4 C 97 % 4.96 C
962 28-10-2019 08:05:00 5.4 C 98 % 5.11 C
963 28-10-2019 08:10:00 5.4 C 98 % 5.11 C
964 28-10-2019 08:15:00 5.4 C 97 % 4.96 C
965 28-10-2019 08:20:00 5.4 C 97 % 4.96 C
966 28-10-2019 08:25:00 5.5 C 97 % 5.06 C
967 28-10-2019 08:30:00 5.6 C 97 % 5.16 C
968 28-10-2019 08:35:00 5.6 C 97 % 5.16 C
969 28-10-2019 08:40:00 5.6 C 97 % 5.16 C
970 28-10-2019 08:45:00 5.6 C 97 % 5.16 C
971 28-10-2019 08:50:00 5.6 C 98 % 5.31 C
972 28-10-2019 08:55:00 5.7 C 98 % 5.41 C
973 28-10-2019 09:00:00 5.7 C 98 % 5.41 C
974 28-10-2019 09:05:00 5.7 C 98 % 5.41 C
975 28-10-2019 09:10:00 5.7 C 98 % 5.41 C
Sensor: Nr:Datum:Temp:Feuchte:Taupunkt:
Aussen-T/F 976 28-10-2019 09:15:00 5.7 C 98 % 5.41 C
977 28-10-2019 09:20:00 5.8 C 98 % 5.51 C
978 28-10-2019 09:25:00 5.8 C 98 % 5.51 C
979 28-10-2019 09:30:00 5.8 C 98 % 5.51 C
980 28-10-2019 09:35:00 5.8 C 98 % 5.51 C
981 28-10-2019 09:40:00 5.8 C 98 % 5.51 C
982 28-10-2019 09:45:00 5.9 C 98 % 5.61 C
983 28-10-2019 09:50:00 5.9 C 98 % 5.61 C
984 28-10-2019 09:55:00 6 C 98 % 5.71 C
985 28-10-2019 10:00:00 6 C 98 % 5.71 C
986 28-10-2019 10:05:00 6 C 98 % 5.71 C
987 28-10-2019 10:10:00 6 C 98 % 5.71 C
988 28-10-2019 10:15:00 6.2 C 98 % 5.91 C
989 28-10-2019 10:20:00 6.2 C 98 % 5.91 C
990 28-10-2019 10:25:00 6.2 C 98 % 5.91 C
991 28-10-2019 10:30:00 6.2 C 98 % 5.91 C
992 28-10-2019 10:35:00 6.2 C 98 % 5.91 C
993 28-10-2019 10:40:00 6.3 C 98 % 6.01 C
994 28-10-2019 10:45:00 6.3 C 98 % 6.01 C
995 28-10-2019 10:50:00 6.3 C 98 % 6.01 C
996 28-10-2019 10:55:00 6.3 C 98 % 6.01 C
997 28-10-2019 11:00:00 6.3 C 98 % 6.01 C
998 28-10-2019 11:05:00 6.3 C 98 % 6.01 C
999 28-10-2019 11:10:00 6.3 C 98 % 6.01 C
1000 28-10-2019 11:15:00 6.4 C 98 % 6.11 C
Sensor: Nr:Datum:Temp:Feuchte:Taupunkt:
Aussen-T/F 1001 28-10-2019 11:20:00 6.4 C 98 % 6.11 C
1002 28-10-2019 11:25:00 6.4 C 98 % 6.11 C
1003 28-10-2019 11:30:00 6.4 C 98 % 6.11 C
1004 28-10-2019 11:35:00 6.4 C 98 % 6.11 C
1005 28-10-2019 11:40:00 6.4 C 98 % 6.11 C
1006 28-10-2019 11:45:00 6.4 C 98 % 6.11 C
1007 28-10-2019 11:50:00 6.4 C 98 % 6.11 C
1008 28-10-2019 11:55:00 6.5 C 98 % 6.21 C
1009 28-10-2019 12:00:00 6.5 C 98 % 6.21 C
1010 28-10-2019 12:05:00 6.5 C 98 % 6.21 C
1011 28-10-2019 12:10:00 6.6 C 98 % 6.31 C
1012 28-10-2019 12:15:00 6.6 C 98 % 6.31 C
1013 28-10-2019 12:20:00 6.6 C 98 % 6.31 C
1014 28-10-2019 12:25:00 6.5 C 98 % 6.21 C
1015 28-10-2019 12:30:00 6.4 C 98 % 6.11 C
1016 28-10-2019 12:35:00 6.5 C 98 % 6.21 C
1017 28-10-2019 12:40:00 6.5 C 98 % 6.21 C
1018 28-10-2019 12:45:00 6.5 C 97 % 6.06 C
1019 28-10-2019 12:50:00 6.4 C 97 % 5.96 C
1020 28-10-2019 12:55:00 6.4 C 97 % 5.96 C
1021 28-10-2019 13:00:00 6.5 C 97 % 6.06 C
1022 28-10-2019 13:05:00 6.5 C 97 % 6.06 C
1023 28-10-2019 13:10:00 6.6 C 97 % 6.16 C
1024 28-10-2019 13:15:00 6.6 C 97 % 6.16 C
1025 28-10-2019 13:20:00 6.6 C 97 % 6.16 C
Sensor: Nr:Datum:Temp:Feuchte:Taupunkt:
Aussen-T/F 1026 28-10-2019 13:25:00 6.6 C 97 % 6.16 C
1027 28-10-2019 13:30:00 6.8 C 97 % 6.36 C
1028 28-10-2019 13:35:00 6.9 C 97 % 6.46 C
1029 28-10-2019 13:40:00 6.9 C 97 % 6.46 C
1030 28-10-2019 13:45:00 6.9 C 97 % 6.46 C
1031 28-10-2019 13:50:00 6.9 C 97 % 6.46 C
1032 28-10-2019 13:55:00 6.9 C 97 % 6.46 C
1033 28-10-2019 14:00:00 7.1 C 97 % 6.66 C
1034 28-10-2019 14:05:00 7.1 C 97 % 6.66 C
1035 28-10-2019 14:10:00 7.2 C 97 % 6.76 C
1036 28-10-2019 14:15:00 7.3 C 97 % 6.86 C
1037 28-10-2019 14:20:00 7.4 C 97 % 6.96 C
1038 28-10-2019 14:25:00 7.4 C 97 % 6.96 C
1039 28-10-2019 14:30:00 7.4 C 97 % 6.96 C
1040 28-10-2019 14:35:00 7.4 C 97 % 6.96 C
1041 28-10-2019 14:40:00 7.5 C 96 % 6.9 C
1042 28-10-2019 14:45:00 7.6 C 96 % 7 C
1043 28-10-2019 14:50:00 7.6 C 96 % 7 C
1044 28-10-2019 14:55:00 7.7 C 96 % 7.1 C
1045 28-10-2019 15:00:00 7.8 C 96 % 7.2 C
1046 28-10-2019 15:05:00 7.8 C 96 % 7.2 C
1047 28-10-2019 15:10:00 7.9 C 96 % 7.3 C
1048 28-10-2019 15:15:00 8 C 96 % 7.4 C
1049 28-10-2019 15:20:00 8.1 C 95 % 7.35 C
1050 28-10-2019 15:25:00 8 C 95 % 7.25 C
Sensor: Nr:Datum:Temp:Feuchte:Taupunkt:
Aussen-T/F 1051 28-10-2019 15:30:00 8 C 95 % 7.25 C
1052 28-10-2019 15:35:00 8 C 94 % 7.09 C
1053 28-10-2019 15:40:00 8.1 C 94 % 7.19 C
1054 28-10-2019 15:45:00 8.1 C 95 % 7.35 C
1055 28-10-2019 15:50:00 8.2 C 95 % 7.45 C
1056 28-10-2019 15:55:00 8.2 C 95 % 7.45 C
1057 28-10-2019 16:00:00 8.2 C 95 % 7.45 C
1058 28-10-2019 16:05:00 8.2 C 95 % 7.45 C
1059 28-10-2019 16:10:00 8.2 C 95 % 7.45 C
1060 28-10-2019 16:15:00 8.1 C 95 % 7.35 C
1061 28-10-2019 16:20:00 7.9 C 95 % 7.15 C
1062 28-10-2019 16:25:00 7.8 C 95 % 7.05 C
1063 28-10-2019 16:30:00 7.7 C 94 % 6.8 C
1064 28-10-2019 16:35:00 7.7 C 95 % 6.95 C
1065 28-10-2019 16:40:00 7.6 C 95 % 6.85 C
1066 28-10-2019 16:45:00 7.5 C 95 % 6.75 C
1067 28-10-2019 16:50:00 7.4 C 95 % 6.65 C
1068 28-10-2019 16:55:00 7.2 C 95 % 6.45 C
1069 28-10-2019 17:00:00 7.1 C 94 % 6.2 C
1070 28-10-2019 17:05:00 7 C 95 % 6.26 C
1071 28-10-2019 17:10:00 6.9 C 95 % 6.16 C
1072 28-10-2019 17:15:00 6.9 C 95 % 6.16 C
1073 28-10-2019 17:20:00 6.9 C 95 % 6.16 C
1074 28-10-2019 17:25:00 6.9 C 95 % 6.16 C
1075 28-10-2019 17:30:00 6.9 C 96 % 6.31 C
Sensor: Nr:Datum:Temp:Feuchte:Taupunkt:
Aussen-T/F 1076 28-10-2019 17:35:00 7 C 96 % 6.41 C
1077 28-10-2019 17:40:00 7.1 C 96 % 6.51 C
1078 28-10-2019 17:45:00 7.1 C 96 % 6.51 C
1079 28-10-2019 17:50:00 7.1 C 96 % 6.51 C
1080 28-10-2019 17:55:00 7.1 C 96 % 6.51 C
1081 28-10-2019 18:00:00 7.1 C 96 % 6.51 C
1082 28-10-2019 18:05:00 7.1 C 96 % 6.51 C
1083 28-10-2019 18:10:00 7.1 C 96 % 6.51 C
1084 28-10-2019 18:15:00 7.2 C 96 % 6.61 C
1085 28-10-2019 18:20:00 7.2 C 96 % 6.61 C
1086 28-10-2019 18:25:00 7.2 C 96 % 6.61 C
1087 28-10-2019 18:30:00 7.2 C 96 % 6.61 C
1088 28-10-2019 18:35:00 7.2 C 96 % 6.61 C
1089 28-10-2019 18:40:00 7.2 C 96 % 6.61 C
1090 28-10-2019 18:45:00 7.2 C 96 % 6.61 C
1091 28-10-2019 18:50:00 7.2 C 96 % 6.61 C
1092 28-10-2019 18:55:00 7.2 C 96 % 6.61 C
1093 28-10-2019 19:00:00 7.2 C 96 % 6.61 C
1094 28-10-2019 19:05:00 7.2 C 96 % 6.61 C
1095 28-10-2019 19:10:00 7.2 C 96 % 6.61 C
1096 28-10-2019 19:15:00 7.2 C 96 % 6.61 C
1097 28-10-2019 19:20:00 7.2 C 96 % 6.61 C
1098 28-10-2019 19:25:00 7.2 C 96 % 6.61 C
1099 28-10-2019 19:30:00 7.2 C 96 % 6.61 C
1100 28-10-2019 19:35:00 7.2 C 96 % 6.61 C
Sensor: Nr:Datum:Temp:Feuchte:Taupunkt:
Aussen-T/F 1101 28-10-2019 19:40:00 7.2 C 96 % 6.61 C
1102 28-10-2019 19:45:00 7.1 C 96 % 6.51 C
1103 28-10-2019 19:50:00 7.1 C 96 % 6.51 C
1104 28-10-2019 19:55:00 6.9 C 96 % 6.31 C
1105 28-10-2019 20:00:00 6.9 C 96 % 6.31 C
1106 28-10-2019 20:05:00 6.9 C 96 % 6.31 C
1107 28-10-2019 20:10:00 6.9 C 96 % 6.31 C
1108 28-10-2019 20:15:00 6.9 C 96 % 6.31 C
1109 28-10-2019 20:20:00 6.9 C 96 % 6.31 C
1110 28-10-2019 20:25:00 6.9 C 97 % 6.46 C
1111 28-10-2019 20:30:00 7 C 96 % 6.41 C
1112 28-10-2019 20:35:00 7.1 C 97 % 6.66 C
1113 28-10-2019 20:40:00 7.1 C 97 % 6.66 C
1114 28-10-2019 20:45:00 7.1 C 97 % 6.66 C
1115 28-10-2019 20:50:00 7.1 C 97 % 6.66 C
1116 28-10-2019 20:55:00 7.1 C 97 % 6.66 C
1117 28-10-2019 21:00:00 7.1 C 97 % 6.66 C
1118 28-10-2019 21:05:00 7.1 C 97 % 6.66 C
1119 28-10-2019 21:10:00 7.1 C 97 % 6.66 C
1120 28-10-2019 21:15:00 7 C 97 % 6.56 C
1121 28-10-2019 21:20:00 7 C 97 % 6.56 C
1122 28-10-2019 21:25:00 6.9 C 96 % 6.31 C
1123 28-10-2019 21:30:00 6.9 C 96 % 6.31 C
1124 28-10-2019 21:35:00 6.9 C 96 % 6.31 C
1125 28-10-2019 21:40:00 6.8 C 96 % 6.21 C
Sensor: Nr:Datum:Temp:Feuchte:Taupunkt:
Aussen-T/F 1126 28-10-2019 21:45:00 6.8 C 97 % 6.36 C
1127 28-10-2019 21:50:00 6.8 C 97 % 6.36 C
1128 28-10-2019 21:55:00 6.9 C 97 % 6.46 C
1129 28-10-2019 22:00:00 6.8 C 97 % 6.36 C
1130 28-10-2019 22:05:00 6.8 C 97 % 6.36 C
1131 28-10-2019 22:10:00 6.8 C 97 % 6.36 C
1132 28-10-2019 22:15:00 6.8 C 97 % 6.36 C
1133 28-10-2019 22:20:00 6.8 C 97 % 6.36 C
1134 28-10-2019 22:25:00 6.8 C 97 % 6.36 C
1135 28-10-2019 22:30:00 6.8 C 97 % 6.36 C
1136 28-10-2019 22:35:00 6.8 C 97 % 6.36 C
1137 28-10-2019 22:40:00 6.8 C 97 % 6.36 C
1138 28-10-2019 22:45:00 6.8 C 97 % 6.36 C
1139 28-10-2019 22:50:00 6.7 C 97 % 6.26 C
1140 28-10-2019 22:55:00 6.7 C 97 % 6.26 C
1141 28-10-2019 23:00:00 6.7 C 97 % 6.26 C
1142 28-10-2019 23:05:00 6.7 C 97 % 6.26 C
1143 28-10-2019 23:10:00 6.7 C 97 % 6.26 C
1144 28-10-2019 23:15:00 6.7 C 97 % 6.26 C
1145 28-10-2019 23:20:00 6.7 C 97 % 6.26 C
1146 28-10-2019 23:25:00 6.7 C 96 % 6.11 C
1147 28-10-2019 23:30:00 6.7 C 96 % 6.11 C
1148 28-10-2019 23:35:00 6.7 C 96 % 6.11 C
1149 28-10-2019 23:40:00 6.7 C 96 % 6.11 C
1150 28-10-2019 23:45:00 6.7 C 96 % 6.11 C
Sensor: Nr:Datum:Temp:Feuchte:Taupunkt:
Aussen-T/F 1151 28-10-2019 23:50:00 6.7 C 96 % 6.11 C
1152 28-10-2019 23:55:00 6.7 C 96 % 6.11 C
1153 29-10-2019 00:00:00 6.7 C 96 % 6.11 C
1154 29-10-2019 00:05:00 6.7 C 96 % 6.11 C
1155 29-10-2019 00:10:00 6.7 C 96 % 6.11 C
1156 29-10-2019 00:15:00 6.7 C 96 % 6.11 C
1157 29-10-2019 00:20:00 6.7 C 96 % 6.11 C
1158 29-10-2019 00:25:00 6.7 C 96 % 6.11 C
1159 29-10-2019 00:30:00 6.7 C 96 % 6.11 C
1160 29-10-2019 00:35:00 6.7 C 96 % 6.11 C
1161 29-10-2019 00:40:00 6.7 C 96 % 6.11 C
1162 29-10-2019 00:45:00 6.7 C 96 % 6.11 C
1163 29-10-2019 00:50:00 6.6 C 96 % 6.01 C
1164 29-10-2019 00:55:00 6.6 C 96 % 6.01 C
1165 29-10-2019 01:00:00 6.6 C 96 % 6.01 C
1166 29-10-2019 01:05:00 6.6 C 96 % 6.01 C
1167 29-10-2019 01:10:00 6.5 C 96 % 5.91 C
1168 29-10-2019 01:15:00 6.5 C 96 % 5.91 C
1169 29-10-2019 01:20:00 6.4 C 96 % 5.81 C
1170 29-10-2019 01:25:00 6.4 C 96 % 5.81 C
1171 29-10-2019 01:30:00 6.4 C 96 % 5.81 C
1172 29-10-2019 01:35:00 6.4 C 96 % 5.81 C
1173 29-10-2019 01:40:00 6.3 C 96 % 5.71 C
1174 29-10-2019 01:45:00 6.3 C 96 % 5.71 C
1175 29-10-2019 01:50:00 6.3 C 96 % 5.71 C
Sensor: Nr:Datum:Temp:Feuchte:Taupunkt:
Aussen-T/F 1176 29-10-2019 01:55:00 6.3 C 96 % 5.71 C
1177 29-10-2019 02:00:00 6.3 C 96 % 5.71 C
1178 29-10-2019 02:05:00 6.3 C 96 % 5.71 C
1179 29-10-2019 02:10:00 6.3 C 96 % 5.71 C
1180 29-10-2019 02:15:00 6.3 C 96 % 5.71 C
1181 29-10-2019 02:20:00 6.3 C 96 % 5.71 C
1182 29-10-2019 02:25:00 6.3 C 96 % 5.71 C
1183 29-10-2019 02:30:00 6.3 C 96 % 5.71 C
1184 29-10-2019 02:35:00 6.3 C 96 % 5.71 C
1185 29-10-2019 02:40:00 6.3 C 96 % 5.71 C
1186 29-10-2019 02:45:00 6.3 C 96 % 5.71 C
1187 29-10-2019 02:50:00 6.3 C 96 % 5.71 C
1188 29-10-2019 02:55:00 6.3 C 96 % 5.71 C
1189 29-10-2019 03:00:00 6.3 C 96 % 5.71 C
1190 29-10-2019 03:05:00 6.3 C 96 % 5.71 C
1191 29-10-2019 03:10:00 6.3 C 96 % 5.71 C
1192 29-10-2019 03:15:00 6.3 C 96 % 5.71 C
1193 29-10-2019 03:20:00 6.3 C 96 % 5.71 C
1194 29-10-2019 03:25:00 6.3 C 96 % 5.71 C
1195 29-10-2019 03:30:00 6.3 C 96 % 5.71 C
1196 29-10-2019 03:35:00 6.3 C 96 % 5.71 C
1197 29-10-2019 03:40:00 6.3 C 96 % 5.71 C
1198 29-10-2019 03:45:00 6.2 C 96 % 5.61 C
1199 29-10-2019 03:50:00 6.2 C 96 % 5.61 C
1200 29-10-2019 03:55:00 6.2 C 96 % 5.61 C
Sensor: Nr:Datum:Temp:Feuchte:Taupunkt:
Aussen-T/F 1201 29-10-2019 04:00:00 6.2 C 96 % 5.61 C
1202 29-10-2019 04:05:00 6.2 C 96 % 5.61 C
1203 29-10-2019 04:10:00 6.2 C 96 % 5.61 C
1204 29-10-2019 04:15:00 6.2 C 96 % 5.61 C
1205 29-10-2019 04:20:00 6.2 C 96 % 5.61 C
1206 29-10-2019 04:25:00 6.2 C 96 % 5.61 C
1207 29-10-2019 04:30:00 6.2 C 96 % 5.61 C
1208 29-10-2019 04:35:00 6.2 C 96 % 5.61 C
1209 29-10-2019 04:40:00 6.2 C 96 % 5.61 C
1210 29-10-2019 04:45:00 6.2 C 96 % 5.61 C
1211 29-10-2019 04:50:00 6.2 C 96 % 5.61 C
1212 29-10-2019 04:55:00 6.2 C 96 % 5.61 C
1213 29-10-2019 05:00:00 6.2 C 96 % 5.61 C
1214 29-10-2019 05:05:00 6.2 C 96 % 5.61 C
1215 29-10-2019 05:10:00 6.2 C 96 % 5.61 C
1216 29-10-2019 05:15:00 6.2 C 96 % 5.61 C
1217 29-10-2019 05:20:00 6.2 C 96 % 5.61 C
1218 29-10-2019 05:25:00 6.2 C 96 % 5.61 C
1219 29-10-2019 05:30:00 6.2 C 96 % 5.61 C
1220 29-10-2019 05:35:00 6.2 C 96 % 5.61 C
1221 29-10-2019 05:40:00 6.2 C 96 % 5.61 C
1222 29-10-2019 05:45:00 6.2 C 96 % 5.61 C
1223 29-10-2019 05:50:00 6.2 C 96 % 5.61 C
1224 29-10-2019 05:55:00 6.2 C 96 % 5.61 C
1225 29-10-2019 06:00:00 6.2 C 96 % 5.61 C
Sensor: Nr:Datum:Temp:Feuchte:Taupunkt:
Aussen-T/F 1226 29-10-2019 06:05:00 6.1 C 96 % 5.51 C
1227 29-10-2019 06:10:00 6.1 C 96 % 5.51 C
1228 29-10-2019 06:15:00 6.1 C 96 % 5.51 C
1229 29-10-2019 06:20:00 6.1 C 96 % 5.51 C
1230 29-10-2019 06:25:00 6.1 C 96 % 5.51 C
1231 29-10-2019 06:30:00 6.1 C 96 % 5.51 C
1232 29-10-2019 06:35:00 6.1 C 95 % 5.36 C
1233 29-10-2019 06:40:00 6.1 C 95 % 5.36 C
1234 29-10-2019 06:45:00 6.1 C 96 % 5.51 C
1235 29-10-2019 06:50:00 6.1 C 96 % 5.51 C
1236 29-10-2019 06:55:00 6.1 C 95 % 5.36 C
1237 29-10-2019 07:00:00 6.1 C 96 % 5.51 C
1238 29-10-2019 07:05:00 6 C 95 % 5.26 C
1239 29-10-2019 07:10:00 6 C 95 % 5.26 C
1240 29-10-2019 07:15:00 6 C 95 % 5.26 C
1241 29-10-2019 07:20:00 6 C 95 % 5.26 C
1242 29-10-2019 07:25:00 5.9 C 95 % 5.16 C
1243 29-10-2019 07:30:00 5.9 C 95 % 5.16 C
1244 29-10-2019 07:35:00 5.9 C 95 % 5.16 C
1245 29-10-2019 07:40:00 5.9 C 95 % 5.16 C
1246 29-10-2019 07:45:00 6 C 96 % 5.41 C
1247 29-10-2019 07:50:00 6 C 96 % 5.41 C
1248 29-10-2019 07:55:00 6 C 96 % 5.41 C
1249 29-10-2019 08:00:00 6.1 C 96 % 5.51 C
1250 29-10-2019 08:05:00 6.1 C 96 % 5.51 C
Sensor: Nr:Datum:Temp:Feuchte:Taupunkt:
Aussen-T/F 1251 29-10-2019 08:10:00 6.1 C 96 % 5.51 C
1252 29-10-2019 08:15:00 6.2 C 96 % 5.61 C
1253 29-10-2019 08:20:00 6.2 C 96 % 5.61 C
1254 29-10-2019 08:25:00 6.3 C 96 % 5.71 C
1255 29-10-2019 08:30:00 6.3 C 96 % 5.71 C
1256 29-10-2019 08:35:00 6.3 C 95 % 5.56 C
1257 29-10-2019 08:40:00 6.2 C 95 % 5.46 C
1258 29-10-2019 08:45:00 6.3 C 95 % 5.56 C
1259 29-10-2019 08:50:00 6.3 C 95 % 5.56 C
1260 29-10-2019 08:55:00 6.3 C 95 % 5.56 C
1261 29-10-2019 09:00:00 6.3 C 95 % 5.56 C
1262 29-10-2019 09:05:00 6.4 C 95 % 5.66 C
1263 29-10-2019 09:10:00 6.4 C 95 % 5.66 C
1264 29-10-2019 09:15:00 6.5 C 95 % 5.76 C
1265 29-10-2019 09:20:00 6.6 C 95 % 5.86 C
1266 29-10-2019 09:25:00 6.7 C 95 % 5.96 C
1267 29-10-2019 09:30:00 6.7 C 95 % 5.96 C
1268 29-10-2019 09:35:00 6.8 C 95 % 6.06 C
1269 29-10-2019 09:40:00 6.9 C 95 % 6.16 C
1270 29-10-2019 09:45:00 6.9 C 94 % 6 C
1271 29-10-2019 09:50:00 7 C 94 % 6.1 C
1272 29-10-2019 09:55:00 7.1 C 94 % 6.2 C
1273 29-10-2019 10:00:00 7.1 C 94 % 6.2 C
1274 29-10-2019 10:05:00 7.2 C 94 % 6.3 C
1275 29-10-2019 10:10:00 7.3 C 94 % 6.4 C
Sensor: Nr:Datum:Temp:Feuchte:Taupunkt:
Aussen-T/F 1276 29-10-2019 10:15:00 7.3 C 93 % 6.25 C
1277 29-10-2019 10:20:00 7.3 C 92 % 6.09 C
1278 29-10-2019 10:25:00 7.4 C 93 % 6.34 C
1279 29-10-2019 10:30:00 7.5 C 93 % 6.44 C
1280 29-10-2019 10:35:00 7.6 C 92 % 6.39 C
1281 29-10-2019 10:40:00 7.7 C 92 % 6.48 C
1282 29-10-2019 10:45:00 7.7 C 92 % 6.48 C
1283 29-10-2019 10:50:00 7.8 C 92 % 6.58 C
1284 29-10-2019 10:55:00 7.8 C 92 % 6.58 C
1285 29-10-2019 11:00:00 7.9 C 92 % 6.68 C
1286 29-10-2019 11:05:00 8 C 92 % 6.78 C
1287 29-10-2019 11:10:00 8.1 C 91 % 6.72 C
1288 29-10-2019 11:15:00 8.1 C 91 % 6.72 C
1289 29-10-2019 11:20:00 8.2 C 91 % 6.82 C
1290 29-10-2019 11:25:00 8.2 C 90 % 6.66 C
1291 29-10-2019 11:30:00 8.2 C 90 % 6.66 C
1292 29-10-2019 11:35:00 8.3 C 90 % 6.76 C
1293 29-10-2019 11:40:00 8.3 C 90 % 6.76 C
1294 29-10-2019 11:45:00 8.4 C 90 % 6.86 C
1295 29-10-2019 11:50:00 8.5 C 90 % 6.96 C
1296 29-10-2019 11:55:00 8.6 C 90 % 7.06 C
1297 29-10-2019 12:00:00 8.7 C 89 % 6.99 C
1298 29-10-2019 12:05:00 8.7 C 89 % 6.99 C
1299 29-10-2019 12:10:00 8.8 C 89 % 7.09 C
1300 29-10-2019 12:15:00 8.8 C 88 % 6.93 C
Sensor: Nr:Datum:Temp:Feuchte:Taupunkt:
Aussen-T/F 1301 29-10-2019 12:20:00 8.8 C 88 % 6.93 C
1302 29-10-2019 12:25:00 8.8 C 88 % 6.93 C
1303 29-10-2019 12:30:00 8.9 C 88 % 7.02 C
1304 29-10-2019 12:35:00 9 C 89 % 7.29 C
1305 29-10-2019 12:40:00 9.1 C 88 % 7.22 C
1306 29-10-2019 12:45:00 9.1 C 88 % 7.22 C
1307 29-10-2019 12:50:00 9.2 C 88 % 7.32 C
1308 29-10-2019 12:55:00 9.2 C 88 % 7.32 C
1309 29-10-2019 13:00:00 9.2 C 87 % 7.15 C
1310 29-10-2019 13:05:00 9.3 C 88 % 7.42 C
1311 29-10-2019 13:10:00 9.3 C 87 % 7.25 C
1312 29-10-2019 13:15:00 9.4 C 88 % 7.52 C
1313 29-10-2019 13:20:00 9.6 C 88 % 7.71 C
1314 29-10-2019 13:25:00 9.7 C 86 % 7.47 C
1315 29-10-2019 13:30:00 9.7 C 84 % 7.13 C
1316 29-10-2019 13:35:00 9.8 C 83 % 7.05 C
1317 29-10-2019 13:40:00 10 C 82 % 7.07 C
1318 29-10-2019 13:45:00 10.2 C 81 % 7.09 C
1319 29-10-2019 13:50:00 10.3 C 81 % 7.19 C
1320 29-10-2019 13:55:00 10.4 C 78 % 6.74 C
1321 29-10-2019 14:00:00 10.3 C 78 % 6.64 C
1322 29-10-2019 14:05:00 10.3 C 79 % 6.82 C
1323 29-10-2019 14:10:00 10.3 C 78 % 6.64 C
1324 29-10-2019 14:15:00 10.3 C 79 % 6.82 C
1325 29-10-2019 14:20:00 10.3 C 79 % 6.82 C
Sensor: Nr:Datum:Temp:Feuchte:Taupunkt:
Aussen-T/F 1326 29-10-2019 14:25:00 10.4 C 77 % 6.55 C
1327 29-10-2019 14:30:00 10.6 C 77 % 6.74 C
1328 29-10-2019 14:35:00 10.8 C 75 % 6.55 C
1329 29-10-2019 14:40:00 11 C 74 % 6.55 C
1330 29-10-2019 14:45:00 11.1 C 74 % 6.65 C
1331 29-10-2019 14:50:00 10.9 C 72 % 6.06 C
1332 29-10-2019 14:55:00 10.8 C 75 % 6.55 C
1333 29-10-2019 15:00:00 10.7 C 72 % 5.87 C
1334 29-10-2019 15:05:00 10.5 C 74 % 6.07 C
1335 29-10-2019 15:10:00 10.3 C 76 % 6.26 C
1336 29-10-2019 15:15:00 10.1 C 77 % 6.26 C
1337 29-10-2019 15:20:00 9.9 C 80 % 6.62 C
1338 29-10-2019 15:25:00 9.7 C 80 % 6.42 C
1339 29-10-2019 15:30:00 9.4 C 82 % 6.49 C
1340 29-10-2019 15:35:00 9.2 C 83 % 6.47 C
1341 29-10-2019 15:40:00 9 C 84 % 6.45 C
1342 29-10-2019 15:45:00 8.8 C 85 % 6.42 C
1343 29-10-2019 15:50:00 8.7 C 85 % 6.32 C
1344 29-10-2019 15:55:00 8.6 C 86 % 6.39 C
1345 29-10-2019 16:00:00 8.6 C 87 % 6.56 C
1346 29-10-2019 16:05:00 8.6 C 88 % 6.73 C
1347 29-10-2019 16:10:00 8.5 C 88 % 6.63 C
1348 29-10-2019 16:15:00 8.5 C 88 % 6.63 C
1349 29-10-2019 16:20:00 8.4 C 87 % 6.37 C
1350 29-10-2019 16:25:00 8.3 C 88 % 6.43 C
Sensor: Nr:Datum:Temp:Feuchte:Taupunkt:
Aussen-T/F 1351 29-10-2019 16:30:00 8.2 C 88 % 6.33 C
1352 29-10-2019 16:35:00 8.1 C 89 % 6.4 C
1353 29-10-2019 16:40:00 8.1 C 89 % 6.4 C
1354 29-10-2019 16:45:00 8.1 C 89 % 6.4 C
1355 29-10-2019 16:50:00 8 C 89 % 6.3 C
1356 29-10-2019 16:55:00 7.9 C 89 % 6.2 C
1357 29-10-2019 17:00:00 7.7 C 89 % 6 C
1358 29-10-2019 17:05:00 7.5 C 89 % 5.81 C
1359 29-10-2019 17:10:00 7.3 C 89 % 5.61 C
1360 29-10-2019 17:15:00 7.2 C 89 % 5.51 C
1361 29-10-2019 17:20:00 7.1 C 89 % 5.41 C
1362 29-10-2019 17:25:00 6.9 C 89 % 5.22 C
1363 29-10-2019 17:30:00 6.8 C 90 % 5.28 C
1364 29-10-2019 17:35:00 6.7 C 90 % 5.18 C
1365 29-10-2019 17:40:00 6.6 C 89 % 4.92 C
1366 29-10-2019 17:45:00 6.6 C 90 % 5.08 C
1367 29-10-2019 17:50:00 6.5 C 90 % 4.98 C
1368 29-10-2019 17:55:00 6.4 C 90 % 4.88 C
1369 29-10-2019 18:00:00 6.3 C 90 % 4.78 C
1370 29-10-2019 18:05:00 6.2 C 90 % 4.69 C
1371 29-10-2019 18:10:00 6.2 C 91 % 4.84 C
1372 29-10-2019 18:15:00 6.2 C 91 % 4.84 C
1373 29-10-2019 18:20:00 6.1 C 91 % 4.74 C
1374 29-10-2019 18:25:00 6.1 C 91 % 4.74 C
1375 29-10-2019 18:30:00 5.9 C 91 % 4.55 C
Sensor: Nr:Datum:Temp:Feuchte:Taupunkt:
Aussen-T/F 1376 29-10-2019 18:35:00 5.9 C 91 % 4.55 C
1377 29-10-2019 18:40:00 5.8 C 91 % 4.45 C
1378 29-10-2019 18:45:00 5.7 C 91 % 4.35 C
1379 29-10-2019 18:50:00 5.6 C 91 % 4.25 C
1380 29-10-2019 18:55:00 5.6 C 92 % 4.41 C
1381 29-10-2019 19:00:00 5.4 C 92 % 4.21 C
1382 29-10-2019 19:05:00 5.3 C 92 % 4.11 C
1383 29-10-2019 19:10:00 5.3 C 92 % 4.11 C
1384 29-10-2019 19:15:00 5.2 C 92 % 4.01 C
1385 29-10-2019 19:20:00 5.1 C 92 % 3.91 C
1386 29-10-2019 19:25:00 5 C 92 % 3.81 C
1387 29-10-2019 19:30:00 4.9 C 92 % 3.71 C
1388 29-10-2019 19:35:00 4.8 C 93 % 3.77 C
1389 29-10-2019 19:40:00 4.7 C 93 % 3.67 C
1390 29-10-2019 19:45:00 4.7 C 93 % 3.67 C
1391 29-10-2019 19:50:00 4.6 C 93 % 3.57 C
1392 29-10-2019 19:55:00 4.6 C 94 % 3.72 C
1393 29-10-2019 20:00:00 4.6 C 94 % 3.72 C
1394 29-10-2019 20:05:00 4.6 C 94 % 3.72 C
1395 29-10-2019 20:10:00 4.5 C 94 % 3.62 C
1396 29-10-2019 20:15:00 4.4 C 94 % 3.52 C
1397 29-10-2019 20:20:00 4.4 C 94 % 3.52 C
1398 29-10-2019 20:25:00 4.4 C 94 % 3.52 C
1399 29-10-2019 20:30:00 4.4 C 94 % 3.52 C
1400 29-10-2019 20:35:00 4.4 C 94 % 3.52 C
Sensor: Nr:Datum:Temp:Feuchte:Taupunkt:
Aussen-T/F 1401 29-10-2019 20:40:00 4.4 C 94 % 3.52 C
1402 29-10-2019 20:45:00 4.4 C 94 % 3.52 C
1403 29-10-2019 20:50:00 4.3 C 94 % 3.42 C
1404 29-10-2019 20:55:00 4.3 C 94 % 3.42 C
1405 29-10-2019 21:00:00 4.1 C 94 % 3.22 C
1406 29-10-2019 21:05:00 4 C 94 % 3.12 C
1407 29-10-2019 21:10:00 3.9 C 94 % 3.02 C
1408 29-10-2019 21:15:00 3.8 C 94 % 2.93 C
1409 29-10-2019 21:20:00 3.7 C 94 % 2.83 C
1410 29-10-2019 21:25:00 3.7 C 94 % 2.83 C
1411 29-10-2019 21:30:00 3.6 C 94 % 2.73 C
1412 29-10-2019 21:35:00 3.5 C 94 % 2.63 C
1413 29-10-2019 21:40:00 3.4 C 94 % 2.53 C
1414 29-10-2019 21:45:00 3.3 C 94 % 2.43 C
1415 29-10-2019 21:50:00 3.3 C 95 % 2.58 C
1416 29-10-2019 21:55:00 3.3 C 95 % 2.58 C
1417 29-10-2019 22:00:00 3.2 C 95 % 2.48 C
1418 29-10-2019 22:05:00 3.2 C 95 % 2.48 C
1419 29-10-2019 22:10:00 3.2 C 95 % 2.48 C
1420 29-10-2019 22:15:00 3.1 C 95 % 2.38 C
1421 29-10-2019 22:20:00 3.1 C 95 % 2.38 C
1422 29-10-2019 22:25:00 3.1 C 95 % 2.38 C
1423 29-10-2019 22:30:00 3 C 95 % 2.28 C
1424 29-10-2019 22:35:00 2.9 C 95 % 2.18 C
1425 29-10-2019 22:40:00 2.8 C 95 % 2.08 C
Sensor: Nr:Datum:Temp:Feuchte:Taupunkt:
Aussen-T/F 1426 29-10-2019 22:45:00 2.8 C 95 % 2.08 C
1427 29-10-2019 22:50:00 2.8 C 95 % 2.08 C
1428 29-10-2019 22:55:00 2.7 C 95 % 1.98 C
1429 29-10-2019 23:00:00 2.8 C 95 % 2.08 C
1430 29-10-2019 23:05:00 2.8 C 96 % 2.23 C
1431 29-10-2019 23:10:00 2.8 C 96 % 2.23 C
1432 29-10-2019 23:15:00 2.9 C 96 % 2.33 C
1433 29-10-2019 23:20:00 3 C 96 % 2.43 C
1434 29-10-2019 23:25:00 2.9 C 96 % 2.33 C
1435 29-10-2019 23:30:00 2.8 C 96 % 2.23 C
1436 29-10-2019 23:35:00 2.7 C 95 % 1.98 C
1437 29-10-2019 23:40:00 2.7 C 96 % 2.13 C
1438 29-10-2019 23:45:00 2.7 C 96 % 2.13 C
1439 29-10-2019 23:50:00 2.6 C 96 % 2.03 C
1440 29-10-2019 23:55:00 2.6 C 96 % 2.03 C
1441 30-10-2019 00:00:00 2.4 C 96 % 1.83 C
1442 30-10-2019 00:05:00 2.4 C 95 % 1.68 C
1443 30-10-2019 00:10:00 2.3 C 95 % 1.58 C
1444 30-10-2019 00:15:00 2.2 C 96 % 1.63 C
1445 30-10-2019 00:20:00 2.2 C 96 % 1.63 C
1446 30-10-2019 00:25:00 2.2 C 96 % 1.63 C
1447 30-10-2019 00:30:00 2.2 C 96 % 1.63 C
1448 30-10-2019 00:35:00 2.1 C 96 % 1.53 C
1449 30-10-2019 00:40:00 2.1 C 96 % 1.53 C
1450 30-10-2019 00:45:00 2.1 C 96 % 1.53 C
Sensor: Nr:Datum:Temp:Feuchte:Taupunkt:
Aussen-T/F 1451 30-10-2019 00:50:00 2.1 C 96 % 1.53 C
1452 30-10-2019 00:55:00 2.2 C 96 % 1.63 C
1453 30-10-2019 01:00:00 2.2 C 96 % 1.63 C
1454 30-10-2019 01:05:00 2.2 C 96 % 1.63 C
1455 30-10-2019 01:10:00 2.2 C 96 % 1.63 C
1456 30-10-2019 01:15:00 2.2 C 96 % 1.63 C
1457 30-10-2019 01:20:00 2.1 C 96 % 1.53 C
1458 30-10-2019 01:25:00 2 C 96 % 1.43 C
1459 30-10-2019 01:30:00 1.9 C 96 % 1.33 C
1460 30-10-2019 01:35:00 1.9 C 96 % 1.33 C
1461 30-10-2019 01:40:00 1.9 C 96 % 1.33 C
1462 30-10-2019 01:45:00 1.8 C 96 % 1.23 C
1463 30-10-2019 01:50:00 1.7 C 96 % 1.13 C
1464 30-10-2019 01:55:00 1.7 C 96 % 1.13 C
1465 30-10-2019 02:00:00 1.7 C 96 % 1.13 C
1466 30-10-2019 02:05:00 1.7 C 96 % 1.13 C
1467 30-10-2019 02:10:00 1.8 C 96 % 1.23 C
1468 30-10-2019 02:15:00 1.9 C 96 % 1.33 C
1469 30-10-2019 02:20:00 1.9 C 96 % 1.33 C
1470 30-10-2019 02:25:00 2.1 C 96 % 1.53 C
1471 30-10-2019 02:30:00 2.1 C 96 % 1.53 C
1472 30-10-2019 02:35:00 2.1 C 96 % 1.53 C
1473 30-10-2019 02:40:00 2.2 C 96 % 1.63 C
1474 30-10-2019 02:45:00 2.1 C 96 % 1.53 C
1475 30-10-2019 02:50:00 2.1 C 96 % 1.53 C
Sensor: Nr:Datum:Temp:Feuchte:Taupunkt:
Aussen-T/F 1476 30-10-2019 02:55:00 2.1 C 96 % 1.53 C
1477 30-10-2019 03:00:00 2 C 96 % 1.43 C
1478 30-10-2019 03:05:00 1.9 C 96 % 1.33 C
1479 30-10-2019 03:10:00 1.8 C 96 % 1.23 C
1480 30-10-2019 03:15:00 1.7 C 96 % 1.13 C
1481 30-10-2019 03:20:00 1.7 C 96 % 1.13 C
1482 30-10-2019 03:25:00 1.6 C 96 % 1.03 C
1483 30-10-2019 03:30:00 1.4 C 96 % 0.83 C
1484 30-10-2019 03:35:00 1.3 C 96 % 0.73 C
1485 30-10-2019 03:40:00 1.3 C 96 % 0.73 C
1486 30-10-2019 03:45:00 1.2 C 96 % 0.63 C
1487 30-10-2019 03:50:00 1.2 C 96 % 0.63 C
1488 30-10-2019 03:55:00 1.1 C 96 % 0.54 C
1489 30-10-2019 04:00:00 1 C 96 % 0.44 C
1490 30-10-2019 04:05:00 1 C 96 % 0.44 C
1491 30-10-2019 04:10:00 1 C 96 % 0.44 C
1492 30-10-2019 04:15:00 1.1 C 96 % 0.54 C
1493 30-10-2019 04:20:00 1.2 C 96 % 0.63 C
1494 30-10-2019 04:25:00 1.2 C 97 % 0.78 C
1495 30-10-2019 04:30:00 1.3 C 97 % 0.88 C
1496 30-10-2019 04:35:00 1.3 C 97 % 0.88 C
1497 30-10-2019 04:40:00 1.2 C 97 % 0.78 C
1498 30-10-2019 04:45:00 1.2 C 96 % 0.63 C
1499 30-10-2019 04:50:00 1.1 C 96 % 0.54 C
1500 30-10-2019 04:55:00 1.1 C 96 % 0.54 C
Sensor: Nr:Datum:Temp:Feuchte:Taupunkt:
Aussen-T/F 1501 30-10-2019 05:00:00 1.1 C 96 % 0.54 C
1502 30-10-2019 05:05:00 1.1 C 96 % 0.54 C
1503 30-10-2019 05:10:00 1.2 C 96 % 0.63 C
1504 30-10-2019 05:15:00 1.3 C 97 % 0.88 C
1505 30-10-2019 05:20:00 1.3 C 97 % 0.88 C
1506 30-10-2019 05:25:00 1.4 C 97 % 0.98 C
1507 30-10-2019 05:30:00 1.4 C 97 % 0.98 C
1508 30-10-2019 05:35:00 1.4 C 97 % 0.98 C
1509 30-10-2019 05:40:00 1.5 C 97 % 1.08 C
1510 30-10-2019 05:45:00 1.5 C 97 % 1.08 C
1511 30-10-2019 05:50:00 1.5 C 97 % 1.08 C
1512 30-10-2019 05:55:00 1.5 C 97 % 1.08 C
1513 30-10-2019 06:00:00 1.5 C 97 % 1.08 C
1514 30-10-2019 06:05:00 1.6 C 97 % 1.18 C
1515 30-10-2019 06:10:00 1.6 C 97 % 1.18 C
1516 30-10-2019 06:15:00 1.5 C 97 % 1.08 C
1517 30-10-2019 06:20:00 1.5 C 97 % 1.08 C
1518 30-10-2019 06:25:00 1.4 C 97 % 0.98 C
1519 30-10-2019 06:30:00 1.3 C 97 % 0.88 C
1520 30-10-2019 06:35:00 1.3 C 97 % 0.88 C
1521 30-10-2019 06:40:00 1.2 C 97 % 0.78 C
1522 30-10-2019 06:45:00 1.3 C 97 % 0.88 C
1523 30-10-2019 06:50:00 1.3 C 97 % 0.88 C
1524 30-10-2019 06:55:00 1.3 C 97 % 0.88 C
1525 30-10-2019 07:00:00 1.3 C 97 % 0.88 C
Sensor: Nr:Datum:Temp:Feuchte:Taupunkt:
Aussen-T/F 1526 30-10-2019 07:05:00 1.4 C 97 % 0.98 C
1527 30-10-2019 07:10:00 1.4 C 97 % 0.98 C
1528 30-10-2019 07:15:00 1.4 C 97 % 0.98 C
1529 30-10-2019 07:20:00 1.4 C 97 % 0.98 C
1530 30-10-2019 07:25:00 1.4 C 97 % 0.98 C
1531 30-10-2019 07:30:00 1.4 C 97 % 0.98 C
1532 30-10-2019 07:35:00 1.4 C 97 % 0.98 C
1533 30-10-2019 07:40:00 1.6 C 97 % 1.18 C
1534 30-10-2019 07:45:00 1.6 C 97 % 1.18 C
1535 30-10-2019 07:50:00 1.6 C 97 % 1.18 C
1536 30-10-2019 07:55:00 1.6 C 97 % 1.18 C
1537 30-10-2019 08:00:00 1.7 C 97 % 1.28 C
1538 30-10-2019 08:05:00 1.7 C 97 % 1.28 C
1539 30-10-2019 08:10:00 1.7 C 97 % 1.28 C
1540 30-10-2019 08:15:00 1.7 C 97 % 1.28 C
1541 30-10-2019 08:20:00 1.8 C 97 % 1.38 C
1542 30-10-2019 08:25:00 1.8 C 97 % 1.38 C
1543 30-10-2019 08:30:00 1.9 C 97 % 1.48 C
1544 30-10-2019 08:35:00 1.9 C 97 % 1.48 C
1545 30-10-2019 08:40:00 1.9 C 97 % 1.48 C
1546 30-10-2019 08:45:00 1.9 C 97 % 1.48 C
1547 30-10-2019 08:50:00 2.1 C 97 % 1.67 C
1548 30-10-2019 08:55:00 2.2 C 97 % 1.77 C
1549 30-10-2019 09:00:00 2.2 C 97 % 1.77 C
1550 30-10-2019 09:05:00 2.2 C 97 % 1.77 C
Sensor: Nr:Datum:Temp:Feuchte:Taupunkt:
Aussen-T/F 1551 30-10-2019 09:10:00 2.3 C 97 % 1.87 C
1552 30-10-2019 09:15:00 2.3 C 97 % 1.87 C
1553 30-10-2019 09:20:00 2.3 C 97 % 1.87 C
1554 30-10-2019 09:25:00 2.3 C 97 % 1.87 C
1555 30-10-2019 09:30:00 2.4 C 97 % 1.97 C
1556 30-10-2019 09:35:00 2.4 C 97 % 1.97 C
1557 30-10-2019 09:40:00 2.6 C 97 % 2.17 C
1558 30-10-2019 09:45:00 2.6 C 97 % 2.17 C
1559 30-10-2019 09:50:00 2.6 C 97 % 2.17 C
1560 30-10-2019 09:55:00 2.6 C 97 % 2.17 C
1561 30-10-2019 10:00:00 2.7 C 97 % 2.27 C
1562 30-10-2019 10:05:00 2.9 C 97 % 2.47 C
1563 30-10-2019 10:10:00 3.2 C 98 % 2.92 C
1564 30-10-2019 10:15:00 3.4 C 98 % 3.11 C
1565 30-10-2019 10:20:00 3.6 C 98 % 3.31 C
1566 30-10-2019 10:25:00 3.7 C 98 % 3.41 C
1567 30-10-2019 10:30:00 3.8 C 98 % 3.51 C
1568 30-10-2019 10:35:00 4 C 98 % 3.71 C
1569 30-10-2019 10:40:00 4.1 C 98 % 3.81 C
1570 30-10-2019 10:45:00 4.2 C 98 % 3.91 C
1571 30-10-2019 10:50:00 4.3 C 98 % 4.01 C
1572 30-10-2019 10:55:00 4.4 C 98 % 4.11 C
1573 30-10-2019 11:00:00 4.6 C 98 % 4.31 C
1574 30-10-2019 11:05:00 4.7 C 98 % 4.41 C
1575 30-10-2019 11:10:00 4.7 C 98 % 4.41 C
Sensor: Nr:Datum:Temp:Feuchte:Taupunkt:
Aussen-T/F 1576 30-10-2019 11:15:00 4.8 C 98 % 4.51 C
1577 30-10-2019 11:20:00 4.9 C 98 % 4.61 C
1578 30-10-2019 11:25:00 4.9 C 98 % 4.61 C
1579 30-10-2019 11:30:00 4.9 C 98 % 4.61 C
1580 30-10-2019 11:35:00 5 C 98 % 4.71 C
1581 30-10-2019 11:40:00 5.1 C 98 % 4.81 C
1582 30-10-2019 11:45:00 5.2 C 98 % 4.91 C
1583 30-10-2019 11:50:00 5.2 C 98 % 4.91 C
1584 30-10-2019 11:55:00 5.3 C 98 % 5.01 C
1585 30-10-2019 12:00:00 5.3 C 98 % 5.01 C
1586 30-10-2019 12:05:00 5.4 C 98 % 5.11 C
1587 30-10-2019 12:10:00 5.5 C 97 % 5.06 C
1588 30-10-2019 12:15:00 5.6 C 97 % 5.16 C
1589 30-10-2019 12:20:00 5.7 C 97 % 5.26 C
1590 30-10-2019 12:25:00 5.7 C 97 % 5.26 C
1591 30-10-2019 12:30:00 5.8 C 97 % 5.36 C
1592 30-10-2019 12:35:00 5.8 C 97 % 5.36 C
1593 30-10-2019 12:40:00 5.8 C 97 % 5.36 C
1594 30-10-2019 12:45:00 5.9 C 97 % 5.46 C
1595 30-10-2019 12:50:00 6 C 96 % 5.41 C
1596 30-10-2019 12:55:00 6.1 C 95 % 5.36 C
1597 30-10-2019 13:00:00 6.1 C 94 % 5.21 C
1598 30-10-2019 13:05:00 6.2 C 94 % 5.31 C
1599 30-10-2019 13:10:00 6.2 C 93 % 5.15 C
1600 30-10-2019 13:15:00 6.3 C 93 % 5.25 C
Sensor: Nr:Datum:Temp:Feuchte:Taupunkt:
Aussen-T/F 1601 30-10-2019 13:20:00 6.4 C 93 % 5.35 C
1602 30-10-2019 13:25:00 6.5 C 92 % 5.3 C
1603 30-10-2019 13:30:00 6.7 C 91 % 5.34 C
1604 30-10-2019 13:35:00 6.8 C 90 % 5.28 C
1605 30-10-2019 13:40:00 6.9 C 90 % 5.38 C
1606 30-10-2019 13:45:00 7.1 C 88 % 5.25 C
1607 30-10-2019 13:50:00 7.2 C 88 % 5.35 C
1608 30-10-2019 13:55:00 7.2 C 86 % 5.02 C
1609 30-10-2019 14:00:00 7.3 C 86 % 5.12 C
1610 30-10-2019 14:05:00 7.4 C 87 % 5.38 C
1611 30-10-2019 14:10:00 7.4 C 86 % 5.22 C
1612 30-10-2019 14:15:00 7.5 C 85 % 5.15 C
1613 30-10-2019 14:20:00 7.5 C 85 % 5.15 C
1614 30-10-2019 14:25:00 7.6 C 83 % 4.9 C
1615 30-10-2019 14:30:00 7.6 C 83 % 4.9 C
1616 30-10-2019 14:35:00 7.7 C 84 % 5.17 C
1617 30-10-2019 14:40:00 7.7 C 84 % 5.17 C
1618 30-10-2019 14:45:00 7.7 C 84 % 5.17 C
1619 30-10-2019 14:50:00 7.8 C 83 % 5.1 C
1620 30-10-2019 14:55:00 7.8 C 84 % 5.27 C
1621 30-10-2019 15:00:00 7.8 C 84 % 5.27 C
1622 30-10-2019 15:05:00 7.8 C 83 % 5.1 C
1623 30-10-2019 15:10:00 7.8 C 82 % 4.92 C
1624 30-10-2019 15:15:00 7.8 C 84 % 5.27 C
1625 30-10-2019 15:20:00 7.8 C 84 % 5.27 C
Sensor: Nr:Datum:Temp:Feuchte:Taupunkt:
Aussen-T/F 1626 30-10-2019 15:25:00 7.8 C 83 % 5.1 C
1627 30-10-2019 15:30:00 7.8 C 84 % 5.27 C
1628 30-10-2019 15:35:00 7.8 C 85 % 5.44 C
1629 30-10-2019 15:40:00 7.7 C 85 % 5.34 C
1630 30-10-2019 15:45:00 7.7 C 86 % 5.51 C
1631 30-10-2019 15:50:00 7.6 C 86 % 5.41 C
1632 30-10-2019 15:55:00 7.6 C 86 % 5.41 C
1633 30-10-2019 16:00:00 7.5 C 87 % 5.48 C
1634 30-10-2019 16:05:00 7.4 C 87 % 5.38 C
1635 30-10-2019 16:10:00 7.3 C 87 % 5.28 C
1636 30-10-2019 16:15:00 7.3 C 87 % 5.28 C
1637 30-10-2019 16:20:00 7.2 C 88 % 5.35 C
1638 30-10-2019 16:25:00 7.1 C 88 % 5.25 C
1639 30-10-2019 16:30:00 6.9 C 88 % 5.05 C
1640 30-10-2019 16:35:00 6.9 C 88 % 5.05 C
1641 30-10-2019 16:40:00 6.8 C 89 % 5.12 C
1642 30-10-2019 16:45:00 6.7 C 89 % 5.02 C
1643 30-10-2019 16:50:00 6.6 C 89 % 4.92 C
1644 30-10-2019 16:55:00 6.5 C 89 % 4.82 C
1645 30-10-2019 17:00:00 6.4 C 89 % 4.72 C
1646 30-10-2019 17:05:00 6.3 C 89 % 4.62 C
1647 30-10-2019 17:10:00 6.2 C 89 % 4.53 C
1648 30-10-2019 17:15:00 6.1 C 89 % 4.43 C
1649 30-10-2019 17:20:00 5.9 C 89 % 4.23 C
1650 30-10-2019 17:25:00 5.8 C 89 % 4.13 C
Sensor: Nr:Datum:Temp:Feuchte:Taupunkt:
Aussen-T/F 1651 30-10-2019 17:30:00 5.7 C 89 % 4.03 C
1652 30-10-2019 17:35:00 5.6 C 89 % 3.93 C
1653 30-10-2019 17:40:00 5.5 C 89 % 3.84 C
1654 30-10-2019 17:45:00 5.4 C 89 % 3.74 C
1655 30-10-2019 17:50:00 5.2 C 90 % 3.7 C
1656 30-10-2019 17:55:00 5.1 C 90 % 3.6 C
1657 30-10-2019 18:00:00 5 C 90 % 3.5 C
1658 30-10-2019 18:05:00 4.8 C 90 % 3.3 C
1659 30-10-2019 18:10:00 4.7 C 90 % 3.2 C
1660 30-10-2019 18:15:00 4.7 C 90 % 3.2 C
1661 30-10-2019 18:20:00 4.6 C 90 % 3.1 C
1662 30-10-2019 18:25:00 4.5 C 91 % 3.16 C
1663 30-10-2019 18:30:00 4.4 C 91 % 3.06 C
1664 30-10-2019 18:35:00 4.3 C 91 % 2.96 C
1665 30-10-2019 18:40:00 4.2 C 91 % 2.87 C
1666 30-10-2019 18:45:00 4.2 C 91 % 2.87 C
1667 30-10-2019 18:50:00 4.1 C 91 % 2.77 C
1668 30-10-2019 18:55:00 4.1 C 91 % 2.77 C
1669 30-10-2019 19:00:00 4.1 C 91 % 2.77 C
1670 30-10-2019 19:05:00 4 C 91 % 2.67 C
1671 30-10-2019 19:10:00 3.9 C 91 % 2.57 C
1672 30-10-2019 19:15:00 3.8 C 92 % 2.62 C
1673 30-10-2019 19:20:00 3.8 C 92 % 2.62 C
1674 30-10-2019 19:25:00 3.8 C 92 % 2.62 C
1675 30-10-2019 19:30:00 3.8 C 92 % 2.62 C
Sensor: Nr:Datum:Temp:Feuchte:Taupunkt:
Aussen-T/F 1676 30-10-2019 19:35:00 3.8 C 92 % 2.62 C
1677 30-10-2019 19:40:00 3.7 C 92 % 2.52 C
1678 30-10-2019 19:45:00 3.7 C 92 % 2.52 C
1679 30-10-2019 19:50:00 3.6 C 93 % 2.58 C
1680 30-10-2019 19:55:00 3.6 C 93 % 2.58 C
1681 30-10-2019 20:00:00 3.5 C 93 % 2.48 C
1682 30-10-2019 20:05:00 3.4 C 93 % 2.38 C
1683 30-10-2019 20:10:00 3.4 C 93 % 2.38 C
1684 30-10-2019 20:15:00 3.4 C 93 % 2.38 C
1685 30-10-2019 20:20:00 3.3 C 93 % 2.28 C
1686 30-10-2019 20:25:00 3.3 C 93 % 2.28 C
1687 30-10-2019 20:30:00 3.3 C 94 % 2.43 C
1688 30-10-2019 20:35:00 3.2 C 94 % 2.33 C
1689 30-10-2019 20:40:00 3.2 C 94 % 2.33 C
1690 30-10-2019 20:45:00 3.1 C 93 % 2.08 C
1691 30-10-2019 20:50:00 2.9 C 93 % 1.88 C
1692 30-10-2019 20:55:00 2.8 C 94 % 1.93 C
1693 30-10-2019 21:00:00 2.7 C 94 % 1.83 C
1694 30-10-2019 21:05:00 2.8 C 94 % 1.93 C
1695 30-10-2019 21:10:00 2.8 C 94 % 1.93 C
1696 30-10-2019 21:15:00 2.8 C 94 % 1.93 C
1697 30-10-2019 21:20:00 2.7 C 94 % 1.83 C
1698 30-10-2019 21:25:00 2.7 C 94 % 1.83 C
1699 30-10-2019 21:30:00 2.6 C 94 % 1.73 C
1700 30-10-2019 21:35:00 2.6 C 95 % 1.88 C
Sensor: Nr:Datum:Temp:Feuchte:Taupunkt:
Aussen-T/F 1701 30-10-2019 21:40:00 2.7 C 95 % 1.98 C
1702 30-10-2019 21:45:00 2.7 C 95 % 1.98 C
1703 30-10-2019 21:50:00 2.7 C 95 % 1.98 C
1704 30-10-2019 21:55:00 2.7 C 95 % 1.98 C
1705 30-10-2019 22:00:00 2.6 C 95 % 1.88 C
1706 30-10-2019 22:05:00 2.6 C 95 % 1.88 C
1707 30-10-2019 22:10:00 2.4 C 94 % 1.54 C
1708 30-10-2019 22:15:00 2.4 C 94 % 1.54 C
1709 30-10-2019 22:20:00 2.2 C 94 % 1.34 C
1710 30-10-2019 22:25:00 2.2 C 94 % 1.34 C
1711 30-10-2019 22:30:00 2.1 C 95 % 1.38 C
1712 30-10-2019 22:35:00 2.1 C 95 % 1.38 C
1713 30-10-2019 22:40:00 2.1 C 95 % 1.38 C
1714 30-10-2019 22:45:00 2.1 C 95 % 1.38 C
1715 30-10-2019 22:50:00 2.1 C 95 % 1.38 C
1716 30-10-2019 22:55:00 2.1 C 95 % 1.38 C
1717 30-10-2019 23:00:00 2.1 C 95 % 1.38 C
1718 30-10-2019 23:05:00 2.1 C 95 % 1.38 C
1719 30-10-2019 23:10:00 2.1 C 95 % 1.38 C
1720 30-10-2019 23:15:00 1.9 C 95 % 1.19 C
1721 30-10-2019 23:20:00 1.9 C 95 % 1.19 C
1722 30-10-2019 23:25:00 1.8 C 95 % 1.09 C
1723 30-10-2019 23:30:00 1.8 C 95 % 1.09 C
1724 30-10-2019 23:35:00 1.7 C 95 % 0.99 C
1725 30-10-2019 23:40:00 1.7 C 95 % 0.99 C
Sensor: Nr:Datum:Temp:Feuchte:Taupunkt:
Aussen-T/F 1726 30-10-2019 23:45:00 1.6 C 95 % 0.89 C
1727 30-10-2019 23:50:00 1.6 C 95 % 0.89 C
1728 30-10-2019 23:55:00 1.4 C 95 % 0.69 C
1729 31-10-2019 00:00:00 1.3 C 95 % 0.59 C
1730 31-10-2019 00:05:00 1.2 C 95 % 0.49 C
1731 31-10-2019 00:10:00 1.2 C 95 % 0.49 C
1732 31-10-2019 00:15:00 1.1 C 95 % 0.39 C
1733 31-10-2019 00:20:00 1.1 C 95 % 0.39 C
1734 31-10-2019 00:25:00 1 C 95 % 0.29 C
1735 31-10-2019 00:30:00 0.9 C 95 % 0.19 C
1736 31-10-2019 00:35:00 0.9 C 95 % 0.19 C
1737 31-10-2019 00:40:00 0.9 C 95 % 0.19 C
1738 31-10-2019 00:45:00 0.9 C 95 % 0.19 C
1739 31-10-2019 00:50:00 0.9 C 95 % 0.19 C
1740 31-10-2019 00:55:00 0.9 C 95 % 0.19 C
1741 31-10-2019 01:00:00 0.9 C 95 % 0.19 C
1742 31-10-2019 01:05:00 0.9 C 96 % 0.34 C
1743 31-10-2019 01:10:00 0.9 C 96 % 0.34 C
1744 31-10-2019 01:15:00 0.9 C 96 % 0.34 C
1745 31-10-2019 01:20:00 0.9 C 96 % 0.34 C
1746 31-10-2019 01:25:00 0.9 C 96 % 0.34 C
1747 31-10-2019 01:30:00 0.9 C 96 % 0.34 C
1748 31-10-2019 01:35:00 0.9 C 96 % 0.34 C
1749 31-10-2019 01:40:00 0.9 C 96 % 0.34 C
1750 31-10-2019 01:45:00 0.9 C 96 % 0.34 C
Sensor: Nr:Datum:Temp:Feuchte:Taupunkt:
Aussen-T/F 1751 31-10-2019 01:50:00 0.9 C 96 % 0.34 C
1752 31-10-2019 01:55:00 0.8 C 96 % 0.24 C
1753 31-10-2019 02:00:00 0.8 C 96 % 0.24 C
1754 31-10-2019 02:05:00 0.7 C 96 % 0.14 C
1755 31-10-2019 02:10:00 0.7 C 96 % 0.14 C
1756 31-10-2019 02:15:00 0.7 C 96 % 0.14 C
1757 31-10-2019 02:20:00 0.6 C 96 % 0.04 C
1758 31-10-2019 02:25:00 0.5 C 96 % -0.06 C
1759 31-10-2019 02:30:00 0.5 C 96 % -0.06 C
1760 31-10-2019 02:35:00 0.5 C 96 % -0.06 C
1761 31-10-2019 02:40:00 0.4 C 96 % -0.16 C
1762 31-10-2019 02:45:00 0.4 C 96 % -0.16 C
1763 31-10-2019 02:50:00 0.3 C 96 % -0.26 C
1764 31-10-2019 02:55:00 0.3 C 96 % -0.26 C
1765 31-10-2019 03:00:00 0.3 C 96 % -0.26 C
1766 31-10-2019 03:05:00 0.3 C 96 % -0.26 C
1767 31-10-2019 03:10:00 0.3 C 96 % -0.26 C
1768 31-10-2019 03:15:00 0.4 C 96 % -0.16 C
1769 31-10-2019 03:20:00 0.3 C 96 % -0.26 C
1770 31-10-2019 03:25:00 0.3 C 96 % -0.26 C
1771 31-10-2019 03:30:00 0.2 C 96 % -0.36 C
1772 31-10-2019 03:35:00 0.2 C 96 % -0.36 C
1773 31-10-2019 03:40:00 0.2 C 96 % -0.36 C
1774 31-10-2019 03:45:00 0.3 C 96 % -0.26 C
1775 31-10-2019 03:50:00 0.3 C 96 % -0.26 C
Sensor: Nr:Datum:Temp:Feuchte:Taupunkt:
Aussen-T/F 1776 31-10-2019 03:55:00 0.3 C 96 % -0.26 C
1777 31-10-2019 04:00:00 0.3 C 96 % -0.26 C
1778 31-10-2019 04:05:00 0.2 C 96 % -0.36 C
1779 31-10-2019 04:10:00 0.1 C 96 % -0.46 C
1780 31-10-2019 04:15:00 0 C 96 % -0.56 C
1781 31-10-2019 04:20:00 0 C 96 % -0.56 C
1782 31-10-2019 04:25:00 0 C 96 % -0.56 C
1783 31-10-2019 04:30:00 0.1 C 96 % -0.46 C
1784 31-10-2019 04:35:00 0.1 C 96 % -0.46 C
1785 31-10-2019 04:40:00 0.1 C 96 % -0.46 C
1786 31-10-2019 04:45:00 0 C 96 % -0.56 C
1787 31-10-2019 04:50:00 0 C 96 % -0.56 C
1788 31-10-2019 04:55:00 -0.1 C 96 % -0.66 C
1789 31-10-2019 05:00:00 -0.1 C 96 % -0.66 C
1790 31-10-2019 05:05:00 -0.2 C 96 % -0.76 C
1791 31-10-2019 05:10:00 -0.2 C 96 % -0.76 C
1792 31-10-2019 05:15:00 -0.3 C 96 % -0.86 C
1793 31-10-2019 05:20:00 -0.3 C 96 % -0.86 C
1794 31-10-2019 05:25:00 -0.3 C 96 % -0.86 C
1795 31-10-2019 05:30:00 -0.3 C 96 % -0.86 C
1796 31-10-2019 05:35:00 -0.4 C 96 % -0.96 C
1797 31-10-2019 05:40:00 -0.4 C 96 % -0.96 C
1798 31-10-2019 05:45:00 -0.4 C 96 % -0.96 C
1799 31-10-2019 05:50:00 -0.5 C 96 % -1.06 C
1800 31-10-2019 05:55:00 -0.5 C 96 % -1.06 C
Sensor: Nr:Datum:Temp:Feuchte:Taupunkt:
Aussen-T/F 1801 31-10-2019 06:00:00 -0.5 C 96 % -1.06 C
1802 31-10-2019 06:05:00 -0.5 C 96 % -1.06 C
1803 31-10-2019 06:10:00 -0.5 C 96 % -1.06 C
1804 31-10-2019 06:15:00 -0.5 C 96 % -1.06 C
1805 31-10-2019 06:20:00 -0.4 C 96 % -0.96 C
1806 31-10-2019 06:25:00 -0.5 C 96 % -1.06 C
1807 31-10-2019 06:30:00 -0.5 C 96 % -1.06 C
1808 31-10-2019 06:35:00 -0.5 C 96 % -1.06 C
1809 31-10-2019 06:40:00 -0.5 C 96 % -1.06 C
1810 31-10-2019 06:45:00 -0.5 C 96 % -1.06 C
1811 31-10-2019 06:50:00 -0.6 C 96 % -1.16 C
1812 31-10-2019 06:55:00 -0.6 C 96 % -1.16 C
1813 31-10-2019 07:00:00 -0.6 C 96 % -1.16 C
1814 31-10-2019 07:05:00 -0.7 C 96 % -1.26 C
1815 31-10-2019 07:10:00 -0.7 C 96 % -1.26 C
1816 31-10-2019 07:15:00 -0.7 C 96 % -1.26 C
1817 31-10-2019 07:20:00 -0.8 C 96 % -1.36 C
1818 31-10-2019 07:25:00 -0.8 C 96 % -1.36 C
1819 31-10-2019 07:30:00 -0.8 C 97 % -1.22 C
1820 31-10-2019 07:35:00 -0.7 C 97 % -1.12 C
1821 31-10-2019 07:40:00 -0.8 C 97 % -1.22 C
1822 31-10-2019 07:45:00 -0.8 C 96 % -1.36 C
1823 31-10-2019 07:50:00 -0.8 C 96 % -1.36 C
1824 31-10-2019 07:55:00 -0.8 C 96 % -1.36 C
1825 31-10-2019 08:00:00 -0.8 C 96 % -1.36 C
Sensor: Nr:Datum:Temp:Feuchte:Taupunkt:
Aussen-T/F 1826 31-10-2019 08:05:00 -0.8 C 96 % -1.36 C
1827 31-10-2019 08:10:00 -0.7 C 96 % -1.26 C
1828 31-10-2019 08:15:00 -0.7 C 96 % -1.26 C
1829 31-10-2019 08:20:00 -0.6 C 96 % -1.16 C
1830 31-10-2019 08:25:00 -0.6 C 97 % -1.02 C
1831 31-10-2019 08:30:00 -0.6 C 97 % -1.02 C
1832 31-10-2019 08:35:00 -0.6 C 97 % -1.02 C
1833 31-10-2019 08:40:00 -0.6 C 97 % -1.02 C
1834 31-10-2019 08:45:00 -0.5 C 97 % -0.92 C
1835 31-10-2019 08:50:00 -0.5 C 97 % -0.92 C
1836 31-10-2019 08:55:00 -0.4 C 97 % -0.82 C
1837 31-10-2019 09:00:00 -0.4 C 97 % -0.82 C
1838 31-10-2019 09:05:00 -0.3 C 97 % -0.72 C
1839 31-10-2019 09:10:00 -0.2 C 97 % -0.62 C
1840 31-10-2019 09:15:00 -0.1 C 97 % -0.52 C
1841 31-10-2019 09:20:00 0 C 97 % -0.42 C
1842 31-10-2019 09:25:00 0.1 C 97 % -0.32 C
1843 31-10-2019 09:30:00 0.1 C 97 % -0.32 C
1844 31-10-2019 09:35:00 0.2 C 97 % -0.22 C
1845 31-10-2019 09:40:00 0.2 C 97 % -0.22 C
1846 31-10-2019 09:45:00 0.3 C 97 % -0.12 C
1847 31-10-2019 09:50:00 0.3 C 97 % -0.12 C
1848 31-10-2019 09:55:00 0.4 C 97 % -0.02 C
1849 31-10-2019 10:00:00 0.4 C 97 % -0.02 C
1850 31-10-2019 10:05:00 0.6 C 97 % 0.18 C
Sensor: Nr:Datum:Temp:Feuchte:Taupunkt:
Aussen-T/F 1851 31-10-2019 10:10:00 0.7 C 97 % 0.28 C
1852 31-10-2019 10:15:00 0.8 C 97 % 0.38 C
1853 31-10-2019 10:20:00 0.8 C 97 % 0.38 C
1854 31-10-2019 10:25:00 1 C 97 % 0.58 C
1855 31-10-2019 10:30:00 1.1 C 97 % 0.68 C
1856 31-10-2019 10:35:00 1.3 C 97 % 0.88 C
1857 31-10-2019 10:40:00 1.4 C 97 % 0.98 C
1858 31-10-2019 10:45:00 1.6 C 97 % 1.18 C
1859 31-10-2019 10:50:00 1.8 C 98 % 1.52 C
1860 31-10-2019 10:55:00 2.1 C 97 % 1.67 C
1861 31-10-2019 11:00:00 2.2 C 98 % 1.92 C
1862 31-10-2019 11:05:00 2.3 C 97 % 1.87 C
1863 31-10-2019 11:10:00 2.4 C 98 % 2.12 C
1864 31-10-2019 11:15:00 2.6 C 98 % 2.32 C
1865 31-10-2019 11:20:00 2.7 C 97 % 2.27 C
1866 31-10-2019 11:25:00 2.8 C 98 % 2.52 C
1867 31-10-2019 11:30:00 2.9 C 98 % 2.62 C
1868 31-10-2019 11:35:00 3.1 C 98 % 2.82 C
1869 31-10-2019 11:40:00 3.2 C 98 % 2.92 C
1870 31-10-2019 11:45:00 3.3 C 98 % 3.01 C
1871 31-10-2019 11:50:00 3.4 C 98 % 3.11 C
1872 31-10-2019 11:55:00 3.4 C 98 % 3.11 C
1873 31-10-2019 12:00:00 3.6 C 98 % 3.31 C
1874 31-10-2019 12:05:00 3.7 C 98 % 3.41 C
1875 31-10-2019 12:10:00 3.8 C 98 % 3.51 C
Sensor: Nr:Datum:Temp:Feuchte:Taupunkt:
Aussen-T/F 1876 31-10-2019 12:15:00 3.9 C 98 % 3.61 C
1877 31-10-2019 12:20:00 4.1 C 98 % 3.81 C
1878 31-10-2019 12:25:00 4.2 C 98 % 3.91 C
1879 31-10-2019 12:30:00 4.2 C 98 % 3.91 C
1880 31-10-2019 12:35:00 4.3 C 97 % 3.87 C
1881 31-10-2019 12:40:00 4.4 C 98 % 4.11 C
1882 31-10-2019 12:45:00 4.5 C 98 % 4.21 C
1883 31-10-2019 12:50:00 4.6 C 97 % 4.17 C
1884 31-10-2019 12:55:00 4.7 C 97 % 4.27 C
1885 31-10-2019 13:00:00 4.8 C 97 % 4.37 C
1886 31-10-2019 13:05:00 4.9 C 97 % 4.46 C
1887 31-10-2019 13:10:00 5.1 C 97 % 4.66 C
1888 31-10-2019 13:15:00 5.2 C 97 % 4.76 C
1889 31-10-2019 13:20:00 5.4 C 97 % 4.96 C
1890 31-10-2019 13:25:00 5.6 C 96 % 5.01 C
1891 31-10-2019 13:30:00 5.7 C 94 % 4.81 C
1892 31-10-2019 13:35:00 5.9 C 94 % 5.01 C
1893 31-10-2019 13:40:00 5.9 C 92 % 4.7 C
1894 31-10-2019 13:45:00 6.1 C 91 % 4.74 C
1895 31-10-2019 13:50:00 6.3 C 91 % 4.94 C
1896 31-10-2019 13:55:00 6.4 C 91 % 5.04 C
1897 31-10-2019 14:00:00 6.5 C 91 % 5.14 C
1898 31-10-2019 14:05:00 6.5 C 89 % 4.82 C
1899 31-10-2019 14:10:00 6.7 C 86 % 4.53 C
1900 31-10-2019 14:15:00 7.1 C 86 % 4.92 C
Sensor: Nr:Datum:Temp:Feuchte:Taupunkt:
Aussen-T/F 1901 31-10-2019 14:20:00 7.1 C 85 % 4.75 C
1902 31-10-2019 14:25:00 7.3 C 81 % 4.26 C
1903 31-10-2019 14:30:00 7.7 C 81 % 4.65 C
1904 31-10-2019 14:35:00 7.8 C 83 % 5.1 C
1905 31-10-2019 14:40:00 7.8 C 84 % 5.27 C
1906 31-10-2019 14:45:00 7.7 C 84 % 5.17 C
1907 31-10-2019 14:50:00 7.6 C 81 % 4.55 C
1908 31-10-2019 14:55:00 7.7 C 80 % 4.47 C
1909 31-10-2019 15:00:00 7.9 C 79 % 4.49 C
1910 31-10-2019 15:05:00 8 C 82 % 5.12 C
1911 31-10-2019 15:10:00 7.8 C 82 % 4.92 C
1912 31-10-2019 15:15:00 7.7 C 83 % 5 C
1913 31-10-2019 15:20:00 7.5 C 83 % 4.81 C
1914 31-10-2019 15:25:00 7.4 C 83 % 4.71 C
1915 31-10-2019 15:30:00 7.4 C 83 % 4.71 C
1916 31-10-2019 15:35:00 7.3 C 84 % 4.78 C
1917 31-10-2019 15:40:00 7.3 C 85 % 4.95 C
1918 31-10-2019 15:45:00 7.1 C 85 % 4.75 C
1919 31-10-2019 15:50:00 7 C 86 % 4.82 C
1920 31-10-2019 15:55:00 6.9 C 86 % 4.72 C
1921 31-10-2019 16:00:00 6.8 C 86 % 4.63 C
1922 31-10-2019 16:05:00 6.6 C 86 % 4.43 C
1923 31-10-2019 16:10:00 6.4 C 87 % 4.4 C
1924 31-10-2019 16:15:00 6.4 C 87 % 4.4 C
1925 31-10-2019 16:20:00 6.3 C 88 % 4.46 C
Sensor: Nr:Datum:Temp:Feuchte:Taupunkt:
Aussen-T/F 1926 31-10-2019 16:25:00 6.2 C 88 % 4.36 C
1927 31-10-2019 16:30:00 6.1 C 88 % 4.27 C
1928 31-10-2019 16:35:00 6 C 88 % 4.17 C
1929 31-10-2019 16:40:00 5.8 C 88 % 3.97 C
1930 31-10-2019 16:45:00 5.8 C 88 % 3.97 C
1931 31-10-2019 16:50:00 5.6 C 88 % 3.77 C
1932 31-10-2019 16:55:00 5.5 C 87 % 3.51 C
1933 31-10-2019 17:00:00 5.3 C 87 % 3.32 C
1934 31-10-2019 17:05:00 5.2 C 87 % 3.22 C
1935 31-10-2019 17:10:00 5.1 C 88 % 3.28 C
1936 31-10-2019 17:15:00 4.9 C 88 % 3.08 C
1937 31-10-2019 17:20:00 4.8 C 88 % 2.99 C
1938 31-10-2019 17:25:00 4.7 C 89 % 3.05 C
1939 31-10-2019 17:30:00 4.6 C 89 % 2.95 C
1940 31-10-2019 17:35:00 4.4 C 89 % 2.75 C
1941 31-10-2019 17:40:00 4.3 C 89 % 2.65 C
1942 31-10-2019 17:45:00 4.2 C 89 % 2.55 C
1943 31-10-2019 17:50:00 4.1 C 89 % 2.45 C
1944 31-10-2019 17:55:00 4 C 89 % 2.36 C
1945 31-10-2019 18:00:00 3.9 C 89 % 2.26 C
1946 31-10-2019 18:05:00 3.9 C 89 % 2.26 C
1947 31-10-2019 18:10:00 3.8 C 89 % 2.16 C
1948 31-10-2019 18:15:00 3.8 C 89 % 2.16 C
1949 31-10-2019 18:20:00 3.8 C 89 % 2.16 C
1950 31-10-2019 18:25:00 3.7 C 89 % 2.06 C
Sensor: Nr:Datum:Temp:Feuchte:Taupunkt:
Aussen-T/F 1951 31-10-2019 18:30:00 3.7 C 89 % 2.06 C
1952 31-10-2019 18:35:00 3.7 C 89 % 2.06 C
1953 31-10-2019 18:40:00 3.6 C 89 % 1.96 C
1954 31-10-2019 18:45:00 3.6 C 89 % 1.96 C
1955 31-10-2019 18:50:00 3.5 C 89 % 1.86 C
1956 31-10-2019 18:55:00 3.5 C 90 % 2.02 C
1957 31-10-2019 19:00:00 3.4 C 90 % 1.92 C
1958 31-10-2019 19:05:00 3.4 C 90 % 1.92 C
1959 31-10-2019 19:10:00 3.4 C 90 % 1.92 C
1960 31-10-2019 19:15:00 3.4 C 90 % 1.92 C
1961 31-10-2019 19:20:00 3.3 C 90 % 1.82 C
1962 31-10-2019 19:25:00 3.2 C 90 % 1.72 C
1963 31-10-2019 19:30:00 3.2 C 90 % 1.72 C
1964 31-10-2019 19:35:00 3.1 C 91 % 1.78 C
1965 31-10-2019 19:40:00 3 C 91 % 1.68 C
1966 31-10-2019 19:45:00 2.9 C 91 % 1.58 C
1967 31-10-2019 19:50:00 2.9 C 91 % 1.58 C
1968 31-10-2019 19:55:00 2.9 C 91 % 1.58 C
1969 31-10-2019 20:00:00 2.8 C 91 % 1.48 C
1970 31-10-2019 20:05:00 2.7 C 91 % 1.38 C
1971 31-10-2019 20:10:00 2.6 C 91 % 1.28 C
1972 31-10-2019 20:15:00 2.5 C 91 % 1.18 C
1973 31-10-2019 20:20:00 2.4 C 92 % 1.24 C
1974 31-10-2019 20:25:00 2.3 C 92 % 1.14 C
1975 31-10-2019 20:30:00 2.3 C 92 % 1.14 C
Sensor: Nr:Datum:Temp:Feuchte:Taupunkt:
Aussen-T/F 1976 31-10-2019 20:35:00 2.2 C 92 % 1.04 C
1977 31-10-2019 20:40:00 2.1 C 93 % 1.09 C
1978 31-10-2019 20:45:00 2.1 C 93 % 1.09 C
1979 31-10-2019 20:50:00 2 C 93 % 0.99 C
1980 31-10-2019 20:55:00 1.9 C 93 % 0.89 C
1981 31-10-2019 21:00:00 1.9 C 93 % 0.89 C
1982 31-10-2019 21:05:00 1.8 C 93 % 0.79 C
1983 31-10-2019 21:10:00 1.8 C 94 % 0.94 C
1984 31-10-2019 21:15:00 1.8 C 93 % 0.79 C
1985 31-10-2019 21:20:00 1.8 C 94 % 0.94 C
1986 31-10-2019 21:25:00 1.7 C 94 % 0.84 C
1987 31-10-2019 21:30:00 1.7 C 94 % 0.84 C
1988 31-10-2019 21:35:00 1.7 C 94 % 0.84 C
1989 31-10-2019 21:40:00 1.6 C 94 % 0.74 C
1990 31-10-2019 21:45:00 1.6 C 94 % 0.74 C
1991 31-10-2019 21:50:00 1.6 C 94 % 0.74 C
1992 31-10-2019 21:55:00 1.6 C 94 % 0.74 C
1993 31-10-2019 22:00:00 1.6 C 94 % 0.74 C
1994 31-10-2019 22:05:00 1.7 C 95 % 0.99 C
1995 31-10-2019 22:10:00 1.7 C 95 % 0.99 C
1996 31-10-2019 22:15:00 1.7 C 94 % 0.84 C
1997 31-10-2019 22:20:00 1.6 C 94 % 0.74 C
1998 31-10-2019 22:25:00 1.5 C 94 % 0.64 C
1999 31-10-2019 22:30:00 1.4 C 94 % 0.54 C
2000 31-10-2019 22:35:00 1.4 C 94 % 0.54 C
Sensor: Nr:Datum:Temp:Feuchte:Taupunkt:
Aussen-T/F 2001 31-10-2019 22:40:00 1.3 C 94 % 0.44 C
2002 31-10-2019 22:45:00 1.3 C 94 % 0.44 C
2003 31-10-2019 22:50:00 1.3 C 94 % 0.44 C
2004 31-10-2019 22:55:00 1.3 C 95 % 0.59 C
2005 31-10-2019 23:00:00 1.3 C 95 % 0.59 C
2006 31-10-2019 23:05:00 1.3 C 95 % 0.59 C
2007 31-10-2019 23:10:00 1.4 C 95 % 0.69 C
2008 31-10-2019 23:15:00 1.4 C 95 % 0.69 C
2009 31-10-2019 23:20:00 1.4 C 95 % 0.69 C
2010 31-10-2019 23:25:00 1.4 C 95 % 0.69 C
2011 31-10-2019 23:30:00 1.3 C 95 % 0.59 C
2012 31-10-2019 23:35:00 1.3 C 95 % 0.59 C
2013 31-10-2019 23:40:00 1.3 C 95 % 0.59 C
2014 31-10-2019 23:45:00 1.2 C 95 % 0.49 C
2015 31-10-2019 23:50:00 1.2 C 95 % 0.49 C
2016 31-10-2019 23:55:00 1.2 C 95 % 0.49 C
2017 01-11-2019 00:00:00 1.1 C 95 % 0.39 C
2018 01-11-2019 00:05:00 1.1 C 95 % 0.39 C
2019 01-11-2019 00:10:00 1.1 C 95 % 0.39 C
2020 01-11-2019 00:15:00 1 C 95 % 0.29 C
2021 01-11-2019 00:20:00 0.9 C 95 % 0.19 C
2022 01-11-2019 00:25:00 0.8 C 95 % 0.09 C
2023 01-11-2019 00:30:00 0.8 C 95 % 0.09 C
2024 01-11-2019 00:35:00 0.8 C 95 % 0.09 C
2025 01-11-2019 00:40:00 0.8 C 95 % 0.09 C
Sensor: Nr:Datum:Temp:Feuchte:Taupunkt:
Aussen-T/F 2026 01-11-2019 00:45:00 0.8 C 95 % 0.09 C
2027 01-11-2019 00:50:00 0.7 C 95 % -0.01 C
2028 01-11-2019 00:55:00 0.7 C 95 % -0.01 C
2029 01-11-2019 01:00:00 0.7 C 95 % -0.01 C
2030 01-11-2019 01:05:00 0.6 C 95 % -0.11 C
2031 01-11-2019 01:10:00 0.6 C 95 % -0.11 C
2032 01-11-2019 01:15:00 0.6 C 95 % -0.11 C
2033 01-11-2019 01:20:00 0.6 C 95 % -0.11 C
2034 01-11-2019 01:25:00 0.6 C 95 % -0.11 C
2035 01-11-2019 01:30:00 0.6 C 95 % -0.11 C
2036 01-11-2019 01:35:00 0.5 C 95 % -0.21 C
2037 01-11-2019 01:40:00 0.6 C 96 % 0.04 C
2038 01-11-2019 01:45:00 0.6 C 96 % 0.04 C
2039 01-11-2019 01:50:00 0.6 C 96 % 0.04 C
2040 01-11-2019 01:55:00 0.6 C 96 % 0.04 C
2041 01-11-2019 02:00:00 0.6 C 96 % 0.04 C
2042 01-11-2019 02:05:00 0.6 C 95 % -0.11 C
2043 01-11-2019 02:10:00 0.6 C 96 % 0.04 C
2044 01-11-2019 02:15:00 0.6 C 96 % 0.04 C
2045 01-11-2019 02:20:00 0.6 C 96 % 0.04 C
2046 01-11-2019 02:25:00 0.6 C 96 % 0.04 C
2047 01-11-2019 02:30:00 0.6 C 96 % 0.04 C
2048 01-11-2019 02:35:00 0.5 C 96 % -0.06 C
2049 01-11-2019 02:40:00 0.5 C 96 % -0.06 C
2050 01-11-2019 02:45:00 0.5 C 96 % -0.06 C
Sensor: Nr:Datum:Temp:Feuchte:Taupunkt:
Aussen-T/F 2051 01-11-2019 02:50:00 0.5 C 96 % -0.06 C
2052 01-11-2019 02:55:00 0.5 C 96 % -0.06 C
2053 01-11-2019 03:00:00 0.5 C 96 % -0.06 C
2054 01-11-2019 03:05:00 0.4 C 96 % -0.16 C
2055 01-11-2019 03:10:00 0.4 C 96 % -0.16 C
2056 01-11-2019 03:15:00 0.5 C 96 % -0.06 C
2057 01-11-2019 03:20:00 0.5 C 96 % -0.06 C
2058 01-11-2019 03:25:00 0.5 C 96 % -0.06 C
2059 01-11-2019 03:30:00 0.5 C 96 % -0.06 C
2060 01-11-2019 03:35:00 0.4 C 96 % -0.16 C
2061 01-11-2019 03:40:00 0.4 C 96 % -0.16 C
2062 01-11-2019 03:45:00 0.4 C 96 % -0.16 C
2063 01-11-2019 03:50:00 0.4 C 96 % -0.16 C
2064 01-11-2019 03:55:00 0.4 C 96 % -0.16 C
2065 01-11-2019 04:00:00 0.6 C 96 % 0.04 C
2066 01-11-2019 04:05:00 0.6 C 96 % 0.04 C
2067 01-11-2019 04:10:00 0.7 C 96 % 0.14 C
2068 01-11-2019 04:15:00 0.8 C 96 % 0.24 C
2069 01-11-2019 04:20:00 0.9 C 97 % 0.48 C
2070 01-11-2019 04:25:00 1 C 97 % 0.58 C
2071 01-11-2019 04:30:00 1.1 C 96 % 0.54 C
2072 01-11-2019 04:35:00 1.2 C 96 % 0.63 C
2073 01-11-2019 04:40:00 1.2 C 97 % 0.78 C
2074 01-11-2019 04:45:00 1.3 C 97 % 0.88 C
2075 01-11-2019 04:50:00 1.4 C 97 % 0.98 C
Sensor: Nr:Datum:Temp:Feuchte:Taupunkt:
Aussen-T/F 2076 01-11-2019 04:55:00 1.6 C 97 % 1.18 C
2077 01-11-2019 05:00:00 1.7 C 97 % 1.28 C
2078 01-11-2019 05:05:00 1.8 C 97 % 1.38 C
2079 01-11-2019 05:10:00 1.9 C 97 % 1.48 C
2080 01-11-2019 05:15:00 2 C 97 % 1.58 C
2081 01-11-2019 05:20:00 2.1 C 97 % 1.67 C
2082 01-11-2019 05:25:00 2.2 C 97 % 1.77 C
2083 01-11-2019 05:30:00 2.2 C 97 % 1.77 C
2084 01-11-2019 05:35:00 2.3 C 97 % 1.87 C
2085 01-11-2019 05:40:00 2.3 C 97 % 1.87 C
2086 01-11-2019 05:45:00 2.4 C 97 % 1.97 C
2087 01-11-2019 05:50:00 2.5 C 97 % 2.07 C
2088 01-11-2019 05:55:00 2.6 C 97 % 2.17 C
2089 01-11-2019 06:00:00 2.6 C 97 % 2.17 C
2090 01-11-2019 06:05:00 2.7 C 97 % 2.27 C
2091 01-11-2019 06:10:00 2.7 C 97 % 2.27 C
2092 01-11-2019 06:15:00 2.8 C 97 % 2.37 C
2093 01-11-2019 06:20:00 2.8 C 97 % 2.37 C
2094 01-11-2019 06:25:00 2.8 C 97 % 2.37 C
2095 01-11-2019 06:30:00 2.8 C 97 % 2.37 C
2096 01-11-2019 06:35:00 2.9 C 97 % 2.47 C
2097 01-11-2019 06:40:00 2.9 C 97 % 2.47 C
2098 01-11-2019 06:45:00 3 C 97 % 2.57 C
2099 01-11-2019 06:50:00 3.1 C 97 % 2.67 C
2100 01-11-2019 06:55:00 3.2 C 97 % 2.77 C
Sensor: Nr:Datum:Temp:Feuchte:Taupunkt:
Aussen-T/F 2101 01-11-2019 07:00:00 3.2 C 97 % 2.77 C
2102 01-11-2019 07:05:00 3.3 C 97 % 2.87 C
2103 01-11-2019 07:10:00 3.3 C 97 % 2.87 C
2104 01-11-2019 07:15:00 3.4 C 97 % 2.97 C
2105 01-11-2019 07:20:00 3.4 C 97 % 2.97 C
2106 01-11-2019 07:25:00 3.5 C 97 % 3.07 C
2107 01-11-2019 07:30:00 3.6 C 97 % 3.17 C
2108 01-11-2019 07:35:00 3.7 C 97 % 3.27 C
2109 01-11-2019 07:40:00 3.7 C 97 % 3.27 C
2110 01-11-2019 07:45:00 3.8 C 97 % 3.37 C
2111 01-11-2019 07:50:00 3.8 C 97 % 3.37 C
2112 01-11-2019 07:55:00 3.9 C 97 % 3.47 C
2113 01-11-2019 08:00:00 3.9 C 97 % 3.47 C
2114 01-11-2019 08:05:00 4.1 C 97 % 3.67 C
2115 01-11-2019 08:10:00 4.1 C 97 % 3.67 C
2116 01-11-2019 08:15:00 4.2 C 97 % 3.77 C
2117 01-11-2019 08:20:00 4.2 C 97 % 3.77 C
2118 01-11-2019 08:25:00 4.3 C 97 % 3.87 C
2119 01-11-2019 08:30:00 4.3 C 97 % 3.87 C
2120 01-11-2019 08:35:00 4.4 C 97 % 3.97 C
2121 01-11-2019 08:40:00 4.6 C 97 % 4.17 C
2122 01-11-2019 08:45:00 4.7 C 97 % 4.27 C
2123 01-11-2019 08:50:00 4.7 C 97 % 4.27 C
2124 01-11-2019 08:55:00 4.8 C 97 % 4.37 C
2125 01-11-2019 09:00:00 4.9 C 97 % 4.46 C
Sensor: Nr:Datum:Temp:Feuchte:Taupunkt:
Aussen-T/F 2126 01-11-2019 09:05:00 5.1 C 97 % 4.66 C
2127 01-11-2019 09:10:00 5.1 C 97 % 4.66 C
2128 01-11-2019 09:15:00 5.2 C 97 % 4.76 C
2129 01-11-2019 09:20:00 5.3 C 97 % 4.86 C
2130 01-11-2019 09:25:00 5.3 C 97 % 4.86 C
2131 01-11-2019 09:30:00 5.5 C 97 % 5.06 C
2132 01-11-2019 09:35:00 5.6 C 97 % 5.16 C
2133 01-11-2019 09:40:00 5.6 C 97 % 5.16 C
2134 01-11-2019 09:45:00 5.7 C 97 % 5.26 C
2135 01-11-2019 09:50:00 5.8 C 97 % 5.36 C
2136 01-11-2019 09:55:00 5.8 C 97 % 5.36 C
2137 01-11-2019 10:00:00 5.9 C 97 % 5.46 C
2138 01-11-2019 10:05:00 6 C 97 % 5.56 C
2139 01-11-2019 10:10:00 6.1 C 97 % 5.66 C
2140 01-11-2019 10:15:00 6.2 C 97 % 5.76 C
2141 01-11-2019 10:20:00 6.3 C 97 % 5.86 C
2142 01-11-2019 10:25:00 6.4 C 97 % 5.96 C
2143 01-11-2019 10:30:00 6.4 C 97 % 5.96 C
2144 01-11-2019 10:35:00 6.5 C 97 % 6.06 C
2145 01-11-2019 10:40:00 6.6 C 97 % 6.16 C
2146 01-11-2019 10:45:00 6.7 C 97 % 6.26 C
2147 01-11-2019 10:50:00 6.7 C 97 % 6.26 C
2148 01-11-2019 10:55:00 6.8 C 97 % 6.36 C
2149 01-11-2019 11:00:00 6.9 C 97 % 6.46 C
2150 01-11-2019 11:05:00 7.1 C 97 % 6.66 C
Sensor: Nr:Datum:Temp:Feuchte:Taupunkt:
Aussen-T/F 2151 01-11-2019 11:10:00 7.1 C 97 % 6.66 C
2152 01-11-2019 11:15:00 7.2 C 96 % 6.61 C
2153 01-11-2019 11:20:00 7.2 C 96 % 6.61 C
2154 01-11-2019 11:25:00 7.3 C 96 % 6.71 C
2155 01-11-2019 11:30:00 7.3 C 95 % 6.55 C
2156 01-11-2019 11:35:00 7.3 C 95 % 6.55 C
2157 01-11-2019 11:40:00 7.4 C 95 % 6.65 C
2158 01-11-2019 11:45:00 7.5 C 95 % 6.75 C
2159 01-11-2019 11:50:00 7.6 C 94 % 6.7 C
2160 01-11-2019 11:55:00 7.6 C 94 % 6.7 C
2161 01-11-2019 12:00:00 7.7 C 94 % 6.8 C
2162 01-11-2019 12:05:00 7.8 C 94 % 6.9 C
2163 01-11-2019 12:10:00 7.9 C 94 % 7 C
2164 01-11-2019 12:15:00 8 C 94 % 7.09 C
2165 01-11-2019 12:20:00 8.1 C 94 % 7.19 C
2166 01-11-2019 12:25:00 8.1 C 93 % 7.04 C
2167 01-11-2019 12:30:00 8.2 C 93 % 7.14 C
2168 01-11-2019 12:35:00 8.3 C 93 % 7.24 C
2169 01-11-2019 12:40:00 8.2 C 92 % 6.98 C
2170 01-11-2019 12:45:00 8.2 C 93 % 7.14 C
2171 01-11-2019 12:50:00 8.3 C 93 % 7.24 C
2172 01-11-2019 12:55:00 8.3 C 93 % 7.24 C
2173 01-11-2019 13:00:00 8.3 C 93 % 7.24 C
2174 01-11-2019 13:05:00 8.4 C 93 % 7.34 C
2175 01-11-2019 13:10:00 8.3 C 92 % 7.08 C
Sensor: Nr:Datum:Temp:Feuchte:Taupunkt:
Aussen-T/F 2176 01-11-2019 13:15:00 8.4 C 93 % 7.34 C
2177 01-11-2019 13:20:00 8.5 C 93 % 7.43 C
2178 01-11-2019 13:25:00 8.6 C 93 % 7.53 C
2179 01-11-2019 13:30:00 8.6 C 93 % 7.53 C
2180 01-11-2019 13:35:00 8.6 C 93 % 7.53 C
2181 01-11-2019 13:40:00 8.6 C 93 % 7.53 C
2182 01-11-2019 13:45:00 8.7 C 93 % 7.63 C
2183 01-11-2019 13:50:00 8.7 C 93 % 7.63 C
2184 01-11-2019 13:55:00 8.7 C 94 % 7.79 C
2185 01-11-2019 14:00:00 8.7 C 94 % 7.79 C
2186 01-11-2019 14:05:00 8.7 C 94 % 7.79 C
2187 01-11-2019 14:10:00 8.7 C 94 % 7.79 C
2188 01-11-2019 14:15:00 8.7 C 94 % 7.79 C
2189 01-11-2019 14:20:00 8.7 C 94 % 7.79 C
2190 01-11-2019 14:25:00 8.7 C 95 % 7.94 C
2191 01-11-2019 14:30:00 8.7 C 95 % 7.94 C
2192 01-11-2019 14:35:00 8.7 C 95 % 7.94 C
2193 01-11-2019 14:40:00 8.8 C 95 % 8.04 C
2194 01-11-2019 14:45:00 8.8 C 95 % 8.04 C
2195 01-11-2019 14:50:00 8.8 C 95 % 8.04 C
2196 01-11-2019 14:55:00 8.8 C 95 % 8.04 C
2197 01-11-2019 15:00:00 8.7 C 95 % 7.94 C
2198 01-11-2019 15:05:00 8.7 C 95 % 7.94 C
2199 01-11-2019 15:10:00 8.7 C 95 % 7.94 C
2200 01-11-2019 15:15:00 8.7 C 96 % 8.1 C
Sensor: Nr:Datum:Temp:Feuchte:Taupunkt:
Aussen-T/F 2201 01-11-2019 15:20:00 8.7 C 96 % 8.1 C
2202 01-11-2019 15:25:00 8.7 C 96 % 8.1 C
2203 01-11-2019 15:30:00 8.7 C 95 % 7.94 C
2204 01-11-2019 15:35:00 8.7 C 96 % 8.1 C
2205 01-11-2019 15:40:00 8.7 C 96 % 8.1 C
2206 01-11-2019 15:45:00 8.7 C 96 % 8.1 C
2207 01-11-2019 15:50:00 8.7 C 96 % 8.1 C
2208 01-11-2019 15:55:00 8.7 C 96 % 8.1 C
2209 01-11-2019 16:00:00 8.8 C 96 % 8.2 C
2210 01-11-2019 16:05:00 8.8 C 96 % 8.2 C
2211 01-11-2019 16:10:00 8.8 C 96 % 8.2 C
2212 01-11-2019 16:15:00 8.8 C 96 % 8.2 C
2213 01-11-2019 16:20:00 8.8 C 96 % 8.2 C
2214 01-11-2019 16:25:00 8.8 C 96 % 8.2 C
2215 01-11-2019 16:30:00 8.8 C 96 % 8.2 C
2216 01-11-2019 16:35:00 8.8 C 96 % 8.2 C
2217 01-11-2019 16:40:00 8.8 C 96 % 8.2 C
2218 01-11-2019 16:45:00 8.8 C 96 % 8.2 C
2219 01-11-2019 16:50:00 8.8 C 96 % 8.2 C
2220 01-11-2019 16:55:00 8.8 C 96 % 8.2 C
2221 01-11-2019 17:00:00 8.8 C 96 % 8.2 C
2222 01-11-2019 17:05:00 8.8 C 96 % 8.2 C
2223 01-11-2019 17:10:00 8.8 C 96 % 8.2 C
2224 01-11-2019 17:15:00 8.8 C 96 % 8.2 C
2225 01-11-2019 17:20:00 8.8 C 96 % 8.2 C
Sensor: Nr:Datum:Temp:Feuchte:Taupunkt:
Aussen-T/F 2226 01-11-2019 17:25:00 8.9 C 96 % 8.3 C
2227 01-11-2019 17:30:00 8.9 C 96 % 8.3 C
2228 01-11-2019 17:35:00 8.9 C 96 % 8.3 C
2229 01-11-2019 17:40:00 8.9 C 96 % 8.3 C
2230 01-11-2019 17:45:00 8.9 C 96 % 8.3 C
2231 01-11-2019 17:50:00 8.9 C 96 % 8.3 C
2232 01-11-2019 17:55:00 8.9 C 96 % 8.3 C
2233 01-11-2019 18:00:00 8.9 C 96 % 8.3 C
2234 01-11-2019 18:05:00 8.9 C 96 % 8.3 C
2235 01-11-2019 18:10:00 8.9 C 96 % 8.3 C
2236 01-11-2019 18:15:00 8.9 C 96 % 8.3 C
2237 01-11-2019 18:20:00 8.9 C 96 % 8.3 C
2238 01-11-2019 18:25:00 8.9 C 96 % 8.3 C
2239 01-11-2019 18:30:00 8.9 C 96 % 8.3 C
2240 01-11-2019 18:35:00 8.9 C 96 % 8.3 C
2241 01-11-2019 18:40:00 8.8 C 96 % 8.2 C
2242 01-11-2019 18:45:00 8.8 C 96 % 8.2 C
2243 01-11-2019 18:50:00 8.8 C 97 % 8.35 C
2244 01-11-2019 18:55:00 8.8 C 97 % 8.35 C
2245 01-11-2019 19:00:00 8.8 C 97 % 8.35 C
2246 01-11-2019 19:05:00 8.8 C 97 % 8.35 C
2247 01-11-2019 19:10:00 8.9 C 97 % 8.45 C
2248 01-11-2019 19:15:00 8.9 C 97 % 8.45 C
2249 01-11-2019 19:20:00 8.9 C 97 % 8.45 C
2250 01-11-2019 19:25:00 8.9 C 97 % 8.45 C
Sensor: Nr:Datum:Temp:Feuchte:Taupunkt:
Aussen-T/F 2251 01-11-2019 19:30:00 8.9 C 97 % 8.45 C
2252 01-11-2019 19:35:00 9 C 97 % 8.55 C
2253 01-11-2019 19:40:00 9 C 97 % 8.55 C
2254 01-11-2019 19:45:00 9 C 97 % 8.55 C
2255 01-11-2019 19:50:00 9.1 C 97 % 8.65 C
2256 01-11-2019 19:55:00 9 C 97 % 8.55 C
2257 01-11-2019 20:00:00 9.1 C 97 % 8.65 C
2258 01-11-2019 20:05:00 9.1 C 97 % 8.65 C
2259 01-11-2019 20:10:00 9.1 C 97 % 8.65 C
2260 01-11-2019 20:15:00 9.2 C 97 % 8.75 C
2261 01-11-2019 20:20:00 9.2 C 97 % 8.75 C
2262 01-11-2019 20:25:00 9.2 C 97 % 8.75 C
2263 01-11-2019 20:30:00 9.2 C 97 % 8.75 C
2264 01-11-2019 20:35:00 9.3 C 97 % 8.85 C
2265 01-11-2019 20:40:00 9.3 C 97 % 8.85 C
2266 01-11-2019 20:45:00 9.3 C 97 % 8.85 C
2267 01-11-2019 20:50:00 9.3 C 97 % 8.85 C
2268 01-11-2019 20:55:00 9.4 C 97 % 8.95 C
2269 01-11-2019 21:00:00 9.4 C 97 % 8.95 C
2270 01-11-2019 21:05:00 9.5 C 97 % 9.05 C
2271 01-11-2019 21:10:00 9.5 C 97 % 9.05 C
2272 01-11-2019 21:15:00 9.6 C 97 % 9.15 C
2273 01-11-2019 21:20:00 9.6 C 97 % 9.15 C
2274 01-11-2019 21:25:00 9.6 C 97 % 9.15 C
2275 01-11-2019 21:30:00 9.7 C 97 % 9.25 C
Sensor: Nr:Datum:Temp:Feuchte:Taupunkt:
Aussen-T/F 2276 01-11-2019 21:35:00 9.7 C 97 % 9.25 C
2277 01-11-2019 21:40:00 9.7 C 97 % 9.25 C
2278 01-11-2019 21:45:00 9.8 C 97 % 9.35 C
2279 01-11-2019 21:50:00 9.8 C 97 % 9.35 C
2280 01-11-2019 21:55:00 9.8 C 98 % 9.5 C
2281 01-11-2019 22:00:00 9.9 C 98 % 9.6 C
2282 01-11-2019 22:05:00 9.9 C 98 % 9.6 C
2283 01-11-2019 22:10:00 10 C 98 % 9.7 C
2284 01-11-2019 22:15:00 10.1 C 98 % 9.8 C
2285 01-11-2019 22:20:00 10.1 C 98 % 9.8 C
2286 01-11-2019 22:25:00 10.2 C 98 % 9.9 C
2287 01-11-2019 22:30:00 10.2 C 98 % 9.9 C
2288 01-11-2019 22:35:00 10.2 C 98 % 9.9 C
2289 01-11-2019 22:40:00 10.2 C 98 % 9.9 C
2290 01-11-2019 22:45:00 10.3 C 98 % 10 C
2291 01-11-2019 22:50:00 10.3 C 98 % 10 C
2292 01-11-2019 22:55:00 10.4 C 98 % 10.1 C
2293 01-11-2019 23:00:00 10.4 C 98 % 10.1 C
2294 01-11-2019 23:05:00 10.4 C 98 % 10.1 C
2295 01-11-2019 23:10:00 10.4 C 98 % 10.1 C
2296 01-11-2019 23:15:00 10.4 C 98 % 10.1 C
2297 01-11-2019 23:20:00 10.5 C 98 % 10.2 C
2298 01-11-2019 23:25:00 10.5 C 98 % 10.2 C
2299 01-11-2019 23:30:00 10.6 C 98 % 10.3 C
2300 01-11-2019 23:35:00 10.6 C 98 % 10.3 C
Sensor: Nr:Datum:Temp:Feuchte:Taupunkt:
Aussen-T/F 2301 01-11-2019 23:40:00 10.6 C 98 % 10.3 C
2302 01-11-2019 23:45:00 10.6 C 98 % 10.3 C
2303 01-11-2019 23:50:00 10.6 C 98 % 10.3 C
2304 01-11-2019 23:55:00 10.7 C 98 % 10.4 C
2305 02-11-2019 00:00:00 10.7 C 98 % 10.4 C
2306 02-11-2019 00:05:00 10.8 C 98 % 10.5 C
2307 02-11-2019 00:10:00 10.9 C 98 % 10.6 C
2308 02-11-2019 00:15:00 11.1 C 98 % 10.8 C
2309 02-11-2019 00:20:00 11.2 C 98 % 10.9 C
2310 02-11-2019 00:25:00 11.2 C 98 % 10.9 C
2311 02-11-2019 00:30:00 11.3 C 98 % 11 C
2312 02-11-2019 00:35:00 11.3 C 98 % 11 C
2313 02-11-2019 00:40:00 11.4 C 98 % 11.1 C
2314 02-11-2019 00:45:00 11.4 C 98 % 11.1 C
2315 02-11-2019 00:50:00 11.4 C 98 % 11.1 C
2316 02-11-2019 00:55:00 11.5 C 98 % 11.2 C
2317 02-11-2019 01:00:00 11.6 C 98 % 11.29 C
2318 02-11-2019 01:05:00 11.7 C 98 % 11.39 C
2319 02-11-2019 01:10:00 11.8 C 98 % 11.49 C
2320 02-11-2019 01:15:00 11.9 C 98 % 11.59 C
2321 02-11-2019 01:20:00 11.9 C 98 % 11.59 C
2322 02-11-2019 01:25:00 12.1 C 98 % 11.79 C
2323 02-11-2019 01:30:00 12.1 C 98 % 11.79 C
2324 02-11-2019 01:35:00 12.1 C 98 % 11.79 C
2325 02-11-2019 01:40:00 12.1 C 98 % 11.79 C
Sensor: Nr:Datum:Temp:Feuchte:Taupunkt:
Aussen-T/F 2326 02-11-2019 01:45:00 12.1 C 98 % 11.79 C
2327 02-11-2019 01:50:00 12.1 C 98 % 11.79 C
2328 02-11-2019 01:55:00 12.1 C 98 % 11.79 C
2329 02-11-2019 02:00:00 12.1 C 98 % 11.79 C
2330 02-11-2019 02:05:00 12.2 C 98 % 11.89 C
2331 02-11-2019 02:10:00 12.1 C 98 % 11.79 C
2332 02-11-2019 02:15:00 12.3 C 98 % 11.99 C
2333 02-11-2019 02:20:00 12.3 C 98 % 11.99 C
2334 02-11-2019 02:25:00 12.2 C 98 % 11.89 C
2335 02-11-2019 02:30:00 12.2 C 98 % 11.89 C
2336 02-11-2019 02:35:00 12.2 C 98 % 11.89 C
2337 02-11-2019 02:40:00 12.2 C 98 % 11.89 C
2338 02-11-2019 02:45:00 12.2 C 98 % 11.89 C
2339 02-11-2019 02:50:00 12.3 C 98 % 11.99 C
2340 02-11-2019 02:55:00 12.3 C 98 % 11.99 C
2341 02-11-2019 03:00:00 12.2 C 98 % 11.89 C
2342 02-11-2019 03:05:00 12.1 C 98 % 11.79 C
2343 02-11-2019 03:10:00 12.2 C 98 % 11.89 C
2344 02-11-2019 03:15:00 12.3 C 98 % 11.99 C
2345 02-11-2019 03:20:00 12.3 C 98 % 11.99 C
2346 02-11-2019 03:25:00 12.4 C 98 % 12.09 C
2347 02-11-2019 03:30:00 12.4 C 98 % 12.09 C
2348 02-11-2019 03:35:00 12.4 C 98 % 12.09 C
2349 02-11-2019 03:40:00 12.3 C 98 % 11.99 C
2350 02-11-2019 03:45:00 12.3 C 98 % 11.99 C
Sensor: Nr:Datum:Temp:Feuchte:Taupunkt:
Aussen-T/F 2351 02-11-2019 03:50:00 12.3 C 98 % 11.99 C
2352 02-11-2019 03:55:00 12.2 C 98 % 11.89 C
2353 02-11-2019 04:00:00 12.1 C 98 % 11.79 C
2354 02-11-2019 04:05:00 12.2 C 98 % 11.89 C
2355 02-11-2019 04:10:00 12.2 C 98 % 11.89 C
2356 02-11-2019 04:15:00 12.2 C 98 % 11.89 C
2357 02-11-2019 04:20:00 12.2 C 98 % 11.89 C
2358 02-11-2019 04:25:00 12.2 C 98 % 11.89 C
2359 02-11-2019 04:30:00 12.3 C 98 % 11.99 C
2360 02-11-2019 04:35:00 12.3 C 98 % 11.99 C
2361 02-11-2019 04:40:00 12.4 C 98 % 12.09 C
2362 02-11-2019 04:45:00 12.3 C 98 % 11.99 C
2363 02-11-2019 04:50:00 12.3 C 98 % 11.99 C
2364 02-11-2019 04:55:00 12.3 C 98 % 11.99 C
2365 02-11-2019 05:00:00 12.4 C 98 % 12.09 C
2366 02-11-2019 05:05:00 12.4 C 98 % 12.09 C
2367 02-11-2019 05:10:00 12.6 C 98 % 12.29 C
2368 02-11-2019 05:15:00 12.6 C 98 % 12.29 C
2369 02-11-2019 05:20:00 12.7 C 98 % 12.39 C
2370 02-11-2019 05:25:00 12.7 C 98 % 12.39 C
2371 02-11-2019 05:30:00 12.7 C 98 % 12.39 C
2372 02-11-2019 05:35:00 12.7 C 98 % 12.39 C
2373 02-11-2019 05:40:00 12.7 C 98 % 12.39 C
2374 02-11-2019 05:45:00 12.8 C 98 % 12.49 C
2375 02-11-2019 05:50:00 12.8 C 98 % 12.49 C
Sensor: Nr:Datum:Temp:Feuchte:Taupunkt:
Aussen-T/F 2376 02-11-2019 05:55:00 12.8 C 98 % 12.49 C
2377 02-11-2019 06:00:00 12.8 C 98 % 12.49 C
2378 02-11-2019 06:05:00 12.9 C 98 % 12.59 C
2379 02-11-2019 06:10:00 12.9 C 98 % 12.59 C
2380 02-11-2019 06:15:00 13.1 C 98 % 12.79 C
2381 02-11-2019 06:20:00 13.1 C 98 % 12.79 C
2382 02-11-2019 06:25:00 13 C 98 % 12.69 C
2383 02-11-2019 06:30:00 13.1 C 98 % 12.79 C
2384 02-11-2019 06:35:00 13.2 C 98 % 12.89 C
2385 02-11-2019 06:40:00 13.2 C 98 % 12.89 C
2386 02-11-2019 06:45:00 13.2 C 98 % 12.89 C
2387 02-11-2019 06:50:00 13.3 C 98 % 12.99 C
2388 02-11-2019 06:55:00 13.4 C 98 % 13.09 C
2389 02-11-2019 07:00:00 13.5 C 98 % 13.19 C
2390 02-11-2019 07:05:00 13.5 C 98 % 13.19 C
2391 02-11-2019 07:10:00 13.5 C 98 % 13.19 C
2392 02-11-2019 07:15:00 13.4 C 98 % 13.09 C
2393 02-11-2019 07:20:00 13.4 C 98 % 13.09 C
2394 02-11-2019 07:25:00 13.4 C 98 % 13.09 C
2395 02-11-2019 07:30:00 13.3 C 98 % 12.99 C
2396 02-11-2019 07:35:00 13.4 C 98 % 13.09 C
2397 02-11-2019 07:40:00 13.4 C 98 % 13.09 C
2398 02-11-2019 07:45:00 13.6 C 98 % 13.29 C
2399 02-11-2019 07:50:00 13.7 C 98 % 13.39 C
2400 02-11-2019 07:55:00 13.7 C 98 % 13.39 C
Sensor: Nr:Datum:Temp:Feuchte:Taupunkt:
Aussen-T/F 2401 02-11-2019 08:00:00 13.7 C 98 % 13.39 C
2402 02-11-2019 08:05:00 13.8 C 98 % 13.49 C
2403 02-11-2019 08:10:00 13.8 C 98 % 13.49 C
2404 02-11-2019 08:15:00 13.8 C 98 % 13.49 C
2405 02-11-2019 08:20:00 13.8 C 98 % 13.49 C
2406 02-11-2019 08:25:00 13.8 C 98 % 13.49 C
2407 02-11-2019 08:30:00 13.8 C 98 % 13.49 C
2408 02-11-2019 08:35:00 13.9 C 98 % 13.59 C
2409 02-11-2019 08:40:00 13.9 C 98 % 13.59 C
2410 02-11-2019 08:45:00 13.9 C 98 % 13.59 C
2411 02-11-2019 08:50:00 13.9 C 98 % 13.59 C
2412 02-11-2019 08:55:00 14 C 98 % 13.69 C
2413 02-11-2019 09:00:00 14.1 C 98 % 13.79 C
2414 02-11-2019 09:05:00 14.1 C 98 % 13.79 C
2415 02-11-2019 09:10:00 14.2 C 98 % 13.89 C
2416 02-11-2019 09:15:00 14.2 C 98 % 13.89 C
2417 02-11-2019 09:20:00 14.3 C 98 % 13.99 C
2418 02-11-2019 09:25:00 14.3 C 98 % 13.99 C
2419 02-11-2019 09:30:00 14.3 C 98 % 13.99 C
2420 02-11-2019 09:35:00 14.3 C 98 % 13.99 C
2421 02-11-2019 09:40:00 14.4 C 98 % 14.09 C
2422 02-11-2019 09:45:00 14.4 C 98 % 14.09 C
2423 02-11-2019 09:50:00 14.5 C 97 % 14.03 C
2424 02-11-2019 09:55:00 14.6 C 97 % 14.13 C
2425 02-11-2019 10:00:00 14.6 C 95 % 13.81 C
Sensor: Nr:Datum:Temp:Feuchte:Taupunkt:
Aussen-T/F 2426 02-11-2019 10:05:00 14.7 C 95 % 13.91 C
2427 02-11-2019 10:10:00 14.8 C 95 % 14.01 C
2428 02-11-2019 10:15:00 14.9 C 94 % 13.94 C
2429 02-11-2019 10:20:00 15.1 C 93 % 13.98 C
2430 02-11-2019 10:25:00 15.2 C 93 % 14.08 C
2431 02-11-2019 10:30:00 15.1 C 92 % 13.81 C
2432 02-11-2019 10:35:00 14.9 C 92 % 13.61 C
2433 02-11-2019 10:40:00 14.9 C 93 % 13.78 C
2434 02-11-2019 10:45:00 14.9 C 92 % 13.61 C
2435 02-11-2019 10:50:00 14.9 C 92 % 13.61 C
2436 02-11-2019 10:55:00 15.1 C 90 % 13.47 C
2437 02-11-2019 11:00:00 15.3 C 90 % 13.67 C
2438 02-11-2019 11:05:00 15.4 C 88 % 13.42 C
2439 02-11-2019 11:10:00 15.5 C 88 % 13.52 C
2440 02-11-2019 11:15:00 15.5 C 86 % 13.17 C
2441 02-11-2019 11:20:00 15.6 C 87 % 13.45 C
2442 02-11-2019 11:25:00 15.7 C 87 % 13.54 C
2443 02-11-2019 11:30:00 15.8 C 85 % 13.28 C
2444 02-11-2019 11:35:00 15.9 C 85 % 13.38 C
2445 02-11-2019 11:40:00 16 C 85 % 13.48 C
2446 02-11-2019 11:45:00 16 C 85 % 13.48 C
2447 02-11-2019 11:50:00 16.1 C 85 % 13.58 C
2448 02-11-2019 11:55:00 16.1 C 84 % 13.4 C
2449 02-11-2019 12:00:00 16.1 C 83 % 13.21 C
2450 02-11-2019 12:05:00 16.1 C 83 % 13.21 C
Sensor: Nr:Datum:Temp:Feuchte:Taupunkt:
Aussen-T/F 2451 02-11-2019 12:10:00 16.1 C 82 % 13.03 C
2452 02-11-2019 12:15:00 16.2 C 83 % 13.31 C
2453 02-11-2019 12:20:00 16.2 C 81 % 12.94 C
2454 02-11-2019 12:25:00 16.2 C 81 % 12.94 C
2455 02-11-2019 12:30:00 16.2 C 81 % 12.94 C
2456 02-11-2019 12:35:00 16.1 C 80 % 12.65 C
2457 02-11-2019 12:40:00 16.2 C 79 % 12.56 C
2458 02-11-2019 12:45:00 16.2 C 78 % 12.36 C
2459 02-11-2019 12:50:00 16.2 C 76 % 11.97 C
2460 02-11-2019 12:55:00 16.1 C 77 % 12.07 C
2461 02-11-2019 13:00:00 16.1 C 77 % 12.07 C
2462 02-11-2019 13:05:00 16.1 C 77 % 12.07 C
2463 02-11-2019 13:10:00 16.1 C 76 % 11.87 C
2464 02-11-2019 13:15:00 16.1 C 78 % 12.27 C
2465 02-11-2019 13:20:00 16.1 C 77 % 12.07 C
2466 02-11-2019 13:25:00 16.2 C 76 % 11.97 C
2467 02-11-2019 13:30:00 16.1 C 74 % 11.47 C
2468 02-11-2019 13:35:00 16.1 C 74 % 11.47 C
2469 02-11-2019 13:40:00 16 C 74 % 11.37 C
2470 02-11-2019 13:45:00 15.9 C 73 % 11.07 C
2471 02-11-2019 13:50:00 15.9 C 74 % 11.28 C
2472 02-11-2019 13:55:00 15.8 C 74 % 11.18 C
2473 02-11-2019 14:00:00 15.8 C 73 % 10.97 C
2474 02-11-2019 14:05:00 15.8 C 74 % 11.18 C
2475 02-11-2019 14:10:00 15.7 C 75 % 11.28 C
Sensor: Nr:Datum:Temp:Feuchte:Taupunkt:
Aussen-T/F 2476 02-11-2019 14:15:00 15.8 C 77 % 11.78 C
2477 02-11-2019 14:20:00 15.8 C 76 % 11.58 C
2478 02-11-2019 14:25:00 15.8 C 74 % 11.18 C
2479 02-11-2019 14:30:00 15.9 C 75 % 11.48 C
2480 02-11-2019 14:35:00 15.9 C 73 % 11.07 C
2481 02-11-2019 14:40:00 15.8 C 75 % 11.38 C
2482 02-11-2019 14:45:00 15.8 C 73 % 10.97 C
2483 02-11-2019 14:50:00 15.8 C 73 % 10.97 C
2484 02-11-2019 14:55:00 15.7 C 74 % 11.08 C
2485 02-11-2019 15:00:00 15.6 C 73 % 10.78 C
2486 02-11-2019 15:05:00 15.5 C 74 % 10.89 C
2487 02-11-2019 15:10:00 15.4 C 76 % 11.19 C
2488 02-11-2019 15:15:00 15.3 C 77 % 11.3 C
2489 02-11-2019 15:20:00 15.2 C 79 % 11.59 C
2490 02-11-2019 15:25:00 15.2 C 76 % 11 C
2491 02-11-2019 15:30:00 15.1 C 77 % 11.1 C
2492 02-11-2019 15:35:00 15 C 79 % 11.39 C
2493 02-11-2019 15:40:00 14.9 C 80 % 11.48 C
2494 02-11-2019 15:45:00 14.8 C 80 % 11.39 C
2495 02-11-2019 15:50:00 14.7 C 78 % 10.91 C
2496 02-11-2019 15:55:00 14.6 C 78 % 10.81 C
2497 02-11-2019 16:00:00 14.7 C 80 % 11.29 C
2498 02-11-2019 16:05:00 14.6 C 79 % 11 C
2499 02-11-2019 16:10:00 14.6 C 79 % 11 C
2500 02-11-2019 16:15:00 14.6 C 79 % 11 C
Sensor: Nr:Datum:Temp:Feuchte:Taupunkt:
Aussen-T/F 2501 02-11-2019 16:20:00 14.5 C 80 % 11.09 C
2502 02-11-2019 16:25:00 14.4 C 79 % 10.81 C
2503 02-11-2019 16:30:00 14.5 C 78 % 10.71 C
2504 02-11-2019 16:35:00 14.5 C 79 % 10.91 C
2505 02-11-2019 16:40:00 14.5 C 77 % 10.52 C
2506 02-11-2019 16:45:00 14.5 C 76 % 10.32 C
2507 02-11-2019 16:50:00 14.6 C 75 % 10.22 C
2508 02-11-2019 16:55:00 14.7 C 76 % 10.52 C
2509 02-11-2019 17:00:00 14.6 C 75 % 10.22 C
2510 02-11-2019 17:05:00 14.6 C 75 % 10.22 C
2511 02-11-2019 17:10:00 14.6 C 75 % 10.22 C
2512 02-11-2019 17:15:00 14.6 C 77 % 10.62 C
2513 02-11-2019 17:20:00 14.4 C 78 % 10.62 C
2514 02-11-2019 17:25:00 14.3 C 81 % 11.09 C
2515 02-11-2019 17:30:00 13.9 C 83 % 11.06 C
2516 02-11-2019 17:35:00 13.4 C 86 % 11.11 C
2517 02-11-2019 17:40:00 13.1 C 87 % 10.99 C
2518 02-11-2019 17:45:00 12.8 C 87 % 10.69 C
2519 02-11-2019 17:50:00 12.6 C 87 % 10.5 C
2520 02-11-2019 17:55:00 12.5 C 88 % 10.57 C
2521 02-11-2019 18:00:00 12.4 C 88 % 10.47 C
2522 02-11-2019 18:05:00 12.3 C 89 % 10.54 C
2523 02-11-2019 18:10:00 12.2 C 89 % 10.44 C
2524 02-11-2019 18:15:00 12.1 C 89 % 10.34 C
2525 02-11-2019 18:20:00 12.1 C 90 % 10.51 C
Sensor: Nr:Datum:Temp:Feuchte:Taupunkt:
Aussen-T/F 2526 02-11-2019 18:25:00 11.9 C 90 % 10.31 C
2527 02-11-2019 18:30:00 11.8 C 90 % 10.21 C
2528 02-11-2019 18:35:00 11.7 C 91 % 10.28 C
2529 02-11-2019 18:40:00 11.7 C 91 % 10.28 C
2530 02-11-2019 18:45:00 11.6 C 91 % 10.18 C
2531 02-11-2019 18:50:00 11.6 C 91 % 10.18 C
2532 02-11-2019 18:55:00 11.5 C 92 % 10.25 C
2533 02-11-2019 19:00:00 11.5 C 92 % 10.25 C
2534 02-11-2019 19:05:00 11.4 C 92 % 10.15 C
2535 02-11-2019 19:10:00 11.4 C 92 % 10.15 C
2536 02-11-2019 19:15:00 11.4 C 92 % 10.15 C
2537 02-11-2019 19:20:00 11.4 C 92 % 10.15 C
2538 02-11-2019 19:25:00 11.5 C 92 % 10.25 C
2539 02-11-2019 19:30:00 11.5 C 92 % 10.25 C
2540 02-11-2019 19:35:00 11.5 C 92 % 10.25 C
2541 02-11-2019 19:40:00 11.4 C 91 % 9.98 C
2542 02-11-2019 19:45:00 11.4 C 91 % 9.98 C
2543 02-11-2019 19:50:00 11.4 C 92 % 10.15 C
2544 02-11-2019 19:55:00 11.3 C 92 % 10.05 C
2545 02-11-2019 20:00:00 11.3 C 92 % 10.05 C
2546 02-11-2019 20:05:00 11.2 C 92 % 9.95 C
2547 02-11-2019 20:10:00 11.2 C 92 % 9.95 C
2548 02-11-2019 20:15:00 11.3 C 92 % 10.05 C
2549 02-11-2019 20:20:00 11.3 C 92 % 10.05 C
2550 02-11-2019 20:25:00 11.3 C 91 % 9.89 C
Sensor: Nr:Datum:Temp:Feuchte:Taupunkt:
Aussen-T/F 2551 02-11-2019 20:30:00 11.3 C 91 % 9.89 C
2552 02-11-2019 20:35:00 11.3 C 91 % 9.89 C
2553 02-11-2019 20:40:00 11.3 C 91 % 9.89 C
2554 02-11-2019 20:45:00 11.4 C 90 % 9.82 C
2555 02-11-2019 20:50:00 11.4 C 90 % 9.82 C
2556 02-11-2019 20:55:00 11.4 C 90 % 9.82 C
2557 02-11-2019 21:00:00 11.3 C 90 % 9.72 C
2558 02-11-2019 21:05:00 11.2 C 90 % 9.62 C
2559 02-11-2019 21:10:00 11.2 C 89 % 9.46 C
2560 02-11-2019 21:15:00 11.2 C 89 % 9.46 C
2561 02-11-2019 21:20:00 11.2 C 89 % 9.46 C
2562 02-11-2019 21:25:00 11.1 C 89 % 9.36 C
2563 02-11-2019 21:30:00 11.1 C 88 % 9.19 C
2564 02-11-2019 21:35:00 11.1 C 88 % 9.19 C
2565 02-11-2019 21:40:00 11.1 C 88 % 9.19 C
2566 02-11-2019 21:45:00 11.1 C 88 % 9.19 C
2567 02-11-2019 21:50:00 11.1 C 88 % 9.19 C
2568 02-11-2019 21:55:00 11.1 C 88 % 9.19 C
2569 02-11-2019 22:00:00 11.1 C 89 % 9.36 C
2570 02-11-2019 22:05:00 11.1 C 89 % 9.36 C
2571 02-11-2019 22:10:00 11.1 C 88 % 9.19 C
2572 02-11-2019 22:15:00 11.1 C 88 % 9.19 C
2573 02-11-2019 22:20:00 11.1 C 88 % 9.19 C
2574 02-11-2019 22:25:00 11.1 C 88 % 9.19 C
2575 02-11-2019 22:30:00 11.1 C 88 % 9.19 C
Sensor: Nr:Datum:Temp:Feuchte:Taupunkt:
Aussen-T/F 2576 02-11-2019 22:35:00 10.9 C 89 % 9.16 C
2577 02-11-2019 22:40:00 10.9 C 88 % 8.99 C
2578 02-11-2019 22:45:00 10.8 C 88 % 8.89 C
2579 02-11-2019 22:50:00 10.8 C 89 % 9.06 C
2580 02-11-2019 22:55:00 10.7 C 89 % 8.96 C
2581 02-11-2019 23:00:00 10.6 C 89 % 8.86 C
2582 02-11-2019 23:05:00 10.6 C 90 % 9.03 C
2583 02-11-2019 23:10:00 10.4 C 90 % 8.83 C
2584 02-11-2019 23:15:00 10.4 C 90 % 8.83 C
2585 02-11-2019 23:20:00 10.3 C 90 % 8.73 C
2586 02-11-2019 23:25:00 10.3 C 91 % 8.9 C
2587 02-11-2019 23:30:00 10.4 C 90 % 8.83 C
2588 02-11-2019 23:35:00 10.6 C 89 % 8.86 C
2589 02-11-2019 23:40:00 10.7 C 88 % 8.8 C
2590 02-11-2019 23:45:00 10.8 C 88 % 8.89 C
2591 02-11-2019 23:50:00 10.8 C 87 % 8.73 C
2592 02-11-2019 23:55:00 10.9 C 87 % 8.82 C
2593 03-11-2019 00:00:00 10.9 C 86 % 8.65 C
2594 03-11-2019 00:05:00 10.8 C 87 % 8.73 C
2595 03-11-2019 00:10:00 10.8 C 87 % 8.73 C
2596 03-11-2019 00:15:00 10.7 C 87 % 8.63 C
2597 03-11-2019 00:20:00 10.6 C 88 % 8.7 C
2598 03-11-2019 00:25:00 10.6 C 88 % 8.7 C
2599 03-11-2019 00:30:00 10.4 C 89 % 8.67 C
2600 03-11-2019 00:35:00 10.3 C 89 % 8.57 C
Sensor: Nr:Datum:Temp:Feuchte:Taupunkt:
Aussen-T/F 2601 03-11-2019 00:40:00 10.2 C 89 % 8.47 C
2602 03-11-2019 00:45:00 10.2 C 89 % 8.47 C
2603 03-11-2019 00:50:00 10.1 C 90 % 8.54 C
2604 03-11-2019 00:55:00 10.1 C 90 % 8.54 C
2605 03-11-2019 01:00:00 10.1 C 90 % 8.54 C
2606 03-11-2019 01:05:00 10.2 C 90 % 8.64 C
2607 03-11-2019 01:10:00 10.3 C 91 % 8.9 C
2608 03-11-2019 01:15:00 10.4 C 91 % 9 C
2609 03-11-2019 01:20:00 10.4 C 90 % 8.83 C
2610 03-11-2019 01:25:00 10.4 C 90 % 8.83 C
2611 03-11-2019 01:30:00 10.4 C 90 % 8.83 C
2612 03-11-2019 01:35:00 10.6 C 90 % 9.03 C
2613 03-11-2019 01:40:00 10.6 C 90 % 9.03 C
2614 03-11-2019 01:45:00 10.6 C 90 % 9.03 C
2615 03-11-2019 01:50:00 10.5 C 90 % 8.93 C
2616 03-11-2019 01:55:00 10.5 C 90 % 8.93 C
2617 03-11-2019 02:00:00 10.4 C 91 % 9 C
2618 03-11-2019 02:05:00 10.4 C 90 % 8.83 C
2619 03-11-2019 02:10:00 10.3 C 91 % 8.9 C
2620 03-11-2019 02:15:00 10.2 C 91 % 8.8 C
2621 03-11-2019 02:20:00 10.1 C 91 % 8.7 C
2622 03-11-2019 02:25:00 9.9 C 91 % 8.5 C
2623 03-11-2019 02:30:00 9.8 C 91 % 8.4 C
2624 03-11-2019 02:35:00 9.8 C 92 % 8.56 C
2625 03-11-2019 02:40:00 9.8 C 92 % 8.56 C
Sensor: Nr:Datum:Temp:Feuchte:Taupunkt:
Aussen-T/F 2626 03-11-2019 02:45:00 9.9 C 92 % 8.66 C
2627 03-11-2019 02:50:00 9.9 C 93 % 8.82 C
2628 03-11-2019 02:55:00 9.9 C 93 % 8.82 C
2629 03-11-2019 03:00:00 9.9 C 93 % 8.82 C
2630 03-11-2019 03:05:00 9.9 C 93 % 8.82 C
2631 03-11-2019 03:10:00 9.9 C 93 % 8.82 C
2632 03-11-2019 03:15:00 9.9 C 93 % 8.82 C
2633 03-11-2019 03:20:00 10.1 C 93 % 9.02 C
2634 03-11-2019 03:25:00 10.1 C 93 % 9.02 C
2635 03-11-2019 03:30:00 10.1 C 93 % 9.02 C
2636 03-11-2019 03:35:00 10 C 93 % 8.92 C
2637 03-11-2019 03:40:00 10 C 93 % 8.92 C
2638 03-11-2019 03:45:00 10 C 93 % 8.92 C
2639 03-11-2019 03:50:00 10 C 94 % 9.08 C
2640 03-11-2019 03:55:00 10.1 C 94 % 9.18 C
2641 03-11-2019 04:00:00 10.1 C 94 % 9.18 C
2642 03-11-2019 04:05:00 10.2 C 94 % 9.28 C
2643 03-11-2019 04:10:00 10.3 C 94 % 9.38 C
2644 03-11-2019 04:15:00 10.3 C 94 % 9.38 C
2645 03-11-2019 04:20:00 10.3 C 94 % 9.38 C
2646 03-11-2019 04:25:00 10.3 C 94 % 9.38 C
2647 03-11-2019 04:30:00 10.3 C 94 % 9.38 C
2648 03-11-2019 04:35:00 10.3 C 95 % 9.54 C
2649 03-11-2019 04:40:00 10.3 C 95 % 9.54 C
2650 03-11-2019 04:45:00 10.3 C 95 % 9.54 C
Sensor: Nr:Datum:Temp:Feuchte:Taupunkt:
Aussen-T/F 2651 03-11-2019 04:50:00 10.3 C 95 % 9.54 C
2652 03-11-2019 04:55:00 10.2 C 94 % 9.28 C
2653 03-11-2019 05:00:00 10.2 C 95 % 9.44 C
2654 03-11-2019 05:05:00 10.2 C 95 % 9.44 C
2655 03-11-2019 05:10:00 10.3 C 95 % 9.54 C
2656 03-11-2019 05:15:00 10.3 C 95 % 9.54 C
2657 03-11-2019 05:20:00 10.3 C 95 % 9.54 C
2658 03-11-2019 05:25:00 10.3 C 95 % 9.54 C
2659 03-11-2019 05:30:00 10.2 C 95 % 9.44 C
2660 03-11-2019 05:35:00 10.2 C 95 % 9.44 C
2661 03-11-2019 05:40:00 10.2 C 95 % 9.44 C
2662 03-11-2019 05:45:00 10.3 C 95 % 9.54 C
2663 03-11-2019 05:50:00 10.3 C 95 % 9.54 C
2664 03-11-2019 05:55:00 10.2 C 95 % 9.44 C
2665 03-11-2019 06:00:00 10.2 C 95 % 9.44 C
2666 03-11-2019 06:05:00 10.2 C 96 % 9.59 C
2667 03-11-2019 06:10:00 10.3 C 96 % 9.69 C
2668 03-11-2019 06:15:00 10.3 C 96 % 9.69 C
2669 03-11-2019 06:20:00 10.3 C 96 % 9.69 C
2670 03-11-2019 06:25:00 10.3 C 96 % 9.69 C
2671 03-11-2019 06:30:00 10.3 C 96 % 9.69 C
2672 03-11-2019 06:35:00 10.3 C 96 % 9.69 C
2673 03-11-2019 06:40:00 10.3 C 96 % 9.69 C
2674 03-11-2019 06:45:00 10.3 C 96 % 9.69 C
2675 03-11-2019 06:50:00 10.4 C 96 % 9.79 C
Sensor: Nr:Datum:Temp:Feuchte:Taupunkt:
Aussen-T/F 2676 03-11-2019 06:55:00 10.4 C 96 % 9.79 C
2677 03-11-2019 07:00:00 10.4 C 96 % 9.79 C
2678 03-11-2019 07:05:00 10.4 C 96 % 9.79 C
2679 03-11-2019 07:10:00 10.4 C 96 % 9.79 C
2680 03-11-2019 07:15:00 10.4 C 96 % 9.79 C
2681 03-11-2019 07:20:00 10.3 C 96 % 9.69 C
2682 03-11-2019 07:25:00 10.3 C 96 % 9.69 C
2683 03-11-2019 07:30:00 10.3 C 96 % 9.69 C
2684 03-11-2019 07:35:00 10.3 C 96 % 9.69 C
2685 03-11-2019 07:40:00 10.3 C 96 % 9.69 C
2686 03-11-2019 07:45:00 10.3 C 96 % 9.69 C
2687 03-11-2019 07:50:00 10.3 C 96 % 9.69 C
2688 03-11-2019 07:55:00 10.2 C 96 % 9.59 C
2689 03-11-2019 08:00:00 10.2 C 96 % 9.59 C
2690 03-11-2019 08:05:00 10.2 C 96 % 9.59 C
2691 03-11-2019 08:10:00 10.2 C 96 % 9.59 C
2692 03-11-2019 08:15:00 10.3 C 97 % 9.85 C
2693 03-11-2019 08:20:00 10.4 C 97 % 9.94 C
2694 03-11-2019 08:25:00 10.4 C 97 % 9.94 C
2695 03-11-2019 08:30:00 10.6 C 97 % 10.14 C
2696 03-11-2019 08:35:00 10.6 C 97 % 10.14 C
2697 03-11-2019 08:40:00 10.6 C 97 % 10.14 C
2698 03-11-2019 08:45:00 10.7 C 97 % 10.24 C
2699 03-11-2019 08:50:00 10.8 C 97 % 10.34 C
2700 03-11-2019 08:55:00 10.8 C 97 % 10.34 C
Sensor: Nr:Datum:Temp:Feuchte:Taupunkt:
Aussen-T/F 2701 03-11-2019 09:00:00 10.9 C 97 % 10.44 C
2702 03-11-2019 09:05:00 10.9 C 97 % 10.44 C
2703 03-11-2019 09:10:00 11.1 C 97 % 10.64 C
2704 03-11-2019 09:15:00 11.2 C 97 % 10.74 C
2705 03-11-2019 09:20:00 11.2 C 97 % 10.74 C
2706 03-11-2019 09:25:00 11.3 C 97 % 10.84 C
2707 03-11-2019 09:30:00 11.3 C 97 % 10.84 C
2708 03-11-2019 09:35:00 11.3 C 97 % 10.84 C
2709 03-11-2019 09:40:00 11.4 C 97 % 10.94 C
2710 03-11-2019 09:45:00 11.6 C 97 % 11.14 C
2711 03-11-2019 09:50:00 11.7 C 97 % 11.24 C
2712 03-11-2019 09:55:00 11.7 C 97 % 11.24 C
2713 03-11-2019 10:00:00 11.8 C 97 % 11.34 C
2714 03-11-2019 10:05:00 11.8 C 97 % 11.34 C
2715 03-11-2019 10:10:00 11.9 C 96 % 11.28 C
2716 03-11-2019 10:15:00 12 C 96 % 11.38 C
2717 03-11-2019 10:20:00 12.2 C 96 % 11.58 C
2718 03-11-2019 10:25:00 12.3 C 96 % 11.68 C
2719 03-11-2019 10:30:00 12.4 C 95 % 11.62 C
2720 03-11-2019 10:35:00 12.4 C 95 % 11.62 C
2721 03-11-2019 10:40:00 12.5 C 95 % 11.72 C
2722 03-11-2019 10:45:00 12.6 C 95 % 11.82 C
2723 03-11-2019 10:50:00 12.6 C 95 % 11.82 C
2724 03-11-2019 10:55:00 12.7 C 94 % 11.76 C
2725 03-11-2019 11:00:00 12.8 C 94 % 11.86 C
Sensor: Nr:Datum:Temp:Feuchte:Taupunkt:
Aussen-T/F 2726 03-11-2019 11:05:00 12.8 C 94 % 11.86 C
2727 03-11-2019 11:10:00 12.9 C 93 % 11.8 C
2728 03-11-2019 11:15:00 13.1 C 93 % 11.99 C
2729 03-11-2019 11:20:00 13.3 C 92 % 12.03 C
2730 03-11-2019 11:25:00 13.4 C 92 % 12.13 C
2731 03-11-2019 11:30:00 13.7 C 91 % 12.26 C
2732 03-11-2019 11:35:00 13.8 C 91 % 12.36 C
2733 03-11-2019 11:40:00 14 C 88 % 12.05 C
2734 03-11-2019 11:45:00 14.1 C 88 % 12.14 C
2735 03-11-2019 11:50:00 14.2 C 87 % 12.07 C
2736 03-11-2019 11:55:00 14.3 C 87 % 12.17 C
2737 03-11-2019 12:00:00 14.4 C 86 % 12.09 C
2738 03-11-2019 12:05:00 14.5 C 84 % 11.83 C
2739 03-11-2019 12:10:00 14.7 C 83 % 11.85 C
2740 03-11-2019 12:15:00 14.8 C 84 % 12.12 C
2741 03-11-2019 12:20:00 14.8 C 85 % 12.3 C
2742 03-11-2019 12:25:00 14.9 C 83 % 12.04 C
2743 03-11-2019 12:30:00 14.9 C 83 % 12.04 C
2744 03-11-2019 12:35:00 14.9 C 83 % 12.04 C
2745 03-11-2019 12:40:00 15 C 83 % 12.14 C
2746 03-11-2019 12:45:00 15 C 82 % 11.95 C
2747 03-11-2019 12:50:00 15.1 C 83 % 12.24 C
2748 03-11-2019 12:55:00 15.2 C 82 % 12.15 C
2749 03-11-2019 13:00:00 15.2 C 81 % 11.96 C
2750 03-11-2019 13:05:00 15.3 C 80 % 11.87 C
Sensor: Nr:Datum:Temp:Feuchte:Taupunkt:
Aussen-T/F 2751 03-11-2019 13:10:00 15.3 C 81 % 12.06 C
2752 03-11-2019 13:15:00 15.3 C 81 % 12.06 C
2753 03-11-2019 13:20:00 15.4 C 82 % 12.35 C
2754 03-11-2019 13:25:00 15.5 C 81 % 12.26 C
2755 03-11-2019 13:30:00 15.4 C 81 % 12.16 C
2756 03-11-2019 13:35:00 15.4 C 82 % 12.35 C
2757 03-11-2019 13:40:00 15.4 C 82 % 12.35 C
2758 03-11-2019 13:45:00 15.4 C 82 % 12.35 C
2759 03-11-2019 13:50:00 15.5 C 82 % 12.44 C
2760 03-11-2019 13:55:00 15.6 C 83 % 12.72 C
2761 03-11-2019 14:00:00 15.6 C 82 % 12.54 C
2762 03-11-2019 14:05:00 15.7 C 81 % 12.45 C
2763 03-11-2019 14:10:00 15.7 C 81 % 12.45 C
2764 03-11-2019 14:15:00 15.7 C 81 % 12.45 C
2765 03-11-2019 14:20:00 15.6 C 81 % 12.35 C
2766 03-11-2019 14:25:00 15.5 C 82 % 12.44 C
2767 03-11-2019 14:30:00 15.4 C 82 % 12.35 C
2768 03-11-2019 14:35:00 15.3 C 82 % 12.25 C
2769 03-11-2019 14:40:00 15.3 C 82 % 12.25 C
2770 03-11-2019 14:45:00 15.3 C 82 % 12.25 C
2771 03-11-2019 14:50:00 15.2 C 83 % 12.33 C
2772 03-11-2019 14:55:00 15.3 C 82 % 12.25 C
2773 03-11-2019 15:00:00 15.2 C 82 % 12.15 C
2774 03-11-2019 15:05:00 15.2 C 82 % 12.15 C
2775 03-11-2019 15:10:00 15.1 C 82 % 12.05 C
Sensor: Nr:Datum:Temp:Feuchte:Taupunkt:
Aussen-T/F 2776 03-11-2019 15:15:00 15 C 83 % 12.14 C
2777 03-11-2019 15:20:00 14.9 C 83 % 12.04 C
2778 03-11-2019 15:25:00 14.8 C 83 % 11.94 C
2779 03-11-2019 15:30:00 14.8 C 84 % 12.12 C
2780 03-11-2019 15:35:00 14.7 C 84 % 12.03 C
2781 03-11-2019 15:40:00 14.6 C 84 % 11.93 C
2782 03-11-2019 15:45:00 14.6 C 84 % 11.93 C
2783 03-11-2019 15:50:00 14.5 C 84 % 11.83 C
2784 03-11-2019 15:55:00 14.4 C 85 % 11.91 C
2785 03-11-2019 16:00:00 14.3 C 85 % 11.81 C
2786 03-11-2019 16:05:00 14.3 C 85 % 11.81 C
2787 03-11-2019 16:10:00 14.2 C 85 % 11.72 C
2788 03-11-2019 16:15:00 14.2 C 86 % 11.89 C
2789 03-11-2019 16:20:00 14.1 C 86 % 11.8 C
2790 03-11-2019 16:25:00 14.1 C 86 % 11.8 C
2791 03-11-2019 16:30:00 13.9 C 86 % 11.6 C
2792 03-11-2019 16:35:00 13.9 C 87 % 11.77 C
2793 03-11-2019 16:40:00 13.9 C 87 % 11.77 C
2794 03-11-2019 16:45:00 13.8 C 87 % 11.68 C
2795 03-11-2019 16:50:00 13.7 C 87 % 11.58 C
2796 03-11-2019 16:55:00 13.7 C 88 % 11.75 C
2797 03-11-2019 17:00:00 13.5 C 88 % 11.55 C
2798 03-11-2019 17:05:00 13.4 C 89 % 11.63 C
2799 03-11-2019 17:10:00 13.3 C 89 % 11.53 C
2800 03-11-2019 17:15:00 13.2 C 89 % 11.43 C
Sensor: Nr:Datum:Temp:Feuchte:Taupunkt:
Aussen-T/F 2801 03-11-2019 17:20:00 13.1 C 90 % 11.5 C
2802 03-11-2019 17:25:00 13 C 90 % 11.4 C
2803 03-11-2019 17:30:00 12.9 C 90 % 11.3 C
2804 03-11-2019 17:35:00 12.8 C 91 % 11.37 C
2805 03-11-2019 17:40:00 12.8 C 91 % 11.37 C
2806 03-11-2019 17:45:00 12.7 C 92 % 11.43 C
2807 03-11-2019 17:50:00 12.7 C 92 % 11.43 C
2808 03-11-2019 17:55:00 12.7 C 93 % 11.6 C
2809 03-11-2019 18:00:00 12.6 C 93 % 11.5 C
2810 03-11-2019 18:05:00 12.6 C 93 % 11.5 C
2811 03-11-2019 18:10:00 12.5 C 93 % 11.4 C
2812 03-11-2019 18:15:00 12.5 C 93 % 11.4 C
2813 03-11-2019 18:20:00 12.4 C 94 % 11.46 C
2814 03-11-2019 18:25:00 12.4 C 94 % 11.46 C
2815 03-11-2019 18:30:00 12.3 C 94 % 11.36 C
2816 03-11-2019 18:35:00 12.3 C 94 % 11.36 C
2817 03-11-2019 18:40:00 12.2 C 94 % 11.26 C
2818 03-11-2019 18:45:00 12.2 C 94 % 11.26 C
2819 03-11-2019 18:50:00 12.2 C 94 % 11.26 C
2820 03-11-2019 18:55:00 12.1 C 95 % 11.32 C
2821 03-11-2019 19:00:00 12.1 C 95 % 11.32 C
2822 03-11-2019 19:05:00 12.1 C 95 % 11.32 C
2823 03-11-2019 19:10:00 12 C 95 % 11.22 C
2824 03-11-2019 19:15:00 11.9 C 95 % 11.13 C
2825 03-11-2019 19:20:00 11.9 C 95 % 11.13 C
Sensor: Nr:Datum:Temp:Feuchte:Taupunkt:
Aussen-T/F 2826 03-11-2019 19:25:00 11.8 C 95 % 11.03 C
2827 03-11-2019 19:30:00 11.7 C 95 % 10.93 C
2828 03-11-2019 19:35:00 11.6 C 95 % 10.83 C
2829 03-11-2019 19:40:00 11.5 C 95 % 10.73 C
2830 03-11-2019 19:45:00 11.4 C 95 % 10.63 C
2831 03-11-2019 19:50:00 11.3 C 95 % 10.53 C
2832 03-11-2019 19:55:00 11.3 C 95 % 10.53 C
2833 03-11-2019 20:00:00 11.2 C 95 % 10.43 C
2834 03-11-2019 20:05:00 11.2 C 95 % 10.43 C
2835 03-11-2019 20:10:00 11.2 C 96 % 10.59 C
2836 03-11-2019 20:15:00 11.1 C 95 % 10.33 C
2837 03-11-2019 20:20:00 11.1 C 96 % 10.49 C
2838 03-11-2019 20:25:00 11.1 C 96 % 10.49 C
2839 03-11-2019 20:30:00 11.1 C 96 % 10.49 C
2840 03-11-2019 20:35:00 11.1 C 96 % 10.49 C
2841 03-11-2019 20:40:00 11 C 96 % 10.39 C
2842 03-11-2019 20:45:00 11 C 96 % 10.39 C
2843 03-11-2019 20:50:00 10.9 C 96 % 10.29 C
2844 03-11-2019 20:55:00 10.9 C 96 % 10.29 C
2845 03-11-2019 21:00:00 10.9 C 96 % 10.29 C
2846 03-11-2019 21:05:00 10.8 C 96 % 10.19 C
2847 03-11-2019 21:10:00 10.8 C 96 % 10.19 C
2848 03-11-2019 21:15:00 10.8 C 96 % 10.19 C
2849 03-11-2019 21:20:00 10.8 C 96 % 10.19 C
2850 03-11-2019 21:25:00 10.8 C 96 % 10.19 C
Sensor: Nr:Datum:Temp:Feuchte:Taupunkt:
Aussen-T/F 2851 03-11-2019 21:30:00 10.7 C 96 % 10.09 C
2852 03-11-2019 21:35:00 10.7 C 96 % 10.09 C
2853 03-11-2019 21:40:00 10.7 C 96 % 10.09 C
2854 03-11-2019 21:45:00 10.7 C 96 % 10.09 C
2855 03-11-2019 21:50:00 10.7 C 96 % 10.09 C
2856 03-11-2019 21:55:00 10.7 C 96 % 10.09 C
2857 03-11-2019 22:00:00 10.8 C 96 % 10.19 C
2858 03-11-2019 22:05:00 10.8 C 96 % 10.19 C
2859 03-11-2019 22:10:00 10.8 C 96 % 10.19 C
2860 03-11-2019 22:15:00 10.8 C 96 % 10.19 C
2861 03-11-2019 22:20:00 10.7 C 96 % 10.09 C
2862 03-11-2019 22:25:00 10.7 C 96 % 10.09 C
2863 03-11-2019 22:30:00 10.7 C 96 % 10.09 C
2864 03-11-2019 22:35:00 10.7 C 96 % 10.09 C
2865 03-11-2019 22:40:00 10.7 C 96 % 10.09 C
2866 03-11-2019 22:45:00 10.6 C 96 % 9.99 C
2867 03-11-2019 22:50:00 10.6 C 96 % 9.99 C
2868 03-11-2019 22:55:00 10.5 C 96 % 9.89 C
2869 03-11-2019 23:00:00 10.4 C 96 % 9.79 C
2870 03-11-2019 23:05:00 10.4 C 96 % 9.79 C
2871 03-11-2019 23:10:00 10.4 C 96 % 9.79 C
2872 03-11-2019 23:15:00 10.4 C 96 % 9.79 C
2873 03-11-2019 23:20:00 10.4 C 96 % 9.79 C
2874 03-11-2019 23:25:00 10.5 C 96 % 9.89 C
2875 03-11-2019 23:30:00 10.6 C 96 % 9.99 C
Sensor: Nr:Datum:Temp:Feuchte:Taupunkt:
Aussen-T/F 2876 03-11-2019 23:35:00 10.7 C 96 % 10.09 C
2877 03-11-2019 23:40:00 10.8 C 96 % 10.19 C
2878 03-11-2019 23:45:00 10.8 C 96 % 10.19 C
2879 03-11-2019 23:50:00 10.9 C 96 % 10.29 C
2880 03-11-2019 23:55:00 11 C 95 % 10.23 C
2881 04-11-2019 00:00:00 11.2 C 94 % 10.27 C
2882 04-11-2019 00:05:00 11.2 C 94 % 10.27 C
2883 04-11-2019 00:10:00 11.2 C 94 % 10.27 C
2884 04-11-2019 00:15:00 11.2 C 94 % 10.27 C
2885 04-11-2019 00:20:00 11.1 C 93 % 10.01 C
2886 04-11-2019 00:25:00 11.1 C 93 % 10.01 C
2887 04-11-2019 00:30:00 11.1 C 92 % 9.85 C
2888 04-11-2019 00:35:00 11 C 92 % 9.75 C
2889 04-11-2019 00:40:00 11 C 91 % 9.59 C
2890 04-11-2019 00:45:00 11 C 92 % 9.75 C
2891 04-11-2019 00:50:00 10.9 C 91 % 9.49 C
2892 04-11-2019 00:55:00 10.9 C 91 % 9.49 C
2893 04-11-2019 01:00:00 11 C 91 % 9.59 C
2894 04-11-2019 01:05:00 11 C 91 % 9.59 C
2895 04-11-2019 01:10:00 11.1 C 91 % 9.69 C
2896 04-11-2019 01:15:00 11.1 C 91 % 9.69 C
2897 04-11-2019 01:20:00 11.1 C 90 % 9.52 C
2898 04-11-2019 01:25:00 11.1 C 90 % 9.52 C
2899 04-11-2019 01:30:00 11.1 C 90 % 9.52 C
2900 04-11-2019 01:35:00 11.1 C 91 % 9.69 C
Sensor: Nr:Datum:Temp:Feuchte:Taupunkt:
Aussen-T/F 2901 04-11-2019 01:40:00 11 C 91 % 9.59 C
2902 04-11-2019 01:45:00 10.9 C 91 % 9.49 C
2903 04-11-2019 01:50:00 10.9 C 92 % 9.65 C
2904 04-11-2019 01:55:00 10.9 C 92 % 9.65 C
2905 04-11-2019 02:00:00 10.8 C 92 % 9.55 C
2906 04-11-2019 02:05:00 10.7 C 92 % 9.45 C
2907 04-11-2019 02:10:00 10.6 C 92 % 9.36 C
2908 04-11-2019 02:15:00 10.4 C 92 % 9.16 C
2909 04-11-2019 02:20:00 10.3 C 92 % 9.06 C
2910 04-11-2019 02:25:00 10.1 C 92 % 8.86 C
2911 04-11-2019 02:30:00 10 C 93 % 8.92 C
2912 04-11-2019 02:35:00 9.9 C 93 % 8.82 C
2913 04-11-2019 02:40:00 9.8 C 93 % 8.72 C
2914 04-11-2019 02:45:00 9.8 C 93 % 8.72 C
2915 04-11-2019 02:50:00 9.8 C 94 % 8.88 C
2916 04-11-2019 02:55:00 9.7 C 93 % 8.62 C
2917 04-11-2019 03:00:00 9.7 C 94 % 8.78 C
2918 04-11-2019 03:05:00 9.7 C 94 % 8.78 C
2919 04-11-2019 03:10:00 9.8 C 94 % 8.88 C
2920 04-11-2019 03:15:00 9.9 C 94 % 8.98 C
2921 04-11-2019 03:20:00 9.9 C 94 % 8.98 C
2922 04-11-2019 03:25:00 9.9 C 94 % 8.98 C
2923 04-11-2019 03:30:00 9.9 C 94 % 8.98 C
2924 04-11-2019 03:35:00 10 C 94 % 9.08 C
2925 04-11-2019 03:40:00 10 C 94 % 9.08 C
Sensor: Nr:Datum:Temp:Feuchte:Taupunkt:
Aussen-T/F 2926 04-11-2019 03:45:00 10 C 94 % 9.08 C
2927 04-11-2019 03:50:00 10 C 94 % 9.08 C
2928 04-11-2019 03:55:00 10 C 94 % 9.08 C
2929 04-11-2019 04:00:00 10 C 95 % 9.24 C
2930 04-11-2019 04:05:00 10 C 95 % 9.24 C
2931 04-11-2019 04:10:00 10.1 C 95 % 9.34 C
2932 04-11-2019 04:15:00 10.1 C 95 % 9.34 C
2933 04-11-2019 04:20:00 10.1 C 95 % 9.34 C
2934 04-11-2019 04:25:00 10.2 C 95 % 9.44 C
2935 04-11-2019 04:30:00 10.2 C 95 % 9.44 C
2936 04-11-2019 04:35:00 10.3 C 95 % 9.54 C
2937 04-11-2019 04:40:00 10.3 C 95 % 9.54 C
2938 04-11-2019 04:45:00 10.3 C 95 % 9.54 C
2939 04-11-2019 04:50:00 10.3 C 95 % 9.54 C
2940 04-11-2019 04:55:00 10.3 C 95 % 9.54 C
2941 04-11-2019 05:00:00 10.3 C 95 % 9.54 C
2942 04-11-2019 05:05:00 10.3 C 95 % 9.54 C
2943 04-11-2019 05:10:00 10.2 C 95 % 9.44 C
2944 04-11-2019 05:15:00 10.3 C 95 % 9.54 C
2945 04-11-2019 05:20:00 10.3 C 95 % 9.54 C
2946 04-11-2019 05:25:00 10.4 C 95 % 9.63 C
2947 04-11-2019 05:30:00 10.5 C 95 % 9.73 C
2948 04-11-2019 05:35:00 10.6 C 95 % 9.83 C
2949 04-11-2019 05:40:00 10.5 C 95 % 9.73 C
2950 04-11-2019 05:45:00 10.5 C 94 % 9.58 C
Sensor: Nr:Datum:Temp:Feuchte:Taupunkt:
Aussen-T/F 2951 04-11-2019 05:50:00 10.4 C 94 % 9.48 C
2952 04-11-2019 05:55:00 10.3 C 94 % 9.38 C
2953 04-11-2019 06:00:00 10.1 C 94 % 9.18 C
2954 04-11-2019 06:05:00 10 C 94 % 9.08 C
2955 04-11-2019 06:10:00 9.9 C 94 % 8.98 C
2956 04-11-2019 06:15:00 9.9 C 94 % 8.98 C
2957 04-11-2019 06:20:00 9.8 C 94 % 8.88 C
2958 04-11-2019 06:25:00 9.7 C 94 % 8.78 C
2959 04-11-2019 06:30:00 9.7 C 95 % 8.94 C
2960 04-11-2019 06:35:00 9.7 C 95 % 8.94 C
2961 04-11-2019 06:40:00 9.7 C 95 % 8.94 C
2962 04-11-2019 06:45:00 9.7 C 95 % 8.94 C
2963 04-11-2019 06:50:00 9.7 C 95 % 8.94 C
2964 04-11-2019 06:55:00 9.6 C 95 % 8.84 C
2965 04-11-2019 07:00:00 9.4 C 95 % 8.64 C
2966 04-11-2019 07:05:00 9.3 C 95 % 8.54 C
2967 04-11-2019 07:10:00 9.3 C 95 % 8.54 C
2968 04-11-2019 07:15:00 9.3 C 95 % 8.54 C
2969 04-11-2019 07:20:00 9.3 C 95 % 8.54 C
2970 04-11-2019 07:25:00 9.2 C 94 % 8.29 C
2971 04-11-2019 07:30:00 9.1 C 95 % 8.34 C
2972 04-11-2019 07:35:00 9.2 C 95 % 8.44 C
2973 04-11-2019 07:40:00 9.2 C 95 % 8.44 C
2974 04-11-2019 07:45:00 9.3 C 95 % 8.54 C
2975 04-11-2019 07:50:00 9.3 C 95 % 8.54 C
Sensor: Nr:Datum:Temp:Feuchte:Taupunkt:
Aussen-T/F 2976 04-11-2019 07:55:00 9.3 C 95 % 8.54 C
2977 04-11-2019 08:00:00 9.2 C 95 % 8.44 C
2978 04-11-2019 08:05:00 9.2 C 95 % 8.44 C
2979 04-11-2019 08:10:00 9.2 C 95 % 8.44 C
2980 04-11-2019 08:15:00 9.3 C 95 % 8.54 C
2981 04-11-2019 08:20:00 9.4 C 95 % 8.64 C
2982 04-11-2019 08:25:00 9.4 C 96 % 8.8 C
2983 04-11-2019 08:30:00 9.6 C 95 % 8.84 C
2984 04-11-2019 08:35:00 9.6 C 96 % 8.99 C
2985 04-11-2019 08:40:00 9.7 C 96 % 9.09 C
2986 04-11-2019 08:45:00 9.8 C 96 % 9.19 C
2987 04-11-2019 08:50:00 9.8 C 96 % 9.19 C
2988 04-11-2019 08:55:00 9.8 C 96 % 9.19 C
2989 04-11-2019 09:00:00 9.9 C 96 % 9.29 C
2990 04-11-2019 09:05:00 9.8 C 94 % 8.88 C
2991 04-11-2019 09:10:00 9.8 C 94 % 8.88 C
2992 04-11-2019 09:15:00 9.8 C 94 % 8.88 C
2993 04-11-2019 09:20:00 9.9 C 94 % 8.98 C
2994 04-11-2019 09:25:00 10 C 94 % 9.08 C
2995 04-11-2019 09:30:00 10 C 94 % 9.08 C
2996 04-11-2019 09:35:00 10.1 C 94 % 9.18 C
2997 04-11-2019 09:40:00 10.1 C 94 % 9.18 C
2998 04-11-2019 09:45:00 10.2 C 93 % 9.12 C
2999 04-11-2019 09:50:00 10.2 C 93 % 9.12 C
3000 04-11-2019 09:55:00 10.3 C 93 % 9.22 C
Sensor: Nr:Datum:Temp:Feuchte:Taupunkt:
Aussen-T/F 3001 04-11-2019 10:00:00 10.4 C 93 % 9.32 C
3002 04-11-2019 10:05:00 10.5 C 93 % 9.42 C
3003 04-11-2019 10:10:00 10.7 C 93 % 9.62 C
3004 04-11-2019 10:15:00 10.8 C 93 % 9.71 C
3005 04-11-2019 10:20:00 10.9 C 92 % 9.65 C
3006 04-11-2019 10:25:00 11 C 92 % 9.75 C
3007 04-11-2019 10:30:00 11.1 C 91 % 9.69 C
3008 04-11-2019 10:35:00 11.1 C 91 % 9.69 C
3009 04-11-2019 10:40:00 11.1 C 92 % 9.85 C
3010 04-11-2019 10:45:00 11 C 91 % 9.59 C
3011 04-11-2019 10:50:00 11 C 92 % 9.75 C
3012 04-11-2019 10:55:00 10.9 C 92 % 9.65 C
3013 04-11-2019 11:00:00 10.9 C 92 % 9.65 C
3014 04-11-2019 11:05:00 10.9 C 92 % 9.65 C
3015 04-11-2019 11:10:00 10.9 C 93 % 9.81 C
3016 04-11-2019 11:15:00 10.9 C 93 % 9.81 C
3017 04-11-2019 11:20:00 10.9 C 93 % 9.81 C
3018 04-11-2019 11:25:00 10.9 C 93 % 9.81 C
3019 04-11-2019 11:30:00 10.9 C 94 % 9.97 C
3020 04-11-2019 11:35:00 10.9 C 93 % 9.81 C
3021 04-11-2019 11:40:00 10.9 C 93 % 9.81 C
3022 04-11-2019 11:45:00 10.9 C 94 % 9.97 C
3023 04-11-2019 11:50:00 11 C 93 % 9.91 C
3024 04-11-2019 11:55:00 11 C 93 % 9.91 C
3025 04-11-2019 12:00:00 11 C 93 % 9.91 C
Sensor: Nr:Datum:Temp:Feuchte:Taupunkt:
Aussen-T/F 3026 04-11-2019 12:05:00 11.1 C 93 % 10.01 C
3027 04-11-2019 12:10:00 11.1 C 93 % 10.01 C
3028 04-11-2019 12:15:00 11.2 C 93 % 10.11 C
3029 04-11-2019 12:20:00 11.2 C 93 % 10.11 C
3030 04-11-2019 12:25:00 11.3 C 93 % 10.21 C
3031 04-11-2019 12:30:00 11.3 C 93 % 10.21 C
3032 04-11-2019 12:35:00 11.3 C 93 % 10.21 C
3033 04-11-2019 12:40:00 11.3 C 93 % 10.21 C
3034 04-11-2019 12:45:00 11.3 C 93 % 10.21 C
3035 04-11-2019 12:50:00 11.4 C 93 % 10.31 C
3036 04-11-2019 12:55:00 11.5 C 93 % 10.41 C
3037 04-11-2019 13:00:00 11.5 C 92 % 10.25 C
3038 04-11-2019 13:05:00 11.5 C 92 % 10.25 C
3039 04-11-2019 13:10:00 11.6 C 92 % 10.35 C
3040 04-11-2019 13:15:00 11.7 C 93 % 10.61 C
3041 04-11-2019 13:20:00 11.8 C 93 % 10.71 C
3042 04-11-2019 13:25:00 12 C 92 % 10.74 C
3043 04-11-2019 13:30:00 12.1 C 91 % 10.68 C
3044 04-11-2019 13:35:00 12.2 C 91 % 10.78 C
3045 04-11-2019 13:40:00 12.3 C 91 % 10.87 C
3046 04-11-2019 13:45:00 12.4 C 90 % 10.81 C
3047 04-11-2019 13:50:00 12.6 C 90 % 11 C
3048 04-11-2019 13:55:00 12.6 C 89 % 10.84 C
3049 04-11-2019 14:00:00 12.5 C 88 % 10.57 C
3050 04-11-2019 14:05:00 12.4 C 88 % 10.47 C
Sensor: Nr:Datum:Temp:Feuchte:Taupunkt:
Aussen-T/F 3051 04-11-2019 14:10:00 12.3 C 88 % 10.37 C
3052 04-11-2019 14:15:00 12.3 C 87 % 10.2 C
3053 04-11-2019 14:20:00 12.3 C 88 % 10.37 C
3054 04-11-2019 14:25:00 12.4 C 87 % 10.3 C
3055 04-11-2019 14:30:00 12.6 C 87 % 10.5 C
3056 04-11-2019 14:35:00 12.7 C 86 % 10.42 C
3057 04-11-2019 14:40:00 12.8 C 86 % 10.52 C
3058 04-11-2019 14:45:00 12.9 C 85 % 10.44 C
3059 04-11-2019 14:50:00 12.9 C 85 % 10.44 C
3060 04-11-2019 14:55:00 12.9 C 85 % 10.44 C
3061 04-11-2019 15:00:00 12.9 C 85 % 10.44 C
3062 04-11-2019 15:05:00 12.8 C 85 % 10.34 C
3063 04-11-2019 15:10:00 12.8 C 85 % 10.34 C
3064 04-11-2019 15:15:00 12.8 C 84 % 10.17 C
3065 04-11-2019 15:20:00 12.7 C 84 % 10.07 C
3066 04-11-2019 15:25:00 12.7 C 84 % 10.07 C
3067 04-11-2019 15:30:00 12.6 C 84 % 9.97 C
3068 04-11-2019 15:35:00 12.6 C 84 % 9.97 C
3069 04-11-2019 15:40:00 12.5 C 84 % 9.87 C
3070 04-11-2019 15:45:00 12.4 C 85 % 9.95 C
3071 04-11-2019 15:50:00 12.4 C 85 % 9.95 C
3072 04-11-2019 15:55:00 12.3 C 86 % 10.03 C
3073 04-11-2019 16:00:00 12.2 C 87 % 10.1 C
3074 04-11-2019 16:05:00 12.1 C 87 % 10 C
3075 04-11-2019 16:10:00 11.9 C 87 % 9.81 C
Sensor: Nr:Datum:Temp:Feuchte:Taupunkt:
Aussen-T/F 3076 04-11-2019 16:15:00 11.8 C 87 % 9.71 C
3077 04-11-2019 16:20:00 11.7 C 88 % 9.78 C
3078 04-11-2019 16:25:00 11.5 C 88 % 9.58 C
3079 04-11-2019 16:30:00 11.3 C 88 % 9.39 C
3080 04-11-2019 16:35:00 11.2 C 88 % 9.29 C
3081 04-11-2019 16:40:00 11.1 C 89 % 9.36 C
3082 04-11-2019 16:45:00 11 C 89 % 9.26 C
3083 04-11-2019 16:50:00 10.8 C 89 % 9.06 C
3084 04-11-2019 16:55:00 10.7 C 90 % 9.13 C
3085 04-11-2019 17:00:00 10.5 C 90 % 8.93 C
3086 04-11-2019 17:05:00 10.4 C 90 % 8.83 C
3087 04-11-2019 17:10:00 10.3 C 91 % 8.9 C
3088 04-11-2019 17:15:00 10.3 C 91 % 8.9 C
3089 04-11-2019 17:20:00 10.3 C 91 % 8.9 C
3090 04-11-2019 17:25:00 10.2 C 92 % 8.96 C
3091 04-11-2019 17:30:00 10.2 C 92 % 8.96 C
3092 04-11-2019 17:35:00 10.2 C 92 % 8.96 C
3093 04-11-2019 17:40:00 10.3 C 92 % 9.06 C
3094 04-11-2019 17:45:00 10.2 C 92 % 8.96 C
3095 04-11-2019 17:50:00 10.2 C 93 % 9.12 C
3096 04-11-2019 17:55:00 10.2 C 93 % 9.12 C
3097 04-11-2019 18:00:00 10.2 C 93 % 9.12 C
3098 04-11-2019 18:05:00 10.2 C 93 % 9.12 C
3099 04-11-2019 18:10:00 10.1 C 92 % 8.86 C
3100 04-11-2019 18:15:00 9.9 C 92 % 8.66 C
Sensor: Nr:Datum:Temp:Feuchte:Taupunkt:
Aussen-T/F 3101 04-11-2019 18:20:00 9.8 C 92 % 8.56 C
3102 04-11-2019 18:25:00 9.7 C 92 % 8.46 C
3103 04-11-2019 18:30:00 9.5 C 92 % 8.27 C
3104 04-11-2019 18:35:00 9.3 C 93 % 8.23 C
3105 04-11-2019 18:40:00 9.2 C 93 % 8.13 C
3106 04-11-2019 18:45:00 9.2 C 93 % 8.13 C
3107 04-11-2019 18:50:00 9.1 C 94 % 8.19 C
3108 04-11-2019 18:55:00 9.1 C 94 % 8.19 C
3109 04-11-2019 19:00:00 9.2 C 94 % 8.29 C
3110 04-11-2019 19:05:00 9.3 C 95 % 8.54 C
3111 04-11-2019 19:10:00 9.3 C 94 % 8.39 C
3112 04-11-2019 19:15:00 9.3 C 95 % 8.54 C
3113 04-11-2019 19:20:00 9.3 C 95 % 8.54 C
3114 04-11-2019 19:25:00 9.3 C 94 % 8.39 C
3115 04-11-2019 19:30:00 9.2 C 94 % 8.29 C
3116 04-11-2019 19:35:00 9.1 C 94 % 8.19 C
3117 04-11-2019 19:40:00 9.1 C 94 % 8.19 C
3118 04-11-2019 19:45:00 9 C 95 % 8.24 C
3119 04-11-2019 19:50:00 9 C 95 % 8.24 C
3120 04-11-2019 19:55:00 9.1 C 95 % 8.34 C
3121 04-11-2019 20:00:00 9.1 C 95 % 8.34 C
3122 04-11-2019 20:05:00 9.2 C 95 % 8.44 C
3123 04-11-2019 20:10:00 9.2 C 95 % 8.44 C
3124 04-11-2019 20:15:00 9.3 C 95 % 8.54 C
3125 04-11-2019 20:20:00 9.4 C 96 % 8.8 C
Sensor: Nr:Datum:Temp:Feuchte:Taupunkt:
Aussen-T/F 3126 04-11-2019 20:25:00 9.6 C 96 % 8.99 C
3127 04-11-2019 20:30:00 9.7 C 96 % 9.09 C
3128 04-11-2019 20:35:00 9.7 C 96 % 9.09 C
3129 04-11-2019 20:40:00 9.7 C 96 % 9.09 C
3130 04-11-2019 20:45:00 9.7 C 96 % 9.09 C
3131 04-11-2019 20:50:00 9.7 C 96 % 9.09 C
3132 04-11-2019 20:55:00 9.7 C 96 % 9.09 C
3133 04-11-2019 21:00:00 9.7 C 96 % 9.09 C
3134 04-11-2019 21:05:00 9.6 C 96 % 8.99 C
3135 04-11-2019 21:10:00 9.5 C 96 % 8.89 C
3136 04-11-2019 21:15:00 9.4 C 96 % 8.8 C
3137 04-11-2019 21:20:00 9.3 C 95 % 8.54 C
3138 04-11-2019 21:25:00 9.3 C 96 % 8.7 C
3139 04-11-2019 21:30:00 9.2 C 96 % 8.6 C
3140 04-11-2019 21:35:00 9.2 C 96 % 8.6 C
3141 04-11-2019 21:40:00 9.1 C 96 % 8.5 C
3142 04-11-2019 21:45:00 9 C 95 % 8.24 C
3143 04-11-2019 21:50:00 8.9 C 96 % 8.3 C
3144 04-11-2019 21:55:00 8.7 C 96 % 8.1 C
3145 04-11-2019 22:00:00 8.6 C 95 % 7.85 C
3146 04-11-2019 22:05:00 8.4 C 95 % 7.65 C
3147 04-11-2019 22:10:00 8.3 C 95 % 7.55 C
3148 04-11-2019 22:15:00 8.2 C 96 % 7.6 C
3149 04-11-2019 22:20:00 8.2 C 96 % 7.6 C
3150 04-11-2019 22:25:00 8.1 C 96 % 7.5 C
Sensor: Nr:Datum:Temp:Feuchte:Taupunkt:
Aussen-T/F 3151 04-11-2019 22:30:00 8.2 C 96 % 7.6 C
3152 04-11-2019 22:35:00 8.3 C 96 % 7.7 C
3153 04-11-2019 22:40:00 8.3 C 96 % 7.7 C
3154 04-11-2019 22:45:00 8.3 C 96 % 7.7 C
3155 04-11-2019 22:50:00 8.3 C 96 % 7.7 C
3156 04-11-2019 22:55:00 8.3 C 96 % 7.7 C
3157 04-11-2019 23:00:00 8.3 C 97 % 7.85 C
3158 04-11-2019 23:05:00 8.5 C 97 % 8.05 C
3159 04-11-2019 23:10:00 8.6 C 97 % 8.15 C
3160 04-11-2019 23:15:00 8.7 C 97 % 8.25 C
3161 04-11-2019 23:20:00 8.8 C 97 % 8.35 C
3162 04-11-2019 23:25:00 8.9 C 97 % 8.45 C
3163 04-11-2019 23:30:00 9 C 97 % 8.55 C
3164 04-11-2019 23:35:00 9.1 C 97 % 8.65 C
3165 04-11-2019 23:40:00 9.1 C 97 % 8.65 C
3166 04-11-2019 23:45:00 9.2 C 97 % 8.75 C
3167 04-11-2019 23:50:00 9.2 C 96 % 8.6 C
3168 04-11-2019 23:55:00 9.3 C 96 % 8.7 C
3169 05-11-2019 00:00:00 9.3 C 95 % 8.54 C
3170 05-11-2019 00:05:00 9.4 C 95 % 8.64 C
3171 05-11-2019 00:10:00 9.3 C 95 % 8.54 C
3172 05-11-2019 00:15:00 9.4 C 95 % 8.64 C
3173 05-11-2019 00:20:00 9.3 C 95 % 8.54 C
3174 05-11-2019 00:25:00 9.3 C 95 % 8.54 C
3175 05-11-2019 00:30:00 9.3 C 95 % 8.54 C
Sensor: Nr:Datum:Temp:Feuchte:Taupunkt:
Aussen-T/F 3176 05-11-2019 00:35:00 9.2 C 94 % 8.29 C
3177 05-11-2019 00:40:00 9.2 C 94 % 8.29 C
3178 05-11-2019 00:45:00 9.2 C 94 % 8.29 C
3179 05-11-2019 00:50:00 9.2 C 94 % 8.29 C
3180 05-11-2019 00:55:00 9.2 C 94 % 8.29 C
3181 05-11-2019 01:00:00 9.2 C 94 % 8.29 C
3182 05-11-2019 01:05:00 9.2 C 94 % 8.29 C
3183 05-11-2019 01:10:00 9.2 C 94 % 8.29 C
3184 05-11-2019 01:15:00 9.2 C 93 % 8.13 C
3185 05-11-2019 01:20:00 9.2 C 93 % 8.13 C
3186 05-11-2019 01:25:00 9.1 C 92 % 7.87 C
3187 05-11-2019 01:30:00 9.1 C 93 % 8.03 C
3188 05-11-2019 01:35:00 9.1 C 93 % 8.03 C
3189 05-11-2019 01:40:00 9.1 C 93 % 8.03 C
3190 05-11-2019 01:45:00 9.1 C 93 % 8.03 C
3191 05-11-2019 01:50:00 9.1 C 93 % 8.03 C
3192 05-11-2019 01:55:00 9.1 C 93 % 8.03 C
3193 05-11-2019 02:00:00 9.2 C 93 % 8.13 C
3194 05-11-2019 02:05:00 9.2 C 93 % 8.13 C
3195 05-11-2019 02:10:00 9.2 C 93 % 8.13 C
3196 05-11-2019 02:15:00 9.2 C 93 % 8.13 C
3197 05-11-2019 02:20:00 9.2 C 93 % 8.13 C
3198 05-11-2019 02:25:00 9.2 C 93 % 8.13 C
3199 05-11-2019 02:30:00 9.3 C 93 % 8.23 C
3200 05-11-2019 02:35:00 9.3 C 94 % 8.39 C
Sensor: Nr:Datum:Temp:Feuchte:Taupunkt:
Aussen-T/F 3201 05-11-2019 02:40:00 9.3 C 94 % 8.39 C
3202 05-11-2019 02:45:00 9.2 C 94 % 8.29 C
3203 05-11-2019 02:50:00 9.2 C 93 % 8.13 C
3204 05-11-2019 02:55:00 9.2 C 93 % 8.13 C
3205 05-11-2019 03:00:00 9.3 C 93 % 8.23 C
3206 05-11-2019 03:05:00 9.3 C 93 % 8.23 C
3207 05-11-2019 03:10:00 9.3 C 92 % 8.07 C
3208 05-11-2019 03:15:00 9.3 C 92 % 8.07 C
3209 05-11-2019 03:20:00 9.4 C 92 % 8.17 C
3210 05-11-2019 03:25:00 9.4 C 91 % 8.01 C
3211 05-11-2019 03:30:00 9.5 C 91 % 8.11 C
3212 05-11-2019 03:35:00 9.6 C 91 % 8.21 C
3213 05-11-2019 03:40:00 9.5 C 91 % 8.11 C
3214 05-11-2019 03:45:00 9.5 C 91 % 8.11 C
3215 05-11-2019 03:50:00 9.4 C 90 % 7.85 C
3216 05-11-2019 03:55:00 9.4 C 90 % 7.85 C
3217 05-11-2019 04:00:00 9.4 C 90 % 7.85 C
3218 05-11-2019 04:05:00 9.4 C 90 % 7.85 C
3219 05-11-2019 04:10:00 9.4 C 90 % 7.85 C
3220 05-11-2019 04:15:00 9.4 C 90 % 7.85 C
3221 05-11-2019 04:20:00 9.4 C 90 % 7.85 C
3222 05-11-2019 04:25:00 9.5 C 90 % 7.94 C
3223 05-11-2019 04:30:00 9.5 C 90 % 7.94 C
3224 05-11-2019 04:35:00 9.6 C 89 % 7.88 C
3225 05-11-2019 04:40:00 9.6 C 89 % 7.88 C
Sensor: Nr:Datum:Temp:Feuchte:Taupunkt:
Aussen-T/F 3226 05-11-2019 04:45:00 9.6 C 89 % 7.88 C
3227 05-11-2019 04:50:00 9.4 C 89 % 7.68 C
3228 05-11-2019 04:55:00 9.4 C 89 % 7.68 C
3229 05-11-2019 05:00:00 9.4 C 89 % 7.68 C
3230 05-11-2019 05:05:00 9.4 C 90 % 7.85 C
3231 05-11-2019 05:10:00 9.5 C 89 % 7.78 C
3232 05-11-2019 05:15:00 9.6 C 89 % 7.88 C
3233 05-11-2019 05:20:00 9.7 C 89 % 7.98 C
3234 05-11-2019 05:25:00 9.6 C 89 % 7.88 C
3235 05-11-2019 05:30:00 9.6 C 89 % 7.88 C
3236 05-11-2019 05:35:00 9.6 C 89 % 7.88 C
3237 05-11-2019 05:40:00 9.5 C 90 % 7.94 C
3238 05-11-2019 05:45:00 9.5 C 90 % 7.94 C
3239 05-11-2019 05:50:00 9.5 C 90 % 7.94 C
3240 05-11-2019 05:55:00 9.4 C 90 % 7.85 C
3241 05-11-2019 06:00:00 9.4 C 90 % 7.85 C
3242 05-11-2019 06:05:00 9.3 C 90 % 7.75 C
3243 05-11-2019 06:10:00 9.3 C 90 % 7.75 C
3244 05-11-2019 06:15:00 9.3 C 91 % 7.91 C
3245 05-11-2019 06:20:00 9.3 C 91 % 7.91 C
3246 05-11-2019 06:25:00 9.2 C 91 % 7.81 C
3247 05-11-2019 06:30:00 9.2 C 91 % 7.81 C
3248 05-11-2019 06:35:00 9.2 C 91 % 7.81 C
3249 05-11-2019 06:40:00 9.2 C 91 % 7.81 C
3250 05-11-2019 06:45:00 9.2 C 91 % 7.81 C
Sensor: Nr:Datum:Temp:Feuchte:Taupunkt:
Aussen-T/F 3251 05-11-2019 06:50:00 9.2 C 91 % 7.81 C
3252 05-11-2019 06:55:00 9.2 C 91 % 7.81 C
3253 05-11-2019 07:00:00 9.2 C 91 % 7.81 C
3254 05-11-2019 07:05:00 9.3 C 91 % 7.91 C
3255 05-11-2019 07:10:00 9.3 C 91 % 7.91 C
3256 05-11-2019 07:15:00 9.3 C 91 % 7.91 C
3257 05-11-2019 07:20:00 9.3 C 91 % 7.91 C
3258 05-11-2019 07:25:00 9.3 C 91 % 7.91 C
3259 05-11-2019 07:30:00 9.2 C 91 % 7.81 C
3260 05-11-2019 07:35:00 9.2 C 91 % 7.81 C
3261 05-11-2019 07:40:00 9.1 C 91 % 7.71 C
3262 05-11-2019 07:45:00 9 C 91 % 7.61 C
3263 05-11-2019 07:50:00 8.9 C 91 % 7.51 C
3264 05-11-2019 07:55:00 8.8 C 91 % 7.41 C
3265 05-11-2019 08:00:00 8.8 C 91 % 7.41 C
3266 05-11-2019 08:05:00 8.8 C 92 % 7.57 C
3267 05-11-2019 08:10:00 8.8 C 92 % 7.57 C
3268 05-11-2019 08:15:00 8.8 C 92 % 7.57 C
3269 05-11-2019 08:20:00 8.8 C 92 % 7.57 C
3270 05-11-2019 08:25:00 8.9 C 93 % 7.83 C
3271 05-11-2019 08:30:00 9 C 92 % 7.77 C
3272 05-11-2019 08:35:00 9.1 C 92 % 7.87 C
3273 05-11-2019 08:40:00 9.1 C 92 % 7.87 C
3274 05-11-2019 08:45:00 9.1 C 92 % 7.87 C
3275 05-11-2019 08:50:00 9.1 C 91 % 7.71 C
Sensor: Nr:Datum:Temp:Feuchte:Taupunkt:
Aussen-T/F 3276 05-11-2019 08:55:00 9.2 C 91 % 7.81 C
3277 05-11-2019 09:00:00 9.3 C 91 % 7.91 C
3278 05-11-2019 09:05:00 9.3 C 90 % 7.75 C
3279 05-11-2019 09:10:00 9.3 C 90 % 7.75 C
3280 05-11-2019 09:15:00 9.3 C 90 % 7.75 C
3281 05-11-2019 09:20:00 9.4 C 90 % 7.85 C
3282 05-11-2019 09:25:00 9.4 C 90 % 7.85 C
3283 05-11-2019 09:30:00 9.4 C 90 % 7.85 C
3284 05-11-2019 09:35:00 9.4 C 90 % 7.85 C
3285 05-11-2019 09:40:00 9.5 C 90 % 7.94 C
3286 05-11-2019 09:45:00 9.6 C 89 % 7.88 C
3287 05-11-2019 09:50:00 9.7 C 89 % 7.98 C
3288 05-11-2019 09:55:00 9.9 C 88 % 8.01 C
3289 05-11-2019 10:00:00 10.1 C 88 % 8.21 C
3290 05-11-2019 10:05:00 10.3 C 87 % 8.23 C
3291 05-11-2019 10:10:00 10.4 C 86 % 8.16 C
3292 05-11-2019 10:15:00 10.4 C 86 % 8.16 C
3293 05-11-2019 10:20:00 10.4 C 86 % 8.16 C
3294 05-11-2019 10:25:00 10.4 C 86 % 8.16 C
3295 05-11-2019 10:30:00 10.5 C 86 % 8.26 C
3296 05-11-2019 10:35:00 10.6 C 86 % 8.36 C
3297 05-11-2019 10:40:00 10.6 C 86 % 8.36 C
3298 05-11-2019 10:45:00 10.7 C 85 % 8.28 C
3299 05-11-2019 10:50:00 10.7 C 85 % 8.28 C
3300 05-11-2019 10:55:00 10.7 C 85 % 8.28 C
Sensor: Nr:Datum:Temp:Feuchte:Taupunkt:
Aussen-T/F 3301 05-11-2019 11:00:00 10.7 C 83 % 7.93 C
3302 05-11-2019 11:05:00 10.8 C 84 % 8.21 C
3303 05-11-2019 11:10:00 10.8 C 84 % 8.21 C
3304 05-11-2019 11:15:00 10.9 C 83 % 8.13 C
3305 05-11-2019 11:20:00 11.1 C 83 % 8.33 C
3306 05-11-2019 11:25:00 11.2 C 83 % 8.42 C
3307 05-11-2019 11:30:00 11.3 C 83 % 8.52 C
3308 05-11-2019 11:35:00 11.5 C 83 % 8.72 C
3309 05-11-2019 11:40:00 11.6 C 81 % 8.45 C
3310 05-11-2019 11:45:00 11.6 C 79 % 8.09 C
3311 05-11-2019 11:50:00 11.6 C 79 % 8.09 C
3312 05-11-2019 11:55:00 11.6 C 79 % 8.09 C
3313 05-11-2019 12:00:00 11.7 C 79 % 8.18 C
3314 05-11-2019 12:05:00 11.7 C 79 % 8.18 C
3315 05-11-2019 12:10:00 11.8 C 79 % 8.28 C
3316 05-11-2019 12:15:00 11.8 C 78 % 8.09 C
3317 05-11-2019 12:20:00 11.9 C 77 % 8 C
3318 05-11-2019 12:25:00 11.9 C 77 % 8 C
3319 05-11-2019 12:30:00 11.9 C 77 % 8 C
3320 05-11-2019 12:35:00 11.9 C 76 % 7.81 C
3321 05-11-2019 12:40:00 11.9 C 78 % 8.19 C
3322 05-11-2019 12:45:00 11.9 C 78 % 8.19 C
3323 05-11-2019 12:50:00 11.8 C 78 % 8.09 C
3324 05-11-2019 12:55:00 11.8 C 80 % 8.47 C
3325 05-11-2019 13:00:00 11.7 C 80 % 8.37 C
Sensor: Nr:Datum:Temp:Feuchte:Taupunkt:
Aussen-T/F 3326 05-11-2019 13:05:00 11.8 C 80 % 8.47 C
3327 05-11-2019 13:10:00 11.7 C 78 % 8 C
3328 05-11-2019 13:15:00 11.8 C 80 % 8.47 C
3329 05-11-2019 13:20:00 11.8 C 80 % 8.47 C
3330 05-11-2019 13:25:00 11.8 C 80 % 8.47 C
3331 05-11-2019 13:30:00 11.9 C 80 % 8.56 C
3332 05-11-2019 13:35:00 11.9 C 79 % 8.38 C
3333 05-11-2019 13:40:00 12 C 79 % 8.48 C
3334 05-11-2019 13:45:00 12.1 C 79 % 8.57 C
3335 05-11-2019 13:50:00 12.1 C 79 % 8.57 C
3336 05-11-2019 13:55:00 12.1 C 79 % 8.57 C
3337 05-11-2019 14:00:00 12.1 C 79 % 8.57 C
3338 05-11-2019 14:05:00 12.1 C 79 % 8.57 C
3339 05-11-2019 14:10:00 12.1 C 78 % 8.38 C
3340 05-11-2019 14:15:00 12.1 C 80 % 8.76 C
3341 05-11-2019 14:20:00 12.1 C 80 % 8.76 C
3342 05-11-2019 14:25:00 12 C 80 % 8.66 C
3343 05-11-2019 14:30:00 12 C 81 % 8.84 C
3344 05-11-2019 14:35:00 12 C 81 % 8.84 C
3345 05-11-2019 14:40:00 12 C 82 % 9.03 C
3346 05-11-2019 14:45:00 12.1 C 83 % 9.3 C
3347 05-11-2019 14:50:00 12.1 C 82 % 9.12 C
3348 05-11-2019 14:55:00 12.1 C 82 % 9.12 C
3349 05-11-2019 15:00:00 12.1 C 80 % 8.76 C
3350 05-11-2019 15:05:00 12.1 C 79 % 8.57 C
Sensor: Nr:Datum:Temp:Feuchte:Taupunkt:
Aussen-T/F 3351 05-11-2019 15:10:00 12.1 C 79 % 8.57 C
3352 05-11-2019 15:15:00 12.1 C 80 % 8.76 C
3353 05-11-2019 15:20:00 12 C 80 % 8.66 C
3354 05-11-2019 15:25:00 11.8 C 80 % 8.47 C
3355 05-11-2019 15:30:00 11.8 C 82 % 8.83 C
3356 05-11-2019 15:35:00 11.8 C 84 % 9.19 C
3357 05-11-2019 15:40:00 11.8 C 85 % 9.36 C
3358 05-11-2019 15:45:00 11.7 C 85 % 9.27 C
3359 05-11-2019 15:50:00 11.6 C 86 % 9.34 C
3360 05-11-2019 15:55:00 11.6 C 86 % 9.34 C
3361 05-11-2019 16:00:00 11.6 C 86 % 9.34 C
3362 05-11-2019 16:05:00 11.6 C 87 % 9.51 C
3363 05-11-2019 16:10:00 11.6 C 87 % 9.51 C
3364 05-11-2019 16:15:00 11.4 C 86 % 9.14 C
3365 05-11-2019 16:20:00 11.2 C 86 % 8.95 C
3366 05-11-2019 16:25:00 10.9 C 86 % 8.65 C
3367 05-11-2019 16:30:00 10.7 C 86 % 8.46 C
3368 05-11-2019 16:35:00 10.4 C 86 % 8.16 C
3369 05-11-2019 16:40:00 10.3 C 87 % 8.23 C
3370 05-11-2019 16:45:00 10.2 C 88 % 8.3 C
3371 05-11-2019 16:50:00 10.2 C 89 % 8.47 C
3372 05-11-2019 16:55:00 10.2 C 89 % 8.47 C
3373 05-11-2019 17:00:00 10.1 C 90 % 8.54 C
3374 05-11-2019 17:05:00 10.1 C 90 % 8.54 C
3375 05-11-2019 17:10:00 10.1 C 90 % 8.54 C
Sensor: Nr:Datum:Temp:Feuchte:Taupunkt:
Aussen-T/F 3376 05-11-2019 17:15:00 10.1 C 91 % 8.7 C
3377 05-11-2019 17:20:00 10 C 91 % 8.6 C
3378 05-11-2019 17:25:00 10 C 91 % 8.6 C
3379 05-11-2019 17:30:00 9.9 C 91 % 8.5 C
3380 05-11-2019 17:35:00 9.9 C 91 % 8.5 C
3381 05-11-2019 17:40:00 9.8 C 91 % 8.4 C
3382 05-11-2019 17:45:00 9.6 C 91 % 8.21 C
3383 05-11-2019 17:50:00 9.4 C 91 % 8.01 C
3384 05-11-2019 17:55:00 9.3 C 92 % 8.07 C
3385 05-11-2019 18:00:00 9.3 C 92 % 8.07 C
3386 05-11-2019 18:05:00 9.2 C 92 % 7.97 C
3387 05-11-2019 18:10:00 9.2 C 92 % 7.97 C
3388 05-11-2019 18:15:00 9.2 C 93 % 8.13 C
3389 05-11-2019 18:20:00 9.2 C 93 % 8.13 C
3390 05-11-2019 18:25:00 9.2 C 93 % 8.13 C
3391 05-11-2019 18:30:00 9.1 C 92 % 7.87 C
3392 05-11-2019 18:35:00 8.9 C 93 % 7.83 C
3393 05-11-2019 18:40:00 8.8 C 93 % 7.73 C
3394 05-11-2019 18:45:00 8.8 C 93 % 7.73 C
3395 05-11-2019 18:50:00 8.7 C 93 % 7.63 C
3396 05-11-2019 18:55:00 8.7 C 93 % 7.63 C
3397 05-11-2019 19:00:00 8.7 C 93 % 7.63 C
3398 05-11-2019 19:05:00 8.6 C 93 % 7.53 C
3399 05-11-2019 19:10:00 8.6 C 93 % 7.53 C
3400 05-11-2019 19:15:00 8.5 C 94 % 7.59 C
Sensor: Nr:Datum:Temp:Feuchte:Taupunkt:
Aussen-T/F 3401 05-11-2019 19:20:00 8.5 C 94 % 7.59 C
3402 05-11-2019 19:25:00 8.5 C 94 % 7.59 C
3403 05-11-2019 19:30:00 8.5 C 94 % 7.59 C
3404 05-11-2019 19:35:00 8.4 C 94 % 7.49 C
3405 05-11-2019 19:40:00 8.5 C 94 % 7.59 C
3406 05-11-2019 19:45:00 8.5 C 94 % 7.59 C
3407 05-11-2019 19:50:00 8.6 C 94 % 7.69 C
3408 05-11-2019 19:55:00 8.6 C 94 % 7.69 C
3409 05-11-2019 20:00:00 8.5 C 95 % 7.75 C
3410 05-11-2019 20:05:00 8.5 C 95 % 7.75 C
3411 05-11-2019 20:10:00 8.5 C 94 % 7.59 C
3412 05-11-2019 20:15:00 8.6 C 95 % 7.85 C
3413 05-11-2019 20:20:00 8.6 C 95 % 7.85 C
3414 05-11-2019 20:25:00 8.6 C 94 % 7.69 C
3415 05-11-2019 20:30:00 8.6 C 94 % 7.69 C
3416 05-11-2019 20:35:00 8.5 C 94 % 7.59 C
3417 05-11-2019 20:40:00 8.4 C 94 % 7.49 C
3418 05-11-2019 20:45:00 8.3 C 94 % 7.39 C
3419 05-11-2019 20:50:00 8.1 C 94 % 7.19 C
3420 05-11-2019 20:55:00 7.9 C 94 % 7 C
3421 05-11-2019 21:00:00 7.9 C 94 % 7 C
3422 05-11-2019 21:05:00 7.9 C 95 % 7.15 C
3423 05-11-2019 21:10:00 7.9 C 95 % 7.15 C
3424 05-11-2019 21:15:00 7.9 C 95 % 7.15 C
3425 05-11-2019 21:20:00 7.9 C 95 % 7.15 C
Sensor: Nr:Datum:Temp:Feuchte:Taupunkt:
Aussen-T/F 3426 05-11-2019 21:25:00 8 C 95 % 7.25 C
3427 05-11-2019 21:30:00 8 C 95 % 7.25 C
3428 05-11-2019 21:35:00 8 C 95 % 7.25 C
3429 05-11-2019 21:40:00 8 C 95 % 7.25 C
3430 05-11-2019 21:45:00 8 C 95 % 7.25 C
3431 05-11-2019 21:50:00 8 C 95 % 7.25 C
3432 05-11-2019 21:55:00 8 C 95 % 7.25 C
3433 05-11-2019 22:00:00 8 C 95 % 7.25 C
3434 05-11-2019 22:05:00 8 C 95 % 7.25 C
3435 05-11-2019 22:10:00 8 C 95 % 7.25 C
3436 05-11-2019 22:15:00 8 C 95 % 7.25 C
3437 05-11-2019 22:20:00 8 C 95 % 7.25 C
3438 05-11-2019 22:25:00 8 C 95 % 7.25 C
3439 05-11-2019 22:30:00 8 C 95 % 7.25 C
3440 05-11-2019 22:35:00 8 C 95 % 7.25 C
3441 05-11-2019 22:40:00 8 C 95 % 7.25 C
3442 05-11-2019 22:45:00 8 C 96 % 7.4 C
3443 05-11-2019 22:50:00 8 C 96 % 7.4 C
3444 05-11-2019 22:55:00 8.1 C 96 % 7.5 C
3445 05-11-2019 23:00:00 8.1 C 96 % 7.5 C
3446 05-11-2019 23:05:00 8.1 C 96 % 7.5 C
3447 05-11-2019 23:10:00 8.1 C 96 % 7.5 C
3448 05-11-2019 23:15:00 8.2 C 96 % 7.6 C
3449 05-11-2019 23:20:00 8.2 C 96 % 7.6 C
3450 05-11-2019 23:25:00 8.2 C 96 % 7.6 C
Sensor: Nr:Datum:Temp:Feuchte:Taupunkt:
Aussen-T/F 3451 05-11-2019 23:30:00 8.1 C 96 % 7.5 C
3452 05-11-2019 23:35:00 8.1 C 96 % 7.5 C
3453 05-11-2019 23:40:00 8 C 96 % 7.4 C
3454 05-11-2019 23:45:00 8.1 C 96 % 7.5 C
3455 05-11-2019 23:50:00 8.1 C 96 % 7.5 C
3456 05-11-2019 23:55:00 8.1 C 96 % 7.5 C
3457 06-11-2019 00:00:00 8.1 C 96 % 7.5 C
3458 06-11-2019 00:05:00 8.2 C 96 % 7.6 C
3459 06-11-2019 00:10:00 8.2 C 96 % 7.6 C
3460 06-11-2019 00:15:00 8.2 C 96 % 7.6 C
3461 06-11-2019 00:20:00 8.2 C 96 % 7.6 C
3462 06-11-2019 00:25:00 8.2 C 96 % 7.6 C
3463 06-11-2019 00:30:00 8.2 C 96 % 7.6 C
3464 06-11-2019 00:35:00 8.2 C 96 % 7.6 C
3465 06-11-2019 00:40:00 8.2 C 96 % 7.6 C
3466 06-11-2019 00:45:00 8.2 C 96 % 7.6 C
3467 06-11-2019 00:50:00 8.2 C 96 % 7.6 C
3468 06-11-2019 00:55:00 8.3 C 96 % 7.7 C
3469 06-11-2019 01:00:00 8.3 C 96 % 7.7 C
3470 06-11-2019 01:05:00 8.3 C 96 % 7.7 C
3471 06-11-2019 01:10:00 8.3 C 96 % 7.7 C
3472 06-11-2019 01:15:00 8.3 C 96 % 7.7 C
3473 06-11-2019 01:20:00 8.3 C 96 % 7.7 C
3474 06-11-2019 01:25:00 8.3 C 96 % 7.7 C
3475 06-11-2019 01:30:00 8.3 C 96 % 7.7 C
Sensor: Nr:Datum:Temp:Feuchte:Taupunkt:
Aussen-T/F 3476 06-11-2019 01:35:00 8.2 C 96 % 7.6 C
3477 06-11-2019 01:40:00 8.1 C 96 % 7.5 C
3478 06-11-2019 01:45:00 8 C 96 % 7.4 C
3479 06-11-2019 01:50:00 8 C 96 % 7.4 C
3480 06-11-2019 01:55:00 8 C 96 % 7.4 C
3481 06-11-2019 02:00:00 8 C 96 % 7.4 C
3482 06-11-2019 02:05:00 8 C 96 % 7.4 C
3483 06-11-2019 02:10:00 8 C 96 % 7.4 C
3484 06-11-2019 02:15:00 8.1 C 96 % 7.5 C
3485 06-11-2019 02:20:00 8.2 C 96 % 7.6 C
3486 06-11-2019 02:25:00 8.2 C 96 % 7.6 C
3487 06-11-2019 02:30:00 8.2 C 96 % 7.6 C
3488 06-11-2019 02:35:00 8.2 C 96 % 7.6 C
3489 06-11-2019 02:40:00 8.3 C 96 % 7.7 C
3490 06-11-2019 02:45:00 8.3 C 97 % 7.85 C
3491 06-11-2019 02:50:00 8.3 C 97 % 7.85 C
3492 06-11-2019 02:55:00 8.3 C 97 % 7.85 C
3493 06-11-2019 03:00:00 8.3 C 96 % 7.7 C
3494 06-11-2019 03:05:00 8.3 C 96 % 7.7 C
3495 06-11-2019 03:10:00 8.2 C 96 % 7.6 C
3496 06-11-2019 03:15:00 8 C 96 % 7.4 C
3497 06-11-2019 03:20:00 7.9 C 96 % 7.3 C
3498 06-11-2019 03:25:00 7.8 C 96 % 7.2 C
3499 06-11-2019 03:30:00 7.7 C 96 % 7.1 C
3500 06-11-2019 03:35:00 7.6 C 96 % 7 C
Sensor: Nr:Datum:Temp:Feuchte:Taupunkt:
Aussen-T/F 3501 06-11-2019 03:40:00 7.6 C 96 % 7 C
3502 06-11-2019 03:45:00 7.4 C 96 % 6.8 C
3503 06-11-2019 03:50:00 7.4 C 96 % 6.8 C
3504 06-11-2019 03:55:00 7.3 C 96 % 6.71 C
3505 06-11-2019 04:00:00 7.3 C 96 % 6.71 C
3506 06-11-2019 04:05:00 7.3 C 96 % 6.71 C
3507 06-11-2019 04:10:00 7.3 C 96 % 6.71 C
3508 06-11-2019 04:15:00 7.4 C 96 % 6.8 C
3509 06-11-2019 04:20:00 7.4 C 97 % 6.96 C
3510 06-11-2019 04:25:00 7.5 C 97 % 7.06 C
3511 06-11-2019 04:30:00 7.5 C 97 % 7.06 C
3512 06-11-2019 04:35:00 7.6 C 97 % 7.16 C
3513 06-11-2019 04:40:00 7.6 C 97 % 7.16 C
3514 06-11-2019 04:45:00 7.6 C 97 % 7.16 C
3515 06-11-2019 04:50:00 7.5 C 96 % 6.9 C
3516 06-11-2019 04:55:00 7.4 C 96 % 6.8 C
3517 06-11-2019 05:00:00 7.4 C 97 % 6.96 C
3518 06-11-2019 05:05:00 7.4 C 97 % 6.96 C
3519 06-11-2019 05:10:00 7.4 C 97 % 6.96 C
3520 06-11-2019 05:15:00 7.5 C 97 % 7.06 C
3521 06-11-2019 05:20:00 7.5 C 97 % 7.06 C
3522 06-11-2019 05:25:00 7.5 C 97 % 7.06 C
3523 06-11-2019 05:30:00 7.5 C 97 % 7.06 C
3524 06-11-2019 05:35:00 7.6 C 97 % 7.16 C
3525 06-11-2019 05:40:00 7.6 C 97 % 7.16 C
Sensor: Nr:Datum:Temp:Feuchte:Taupunkt:
Aussen-T/F 3526 06-11-2019 05:45:00 7.5 C 97 % 7.06 C
3527 06-11-2019 05:50:00 7.5 C 97 % 7.06 C
3528 06-11-2019 05:55:00 7.5 C 97 % 7.06 C
3529 06-11-2019 06:00:00 7.5 C 97 % 7.06 C
3530 06-11-2019 06:05:00 7.6 C 97 % 7.16 C
3531 06-11-2019 06:10:00 7.6 C 97 % 7.16 C
3532 06-11-2019 06:15:00 7.6 C 97 % 7.16 C
3533 06-11-2019 06:20:00 7.6 C 97 % 7.16 C
3534 06-11-2019 06:25:00 7.7 C 97 % 7.25 C
3535 06-11-2019 06:30:00 7.7 C 97 % 7.25 C
3536 06-11-2019 06:35:00 7.7 C 97 % 7.25 C
3537 06-11-2019 06:40:00 7.7 C 97 % 7.25 C
3538 06-11-2019 06:45:00 7.7 C 97 % 7.25 C
3539 06-11-2019 06:50:00 7.7 C 97 % 7.25 C
3540 06-11-2019 06:55:00 7.7 C 97 % 7.25 C
3541 06-11-2019 07:00:00 7.7 C 97 % 7.25 C
3542 06-11-2019 07:05:00 7.7 C 97 % 7.25 C
3543 06-11-2019 07:10:00 7.7 C 97 % 7.25 C
3544 06-11-2019 07:15:00 7.7 C 97 % 7.25 C
3545 06-11-2019 07:20:00 7.7 C 97 % 7.25 C
3546 06-11-2019 07:25:00 7.7 C 97 % 7.25 C
3547 06-11-2019 07:30:00 7.6 C 97 % 7.16 C
3548 06-11-2019 07:35:00 7.6 C 97 % 7.16 C
3549 06-11-2019 07:40:00 7.6 C 97 % 7.16 C
3550 06-11-2019 07:45:00 7.6 C 97 % 7.16 C
Sensor: Nr:Datum:Temp:Feuchte:Taupunkt:
Aussen-T/F 3551 06-11-2019 07:50:00 7.6 C 97 % 7.16 C
3552 06-11-2019 07:55:00 7.6 C 97 % 7.16 C
3553 06-11-2019 08:00:00 7.7 C 97 % 7.25 C
3554 06-11-2019 08:05:00 7.7 C 97 % 7.25 C
3555 06-11-2019 08:10:00 7.7 C 97 % 7.25 C
3556 06-11-2019 08:15:00 7.8 C 97 % 7.35 C
3557 06-11-2019 08:20:00 7.8 C 97 % 7.35 C
3558 06-11-2019 08:25:00 7.9 C 97 % 7.45 C
3559 06-11-2019 08:30:00 7.9 C 97 % 7.45 C
3560 06-11-2019 08:35:00 8 C 97 % 7.55 C
3561 06-11-2019 08:40:00 8.2 C 97 % 7.75 C
3562 06-11-2019 08:45:00 8.3 C 97 % 7.85 C
3563 06-11-2019 08:50:00 8.3 C 97 % 7.85 C
3564 06-11-2019 08:55:00 8.4 C 97 % 7.95 C
3565 06-11-2019 09:00:00 8.5 C 97 % 8.05 C
3566 06-11-2019 09:05:00 8.6 C 97 % 8.15 C
3567 06-11-2019 09:10:00 8.6 C 97 % 8.15 C
3568 06-11-2019 09:15:00 8.7 C 97 % 8.25 C
3569 06-11-2019 09:20:00 8.7 C 97 % 8.25 C
3570 06-11-2019 09:25:00 8.8 C 97 % 8.35 C
3571 06-11-2019 09:30:00 8.8 C 97 % 8.35 C
3572 06-11-2019 09:35:00 8.9 C 97 % 8.45 C
3573 06-11-2019 09:40:00 8.9 C 96 % 8.3 C
3574 06-11-2019 09:45:00 9 C 96 % 8.4 C
3575 06-11-2019 09:50:00 9.1 C 96 % 8.5 C
Sensor: Nr:Datum:Temp:Feuchte:Taupunkt:
Aussen-T/F 3576 06-11-2019 09:55:00 9.2 C 95 % 8.44 C
3577 06-11-2019 10:00:00 9.2 C 95 % 8.44 C
3578 06-11-2019 10:05:00 9.3 C 94 % 8.39 C
3579 06-11-2019 10:10:00 9.4 C 94 % 8.48 C
3580 06-11-2019 10:15:00 9.5 C 93 % 8.43 C
3581 06-11-2019 10:20:00 9.6 C 93 % 8.53 C
3582 06-11-2019 10:25:00 9.7 C 92 % 8.46 C
3583 06-11-2019 10:30:00 9.8 C 92 % 8.56 C
3584 06-11-2019 10:35:00 9.8 C 92 % 8.56 C
3585 06-11-2019 10:40:00 9.9 C 91 % 8.5 C
3586 06-11-2019 10:45:00 9.9 C 91 % 8.5 C
3587 06-11-2019 10:50:00 10 C 91 % 8.6 C
3588 06-11-2019 10:55:00 10.1 C 91 % 8.7 C
3589 06-11-2019 11:00:00 10.1 C 91 % 8.7 C
3590 06-11-2019 11:05:00 10.1 C 91 % 8.7 C
3591 06-11-2019 11:10:00 10.1 C 92 % 8.86 C
3592 06-11-2019 11:15:00 10.1 C 91 % 8.7 C
3593 06-11-2019 11:20:00 10.1 C 92 % 8.86 C
3594 06-11-2019 11:25:00 10.2 C 92 % 8.96 C
3595 06-11-2019 11:30:00 10.1 C 92 % 8.86 C
3596 06-11-2019 11:35:00 10.2 C 92 % 8.96 C
3597 06-11-2019 11:40:00 10.2 C 92 % 8.96 C
3598 06-11-2019 11:45:00 10.2 C 92 % 8.96 C
3599 06-11-2019 11:50:00 10.2 C 92 % 8.96 C
3600 06-11-2019 11:55:00 10.2 C 93 % 9.12 C
Sensor: Nr:Datum:Temp:Feuchte:Taupunkt:
Aussen-T/F 3601 06-11-2019 12:00:00 10.3 C 93 % 9.22 C
3602 06-11-2019 12:05:00 10.4 C 93 % 9.32 C
3603 06-11-2019 12:10:00 10.4 C 92 % 9.16 C
3604 06-11-2019 12:15:00 10.4 C 92 % 9.16 C
3605 06-11-2019 12:20:00 10.4 C 92 % 9.16 C
3606 06-11-2019 12:25:00 10.4 C 92 % 9.16 C
3607 06-11-2019 12:30:00 10.3 C 92 % 9.06 C
3608 06-11-2019 12:35:00 10.3 C 92 % 9.06 C
3609 06-11-2019 12:40:00 10.3 C 92 % 9.06 C
3610 06-11-2019 12:45:00 10.3 C 92 % 9.06 C
3611 06-11-2019 12:50:00 10.3 C 92 % 9.06 C
3612 06-11-2019 12:55:00 10.4 C 92 % 9.16 C
3613 06-11-2019 13:00:00 10.4 C 92 % 9.16 C
3614 06-11-2019 13:05:00 10.5 C 92 % 9.26 C
3615 06-11-2019 13:10:00 10.6 C 91 % 9.19 C
3616 06-11-2019 13:15:00 10.6 C 91 % 9.19 C
3617 06-11-2019 13:20:00 10.6 C 91 % 9.19 C
3618 06-11-2019 13:25:00 10.6 C 90 % 9.03 C
3619 06-11-2019 13:30:00 10.6 C 90 % 9.03 C
3620 06-11-2019 13:35:00 10.6 C 90 % 9.03 C
3621 06-11-2019 13:40:00 10.6 C 90 % 9.03 C
3622 06-11-2019 13:45:00 10.7 C 90 % 9.13 C
3623 06-11-2019 13:50:00 10.7 C 90 % 9.13 C
3624 06-11-2019 13:55:00 10.7 C 90 % 9.13 C
3625 06-11-2019 14:00:00 10.7 C 90 % 9.13 C
Sensor: Nr:Datum:Temp:Feuchte:Taupunkt:
Aussen-T/F 3626 06-11-2019 14:05:00 10.6 C 90 % 9.03 C
3627 06-11-2019 14:10:00 10.6 C 90 % 9.03 C
3628 06-11-2019 14:15:00 10.5 C 90 % 8.93 C
3629 06-11-2019 14:20:00 10.4 C 91 % 9 C
3630 06-11-2019 14:25:00 10.4 C 92 % 9.16 C
3631 06-11-2019 14:30:00 10.3 C 91 % 8.9 C
3632 06-11-2019 14:35:00 10.3 C 92 % 9.06 C
3633 06-11-2019 14:40:00 10.4 C 93 % 9.32 C
3634 06-11-2019 14:45:00 10.4 C 93 % 9.32 C
3635 06-11-2019 14:50:00 10.3 C 93 % 9.22 C
3636 06-11-2019 14:55:00 10.3 C 92 % 9.06 C
3637 06-11-2019 15:00:00 10.2 C 93 % 9.12 C
3638 06-11-2019 15:05:00 10.2 C 93 % 9.12 C
3639 06-11-2019 15:10:00 10.2 C 93 % 9.12 C
3640 06-11-2019 15:15:00 10.3 C 93 % 9.22 C
3641 06-11-2019 15:20:00 10.3 C 93 % 9.22 C
3642 06-11-2019 15:25:00 10.3 C 93 % 9.22 C
3643 06-11-2019 15:30:00 10.3 C 93 % 9.22 C
3644 06-11-2019 15:35:00 10.3 C 93 % 9.22 C
3645 06-11-2019 15:40:00 10.2 C 94 % 9.28 C
3646 06-11-2019 15:45:00 10.2 C 94 % 9.28 C
3647 06-11-2019 15:50:00 10.2 C 94 % 9.28 C
3648 06-11-2019 15:55:00 10.2 C 94 % 9.28 C
3649 06-11-2019 16:00:00 10.1 C 94 % 9.18 C
3650 06-11-2019 16:05:00 10.1 C 94 % 9.18 C
Sensor: Nr:Datum:Temp:Feuchte:Taupunkt:
Aussen-T/F 3651 06-11-2019 16:10:00 10.1 C 94 % 9.18 C
3652 06-11-2019 16:15:00 10.1 C 94 % 9.18 C
3653 06-11-2019 16:20:00 10.1 C 94 % 9.18 C
3654 06-11-2019 16:25:00 10.1 C 94 % 9.18 C
3655 06-11-2019 16:30:00 10 C 94 % 9.08 C
3656 06-11-2019 16:35:00 10 C 94 % 9.08 C
3657 06-11-2019 16:40:00 9.9 C 94 % 8.98 C
3658 06-11-2019 16:45:00 9.9 C 95 % 9.14 C
3659 06-11-2019 16:50:00 9.8 C 94 % 8.88 C
3660 06-11-2019 16:55:00 9.8 C 94 % 8.88 C
3661 06-11-2019 17:00:00 9.8 C 95 % 9.04 C
3662 06-11-2019 17:05:00 9.7 C 95 % 8.94 C
3663 06-11-2019 17:10:00 9.7 C 95 % 8.94 C
3664 06-11-2019 17:15:00 9.7 C 95 % 8.94 C
3665 06-11-2019 17:20:00 9.7 C 95 % 8.94 C
3666 06-11-2019 17:25:00 9.7 C 95 % 8.94 C
3667 06-11-2019 17:30:00 9.7 C 95 % 8.94 C
3668 06-11-2019 17:35:00 9.7 C 95 % 8.94 C
3669 06-11-2019 17:40:00 9.7 C 95 % 8.94 C
3670 06-11-2019 17:45:00 9.6 C 95 % 8.84 C
3671 06-11-2019 17:50:00 9.6 C 95 % 8.84 C
3672 06-11-2019 17:55:00 9.6 C 95 % 8.84 C
3673 06-11-2019 18:00:00 9.6 C 95 % 8.84 C
3674 06-11-2019 18:05:00 9.6 C 95 % 8.84 C
3675 06-11-2019 18:10:00 9.6 C 95 % 8.84 C
Sensor: Nr:Datum:Temp:Feuchte:Taupunkt:
Aussen-T/F 3676 06-11-2019 18:15:00 9.6 C 96 % 8.99 C
3677 06-11-2019 18:20:00 9.6 C 96 % 8.99 C
3678 06-11-2019 18:25:00 9.6 C 96 % 8.99 C
3679 06-11-2019 18:30:00 9.6 C 96 % 8.99 C
3680 06-11-2019 18:35:00 9.6 C 96 % 8.99 C
3681 06-11-2019 18:40:00 9.6 C 96 % 8.99 C
3682 06-11-2019 18:45:00 9.6 C 96 % 8.99 C
3683 06-11-2019 18:50:00 9.6 C 96 % 8.99 C
3684 06-11-2019 18:55:00 9.6 C 96 % 8.99 C
3685 06-11-2019 19:00:00 9.6 C 96 % 8.99 C
3686 06-11-2019 19:05:00 9.6 C 96 % 8.99 C
3687 06-11-2019 19:10:00 9.5 C 96 % 8.89 C
3688 06-11-2019 19:15:00 9.5 C 96 % 8.89 C
3689 06-11-2019 19:20:00 9.4 C 96 % 8.8 C
3690 06-11-2019 19:25:00 9.4 C 96 % 8.8 C
3691 06-11-2019 19:30:00 9.4 C 96 % 8.8 C
3692 06-11-2019 19:35:00 9.3 C 96 % 8.7 C
3693 06-11-2019 19:40:00 9.3 C 96 % 8.7 C
3694 06-11-2019 19:45:00 9.3 C 96 % 8.7 C
3695 06-11-2019 19:50:00 9.3 C 96 % 8.7 C
3696 06-11-2019 19:55:00 9.3 C 96 % 8.7 C
3697 06-11-2019 20:00:00 9.2 C 96 % 8.6 C
3698 06-11-2019 20:05:00 9.2 C 96 % 8.6 C
3699 06-11-2019 20:10:00 9.2 C 96 % 8.6 C
3700 06-11-2019 20:15:00 9.2 C 96 % 8.6 C
Sensor: Nr:Datum:Temp:Feuchte:Taupunkt:
Aussen-T/F 3701 06-11-2019 20:20:00 9.2 C 96 % 8.6 C
3702 06-11-2019 20:25:00 9.1 C 96 % 8.5 C
3703 06-11-2019 20:30:00 9.1 C 96 % 8.5 C
3704 06-11-2019 20:35:00 9.1 C 96 % 8.5 C
3705 06-11-2019 20:40:00 9.1 C 96 % 8.5 C
3706 06-11-2019 20:45:00 9.1 C 96 % 8.5 C
3707 06-11-2019 20:50:00 9.1 C 96 % 8.5 C
3708 06-11-2019 20:55:00 9 C 96 % 8.4 C
3709 06-11-2019 21:00:00 9 C 96 % 8.4 C
3710 06-11-2019 21:05:00 9 C 96 % 8.4 C
3711 06-11-2019 21:10:00 9 C 96 % 8.4 C
3712 06-11-2019 21:15:00 9 C 96 % 8.4 C
3713 06-11-2019 21:20:00 9 C 97 % 8.55 C
3714 06-11-2019 21:25:00 9 C 97 % 8.55 C
3715 06-11-2019 21:30:00 9 C 97 % 8.55 C
3716 06-11-2019 21:35:00 9 C 97 % 8.55 C
3717 06-11-2019 21:40:00 9 C 97 % 8.55 C
3718 06-11-2019 21:45:00 8.9 C 97 % 8.45 C
3719 06-11-2019 21:50:00 8.9 C 97 % 8.45 C
3720 06-11-2019 21:55:00 8.9 C 97 % 8.45 C
3721 06-11-2019 22:00:00 8.9 C 96 % 8.3 C
3722 06-11-2019 22:05:00 8.9 C 96 % 8.3 C
3723 06-11-2019 22:10:00 8.9 C 96 % 8.3 C
3724 06-11-2019 22:15:00 8.9 C 96 % 8.3 C
3725 06-11-2019 22:20:00 8.9 C 96 % 8.3 C
Sensor: Nr:Datum:Temp:Feuchte:Taupunkt:
Aussen-T/F 3726 06-11-2019 22:25:00 8.9 C 96 % 8.3 C
3727 06-11-2019 22:30:00 8.9 C 96 % 8.3 C
3728 06-11-2019 22:35:00 8.9 C 96 % 8.3 C
3729 06-11-2019 22:40:00 8.9 C 96 % 8.3 C
3730 06-11-2019 22:45:00 8.9 C 96 % 8.3 C
3731 06-11-2019 22:50:00 8.9 C 97 % 8.45 C
3732 06-11-2019 22:55:00 8.9 C 97 % 8.45 C
3733 06-11-2019 23:00:00 8.9 C 97 % 8.45 C
3734 06-11-2019 23:05:00 8.9 C 97 % 8.45 C
3735 06-11-2019 23:10:00 8.9 C 97 % 8.45 C
3736 06-11-2019 23:15:00 8.9 C 97 % 8.45 C
3737 06-11-2019 23:20:00 8.9 C 97 % 8.45 C
3738 06-11-2019 23:25:00 8.9 C 97 % 8.45 C
3739 06-11-2019 23:30:00 8.9 C 97 % 8.45 C
3740 06-11-2019 23:35:00 8.8 C 97 % 8.35 C
3741 06-11-2019 23:40:00 8.8 C 97 % 8.35 C
3742 06-11-2019 23:45:00 8.8 C 97 % 8.35 C
3743 06-11-2019 23:50:00 8.8 C 97 % 8.35 C
3744 06-11-2019 23:55:00 8.8 C 97 % 8.35 C
3745 07-11-2019 00:00:00 8.8 C 97 % 8.35 C
3746 07-11-2019 00:05:00 8.8 C 97 % 8.35 C
3747 07-11-2019 00:10:00 8.7 C 97 % 8.25 C
3748 07-11-2019 00:15:00 8.7 C 97 % 8.25 C
3749 07-11-2019 00:20:00 8.6 C 97 % 8.15 C
3750 07-11-2019 00:25:00 8.6 C 97 % 8.15 C
Sensor: Nr:Datum:Temp:Feuchte:Taupunkt:
Aussen-T/F 3751 07-11-2019 00:30:00 8.4 C 97 % 7.95 C
3752 07-11-2019 00:35:00 8.4 C 97 % 7.95 C
3753 07-11-2019 00:40:00 8.3 C 97 % 7.85 C
3754 07-11-2019 00:45:00 8.3 C 97 % 7.85 C
3755 07-11-2019 00:50:00 8.3 C 97 % 7.85 C
3756 07-11-2019 00:55:00 8.3 C 97 % 7.85 C
3757 07-11-2019 01:00:00 8.2 C 97 % 7.75 C
3758 07-11-2019 01:05:00 8.2 C 97 % 7.75 C
3759 07-11-2019 01:10:00 8.2 C 97 % 7.75 C
3760 07-11-2019 01:15:00 8.2 C 97 % 7.75 C
3761 07-11-2019 01:20:00 8.1 C 97 % 7.65 C
3762 07-11-2019 01:25:00 8.1 C 97 % 7.65 C
3763 07-11-2019 01:30:00 8.1 C 97 % 7.65 C
3764 07-11-2019 01:35:00 8 C 97 % 7.55 C
3765 07-11-2019 01:40:00 8 C 97 % 7.55 C
3766 07-11-2019 01:45:00 7.9 C 97 % 7.45 C
3767 07-11-2019 01:50:00 7.9 C 97 % 7.45 C
3768 07-11-2019 01:55:00 7.9 C 97 % 7.45 C
3769 07-11-2019 02:00:00 7.9 C 97 % 7.45 C
3770 07-11-2019 02:05:00 7.9 C 97 % 7.45 C
3771 07-11-2019 02:10:00 7.9 C 97 % 7.45 C
3772 07-11-2019 02:15:00 7.9 C 97 % 7.45 C
3773 07-11-2019 02:20:00 7.9 C 97 % 7.45 C
3774 07-11-2019 02:25:00 7.9 C 97 % 7.45 C
3775 07-11-2019 02:30:00 8 C 97 % 7.55 C
Sensor: Nr:Datum:Temp:Feuchte:Taupunkt:
Aussen-T/F 3776 07-11-2019 02:35:00 8 C 97 % 7.55 C
3777 07-11-2019 02:40:00 8.1 C 97 % 7.65 C
3778 07-11-2019 02:45:00 8.1 C 97 % 7.65 C
3779 07-11-2019 02:50:00 8.1 C 97 % 7.65 C
3780 07-11-2019 02:55:00 8.1 C 97 % 7.65 C
3781 07-11-2019 03:00:00 8.1 C 97 % 7.65 C
3782 07-11-2019 03:05:00 8.1 C 97 % 7.65 C
3783 07-11-2019 03:10:00 8.1 C 97 % 7.65 C
3784 07-11-2019 03:15:00 8.1 C 97 % 7.65 C
3785 07-11-2019 03:20:00 8 C 97 % 7.55 C
3786 07-11-2019 03:25:00 7.9 C 97 % 7.45 C
3787 07-11-2019 03:30:00 7.9 C 97 % 7.45 C
3788 07-11-2019 03:35:00 7.8 C 97 % 7.35 C
3789 07-11-2019 03:40:00 7.8 C 97 % 7.35 C
3790 07-11-2019 03:45:00 7.8 C 97 % 7.35 C
3791 07-11-2019 03:50:00 7.7 C 97 % 7.25 C
3792 07-11-2019 03:55:00 7.7 C 97 % 7.25 C
3793 07-11-2019 04:00:00 7.6 C 97 % 7.16 C
3794 07-11-2019 04:05:00 7.6 C 97 % 7.16 C
3795 07-11-2019 04:10:00 7.5 C 97 % 7.06 C
3796 07-11-2019 04:15:00 7.5 C 97 % 7.06 C
3797 07-11-2019 04:20:00 7.6 C 97 % 7.16 C
3798 07-11-2019 04:25:00 7.5 C 97 % 7.06 C
3799 07-11-2019 04:30:00 7.5 C 97 % 7.06 C
3800 07-11-2019 04:35:00 7.4 C 97 % 6.96 C
Sensor: Nr:Datum:Temp:Feuchte:Taupunkt:
Aussen-T/F 3801 07-11-2019 04:40:00 7.4 C 97 % 6.96 C
3802 07-11-2019 04:45:00 7.5 C 97 % 7.06 C
3803 07-11-2019 04:50:00 7.4 C 97 % 6.96 C
3804 07-11-2019 04:55:00 7.4 C 97 % 6.96 C
3805 07-11-2019 05:00:00 7.6 C 97 % 7.16 C
3806 07-11-2019 05:05:00 7.7 C 97 % 7.25 C
3807 07-11-2019 05:10:00 7.7 C 97 % 7.25 C
3808 07-11-2019 05:15:00 7.7 C 97 % 7.25 C
3809 07-11-2019 05:20:00 7.6 C 97 % 7.16 C
3810 07-11-2019 05:25:00 7.6 C 97 % 7.16 C
3811 07-11-2019 05:30:00 7.5 C 97 % 7.06 C
3812 07-11-2019 05:35:00 7.5 C 97 % 7.06 C
3813 07-11-2019 05:40:00 7.5 C 97 % 7.06 C
3814 07-11-2019 05:45:00 7.4 C 97 % 6.96 C
3815 07-11-2019 05:50:00 7.4 C 97 % 6.96 C
3816 07-11-2019 05:55:00 7.4 C 97 % 6.96 C
3817 07-11-2019 06:00:00 7.4 C 97 % 6.96 C
3818 07-11-2019 06:05:00 7.4 C 97 % 6.96 C
3819 07-11-2019 06:10:00 7.4 C 97 % 6.96 C
3820 07-11-2019 06:15:00 7.4 C 97 % 6.96 C
3821 07-11-2019 06:20:00 7.4 C 97 % 6.96 C
3822 07-11-2019 06:25:00 7.4 C 97 % 6.96 C
3823 07-11-2019 06:30:00 7.4 C 97 % 6.96 C
3824 07-11-2019 06:35:00 7.4 C 97 % 6.96 C
3825 07-11-2019 06:40:00 7.3 C 97 % 6.86 C
Sensor: Nr:Datum:Temp:Feuchte:Taupunkt:
Aussen-T/F 3826 07-11-2019 06:45:00 7.3 C 97 % 6.86 C
3827 07-11-2019 06:50:00 7.3 C 97 % 6.86 C
3828 07-11-2019 06:55:00 7.4 C 97 % 6.96 C
3829 07-11-2019 07:00:00 7.4 C 97 % 6.96 C
3830 07-11-2019 07:05:00 7.5 C 97 % 7.06 C
3831 07-11-2019 07:10:00 7.5 C 97 % 7.06 C
3832 07-11-2019 07:15:00 7.5 C 97 % 7.06 C
3833 07-11-2019 07:20:00 7.5 C 97 % 7.06 C
3834 07-11-2019 07:25:00 7.5 C 97 % 7.06 C
3835 07-11-2019 07:30:00 7.6 C 97 % 7.16 C
3836 07-11-2019 07:35:00 7.6 C 98 % 7.3 C
3837 07-11-2019 07:40:00 7.7 C 98 % 7.4 C
3838 07-11-2019 07:45:00 7.7 C 98 % 7.4 C
3839 07-11-2019 07:50:00 7.8 C 98 % 7.5 C
3840 07-11-2019 07:55:00 7.8 C 98 % 7.5 C
3841 07-11-2019 08:00:00 7.9 C 98 % 7.6 C
3842 07-11-2019 08:05:00 8 C 98 % 7.7 C
3843 07-11-2019 08:10:00 8.1 C 98 % 7.8 C
3844 07-11-2019 08:15:00 8.2 C 98 % 7.9 C
3845 07-11-2019 08:20:00 8.2 C 98 % 7.9 C
3846 07-11-2019 08:25:00 8.3 C 98 % 8 C
3847 07-11-2019 08:30:00 8.3 C 98 % 8 C
3848 07-11-2019 08:35:00 8.3 C 98 % 8 C
3849 07-11-2019 08:40:00 8.3 C 98 % 8 C
3850 07-11-2019 08:45:00 8.4 C 98 % 8.1 C
Sensor: Nr:Datum:Temp:Feuchte:Taupunkt:
Aussen-T/F 3851 07-11-2019 08:50:00 8.4 C 98 % 8.1 C
3852 07-11-2019 08:55:00 8.5 C 98 % 8.2 C
3853 07-11-2019 09:00:00 8.6 C 98 % 8.3 C
3854 07-11-2019 09:05:00 8.7 C 98 % 8.4 C
3855 07-11-2019 09:10:00 8.7 C 98 % 8.4 C
3856 07-11-2019 09:15:00 8.7 C 98 % 8.4 C
3857 07-11-2019 09:20:00 8.8 C 98 % 8.5 C
3858 07-11-2019 09:25:00 8.9 C 98 % 8.6 C
3859 07-11-2019 09:30:00 8.9 C 98 % 8.6 C
3860 07-11-2019 09:35:00 8.9 C 98 % 8.6 C
3861 07-11-2019 09:40:00 9 C 98 % 8.7 C
3862 07-11-2019 09:45:00 9 C 98 % 8.7 C
3863 07-11-2019 09:50:00 9.1 C 98 % 8.8 C
3864 07-11-2019 09:55:00 9.2 C 98 % 8.9 C
3865 07-11-2019 10:00:00 9.2 C 98 % 8.9 C
3866 07-11-2019 10:05:00 9.3 C 98 % 9 C
3867 07-11-2019 10:10:00 9.3 C 98 % 9 C
3868 07-11-2019 10:15:00 9.3 C 98 % 9 C
3869 07-11-2019 10:20:00 9.3 C 98 % 9 C
3870 07-11-2019 10:25:00 9.4 C 98 % 9.1 C
3871 07-11-2019 10:30:00 9.3 C 98 % 9 C
3872 07-11-2019 10:35:00 9.3 C 98 % 9 C
3873 07-11-2019 10:40:00 9.3 C 97 % 8.85 C
3874 07-11-2019 10:45:00 9.3 C 97 % 8.85 C
3875 07-11-2019 10:50:00 9.3 C 97 % 8.85 C
Sensor: Nr:Datum:Temp:Feuchte:Taupunkt:
Aussen-T/F 3876 07-11-2019 10:55:00 9.2 C 97 % 8.75 C
3877 07-11-2019 11:00:00 9.3 C 97 % 8.85 C
3878 07-11-2019 11:05:00 9.3 C 97 % 8.85 C
3879 07-11-2019 11:10:00 9.4 C 97 % 8.95 C
3880 07-11-2019 11:15:00 9.4 C 96 % 8.8 C
3881 07-11-2019 11:20:00 9.4 C 96 % 8.8 C
3882 07-11-2019 11:25:00 9.5 C 96 % 8.89 C
3883 07-11-2019 11:30:00 9.5 C 96 % 8.89 C
3884 07-11-2019 11:35:00 9.5 C 96 % 8.89 C
3885 07-11-2019 11:40:00 9.4 C 96 % 8.8 C
3886 07-11-2019 11:45:00 9.3 C 96 % 8.7 C
3887 07-11-2019 11:50:00 9.4 C 95 % 8.64 C
3888 07-11-2019 11:55:00 9.3 C 95 % 8.54 C
3889 07-11-2019 12:00:00 9.3 C 95 % 8.54 C
3890 07-11-2019 12:05:00 9.4 C 95 % 8.64 C
3891 07-11-2019 12:10:00 9.4 C 95 % 8.64 C
3892 07-11-2019 12:15:00 9.4 C 96 % 8.8 C
3893